Provisional Data: Sterling Run near Sterling Run, PA


Please select a monitoring station.
Please select start date.
Please select start date.

Toggle Unit: C/F Toggle Unit: C/F
Sample Time Temperature (C) Temperature (F) Specific Conductivity (mS/cm) pH   Turbidity (NTU+) DO (mg/L)
12/11/2021 12:00:00 AM 5.07 41.126 0.06 6.67 1.87 13.32
12/11/2021 12:15:00 AM 5.07 41.126 0.06 6.66 1.89 13.31
12/11/2021 12:30:00 AM 5.07 41.126 0.06 6.67 1.91 13.31
12/11/2021 12:45:00 AM 5.07 41.126 0.06 6.67 1.82 13.3
12/11/2021 1:00:00 AM 5.08 41.144 0.06 6.67 1.88 13.3
12/11/2021 1:15:00 AM 5.08 41.144 0.06 6.66 1.82 13.28
12/11/2021 1:30:00 AM 5.09 41.162 0.06 6.67 1.84 13.29
12/11/2021 1:45:00 AM 5.09 41.162 0.06 6.67 1.82 13.28
12/11/2021 2:00:00 AM 5.09 41.162 0.06 6.67 1.85 13.27
12/11/2021 2:15:00 AM 5.11 41.198 0.06 6.67 1.83 13.27
12/11/2021 2:30:00 AM 5.13 41.234 0.06 6.67 1.8 13.26
12/11/2021 2:45:00 AM 5.14 41.252 0.06 6.67 1.81 13.25
12/11/2021 3:00:00 AM 5.16 41.288 0.06 6.67 1.83 13.24
12/11/2021 3:15:00 AM 5.17 41.306 0.06 6.67 1.83 13.23
12/11/2021 3:30:00 AM 5.18 41.324 0.06 6.67 1.92 13.23
12/11/2021 3:45:00 AM 5.19 41.342 0.06 6.69 2.35 13.22
12/11/2021 4:00:00 AM 5.2 41.36 0.059 6.69 2.72 13.22
12/11/2021 4:15:00 AM 5.21 41.378 0.059 6.67 2.24 13.22
12/11/2021 4:30:00 AM 5.22 41.396 0.058 6.67 2.77 13.21
12/11/2021 4:45:00 AM 5.24 41.432 0.058 6.67 3.39 13.18
12/11/2021 5:00:00 AM 5.26 41.468 0.058 6.68 4.2 13.17
12/11/2021 5:15:00 AM 5.27 41.486 0.059 6.67 3.97 13.16
12/11/2021 5:30:00 AM 5.29 41.522 0.058 6.67 3.49 13.16
12/11/2021 5:45:00 AM 5.31 41.558 0.058 6.67 3.78 13.16
12/11/2021 6:00:00 AM 5.33 41.594 0.058 6.68 7.64 13.15
12/11/2021 6:15:00 AM 5.35 41.63 0.058 6.68 9.31 13.15
12/11/2021 6:30:00 AM 5.37 41.666 0.058 6.71 10.08 13.14
12/11/2021 6:45:00 AM 5.4 41.72 0.059 6.74 10.33 13.13
12/11/2021 7:00:00 AM 5.43 41.774 0.058 6.74 11.68 13.13
12/11/2021 7:15:00 AM 5.46 41.828 0.058 6.74 13.86 13.12
12/11/2021 7:30:00 AM 5.49 41.882 0.058 6.73 13.91 13.11
12/11/2021 7:45:00 AM 5.51 41.918 0.058 6.72 14.53 13.11
12/11/2021 8:00:00 AM 5.54 41.972 0.058 6.71 15.8 13.11
12/11/2021 8:15:00 AM 5.57 42.026 0.058 6.71 18.16 13.1
12/11/2021 8:30:00 AM 5.6 42.08 0.059 6.7 18.93 13.1
12/11/2021 8:45:00 AM 5.64 42.152 0.06 6.71 22.64 13.1
12/11/2021 9:00:00 AM 5.68 42.224 0.061 6.69 23.27 13.09
12/11/2021 9:15:00 AM 5.73 42.314 0.062 6.68 22.24 13.09
12/11/2021 9:30:00 AM 5.78 42.404 0.063 6.68 20.77 13.08
12/11/2021 9:45:00 AM 5.83 42.494 0.064 6.67 22 13.08
12/11/2021 10:00:00 AM 5.87 42.566 0.064 6.66 19.7 13.06
12/11/2021 10:15:00 AM 5.93 42.674 0.065 6.64 21.55 13.05
12/11/2021 10:30:00 AM 5.98 42.764 0.065 6.63 19.45 13.02
12/11/2021 10:45:00 AM 6.03 42.854 0.065 6.62 17.83 13
12/11/2021 11:00:00 AM 6.08 42.944 0.065 6.62 18.58 12.98
12/11/2021 11:15:00 AM 6.14 43.052 0.064 6.62 15.51 12.97
12/11/2021 11:30:00 AM 6.2 43.16 0.064 6.61 17.42 12.95
12/11/2021 11:45:00 AM 6.26 43.268 0.064 6.6 16.51 12.92
12/11/2021 12:00:00 PM 6.31 43.358 0.063 6.6 15.08 12.9
12/11/2021 12:15:00 PM 6.38 43.484 0.063 6.61 14.7 12.88
12/11/2021 12:30:00 PM 6.44 43.592 0.063 6.6 11.92 12.88
12/11/2021 12:45:00 PM 6.52 43.736 0.062 6.6 12.52 12.85
12/11/2021 1:00:00 PM 6.57 43.826 0.062 6.59 11.74 12.81
12/11/2021 1:15:00 PM 6.62 43.916 0.061 6.58 10.88 12.79
12/11/2021 1:30:00 PM 6.67 44.006 0.061 6.57 10.99 12.76
12/11/2021 1:45:00 PM 6.72 44.096 0.06 6.57 10.99 12.73
12/11/2021 2:00:00 PM 6.76 44.168 0.06 6.57 10.46 12.71
12/11/2021 2:15:00 PM 6.8 44.24 0.06 6.57 9.56 12.69
12/11/2021 2:30:00 PM 6.85 44.33 0.059 6.57 9.91 12.66
12/11/2021 2:45:00 PM 6.89 44.402 0.059 6.57 10.03 12.63
12/11/2021 3:00:00 PM 6.93 44.474 0.059 6.56 11.67 12.62
12/11/2021 3:15:00 PM 6.97 44.546 0.059 6.57 9.42 12.61
12/11/2021 3:30:00 PM 7.01 44.618 0.059 6.56 9.46 12.57
12/11/2021 3:45:00 PM 7.05 44.69 0.059 6.55 9.13 12.56
12/11/2021 4:00:00 PM 7.1 44.78 0.059 6.56 8.56 12.55
12/11/2021 4:15:00 PM 7.15 44.87 0.059 6.56 8.99 12.52
12/11/2021 4:30:00 PM 7.2 44.96 0.059 6.56 8.47 12.5
12/11/2021 4:45:00 PM 7.28 45.104 0.059 6.56 8.22 12.48
12/11/2021 5:00:00 PM 7.33 45.194 0.059 6.55 8.51 12.47
12/11/2021 5:15:00 PM 7.37 45.266 0.059 6.55 8.97 12.45
12/11/2021 5:30:00 PM 7.4 45.32 0.059 6.55 7.93 12.45
12/11/2021 5:45:00 PM 7.41 45.338 0.059 6.55 8.6 12.44
12/11/2021 6:00:00 PM 7.42 45.356 0.059 6.55 7.87 12.44
12/11/2021 6:15:00 PM 7.4 45.32 0.059 6.54 7.67 12.45
12/11/2021 6:30:00 PM 7.37 45.266 0.059 6.55 8.01 12.48
12/11/2021 6:45:00 PM 7.32 45.176 0.058 6.54 8.45 12.5
12/11/2021 7:00:00 PM 7.28 45.104 0.058 6.53 8.12 12.52
12/11/2021 7:15:00 PM 7.22 44.996 0.058 6.55 7.74 12.55
12/11/2021 7:30:00 PM 7.16 44.888 0.058 6.56 7.75 12.58
12/11/2021 7:45:00 PM 7.09 44.762 0.058 6.55 7.95 12.61
12/11/2021 8:00:00 PM 7.02 44.636 0.058 6.55 7.85 12.65
12/11/2021 8:15:00 PM 6.96 44.528 0.058 6.55 7.56 12.68
12/11/2021 8:30:00 PM 6.9 44.42 0.058 6.54 7.03 12.71
12/11/2021 8:45:00 PM 6.83 44.294 0.058 6.53 7.06 12.73
12/11/2021 9:00:00 PM 6.77 44.186 0.058 6.53 6.56 12.76
12/11/2021 9:15:00 PM 6.71 44.078 0.058 6.53 7.9 12.78
12/11/2021 9:30:00 PM 6.65 43.97 0.058 6.53 6.96 12.8
12/11/2021 9:45:00 PM 6.6 43.88 0.058 6.54 6.72 12.82
12/11/2021 10:00:00 PM 6.55 43.79 0.058 6.54 6.4 12.84
12/11/2021 10:15:00 PM 6.5 43.7 0.058 6.54 6.64 12.86
12/11/2021 10:30:00 PM 6.46 43.628 0.057 6.54 6.48 12.87
12/11/2021 10:45:00 PM 6.41 43.538 0.057 6.54 6.22 12.89
12/11/2021 11:00:00 PM 6.37 43.466 0.057 6.53 5.87 12.91
12/11/2021 11:15:00 PM 6.33 43.394 0.057 6.54 6.09 12.93
12/11/2021 11:30:00 PM 6.29 43.322 0.057 6.56 5.77 12.94
12/11/2021 11:45:00 PM 6.25 43.25 0.057 6.55 5.79 12.96
12/12/2021 12:00:00 AM 6.21 43.178 0.057 6.54 6.1 12.98
12/12/2021 12:15:00 AM 6.17 43.106 0.057 6.54 5.71 12.99
12/12/2021 12:30:00 AM 6.14 43.052 0.057 6.53 5.75 13
12/12/2021 12:45:00 AM 6.11 42.998 0.057 6.53 5.45 13.01
12/12/2021 1:00:00 AM 6.08 42.944 0.056 6.54 4.95 13.03
12/12/2021 1:15:00 AM 6.04 42.872 0.056 6.53 5 13.04
12/12/2021 1:30:00 AM 6.01 42.818 0.056 6.55 5.01 13.06
12/12/2021 1:45:00 AM 5.99 42.782 0.056 6.55 5.29 13.06
12/12/2021 2:00:00 AM 5.97 42.746 0.056 6.55 5.01 13.08
12/12/2021 2:15:00 AM 5.94 42.692 0.056 6.55 5.31 13.09
12/12/2021 2:30:00 AM 5.92 42.656 0.056 6.55 5.28 13.1
12/12/2021 2:45:00 AM 5.89 42.602 0.056 6.55 5.06 13.12
12/12/2021 3:00:00 AM 5.86 42.548 0.056 6.55 5.01 13.12
12/12/2021 3:15:00 AM 5.83 42.494 0.056 6.54 5.16 13.14
12/12/2021 3:30:00 AM 5.8 42.44 0.056 6.53 4.72 13.16
12/12/2021 3:45:00 AM 5.78 42.404 0.056 6.54 4.83 13.17
12/12/2021 4:00:00 AM 5.74 42.332 0.056 6.54 6.08 13.19
12/12/2021 4:15:00 AM 5.7 42.26 0.056 6.55 4.68 13.2
12/12/2021 4:30:00 AM 5.66 42.188 0.056 6.55 4.87 13.21
12/12/2021 4:45:00 AM 5.64 42.152 0.056 6.55 4.63 13.23
12/12/2021 5:00:00 AM 5.61 42.098 0.056 6.55 4.79 13.24
12/12/2021 5:15:00 AM 5.58 42.044 0.056 6.55 5.22 13.25
12/12/2021 5:30:00 AM 5.57 42.026 0.056 6.56 5.06 13.26
12/12/2021 5:45:00 AM 5.56 42.008 0.056 6.55 4.94 13.26
12/12/2021 6:00:00 AM 5.54 41.972 0.056 6.55 4.61 13.28
12/12/2021 6:15:00 AM 5.5 41.9 0.056 6.55 4.53 13.29
12/12/2021 6:30:00 AM 5.47 41.846 0.056 6.55 4.43 13.3
12/12/2021 6:45:00 AM 5.43 41.774 0.056 6.55 4.62 13.31
12/12/2021 7:00:00 AM 5.41 41.738 0.056 6.55 4.47 13.32
12/12/2021 7:15:00 AM 5.38 41.684 0.056 6.55 4.32 13.33
12/12/2021 7:30:00 AM 5.35 41.63 0.056 6.55 4.34 13.35
12/12/2021 7:45:00 AM 5.32 41.576 0.056 6.55 4.27 13.37
12/12/2021 8:00:00 AM 5.3 41.54 0.056 6.56 4.46 13.39
12/12/2021 8:15:00 AM 5.28 41.504 0.056 6.56 4.24 13.42
12/12/2021 8:30:00 AM 5.28 41.504 0.056 6.57 4.42 13.44
12/12/2021 8:45:00 AM 5.27 41.486 0.055 6.57 4.1 13.46
12/12/2021 9:00:00 AM 5.28 41.504 0.055 6.58 4.1 13.48
12/12/2021 9:15:00 AM 5.28 41.504 0.055 6.58 3.99 13.49
12/12/2021 9:30:00 AM 5.3 41.54 0.055 6.59 3.79 13.5
12/12/2021 9:45:00 AM 5.33 41.594 0.055 6.59 3.8 13.51
12/12/2021 10:00:00 AM 5.35 41.63 0.055 6.59 4.18 13.51
12/12/2021 10:15:00 AM 5.34 41.612 0.055 6.59 4.36 13.51
12/12/2021 10:30:00 AM 5.36 41.648 0.055 6.59 4.05 13.51
12/12/2021 10:45:00 AM 5.39 41.702 0.055 6.59 3.99 13.5
12/12/2021 11:00:00 AM 5.42 41.756 0.055 6.59 3.91 13.49
12/12/2021 11:15:00 AM 5.45 41.81 0.055 6.6 4.16 13.48
12/12/2021 11:30:00 AM 5.47 41.846 0.055 6.6 3.99 13.47
12/12/2021 11:45:00 AM 5.47 41.846 0.055 6.6 4.12 13.47
12/12/2021 12:00:00 PM 5.48 41.864 0.055 6.6 4.1 13.46
12/12/2021 12:15:00 PM 5.49 41.882 0.055 6.6 3.88 13.46
12/12/2021 12:30:00 PM 5.51 41.918 0.055 6.6 3.55 13.45
12/12/2021 12:45:00 PM 5.53 41.954 0.055 6.6 3.64 13.44
12/12/2021 1:00:00 PM 5.54 41.972 0.055 6.6 3.86 13.43
12/12/2021 1:15:00 PM 5.56 42.008 0.055 6.59 3.84 13.42
12/12/2021 1:30:00 PM 5.56 42.008 0.055 6.6 3.69 13.41
12/12/2021 1:45:00 PM 5.57 42.026 0.054 6.58 3.48 13.4
12/12/2021 2:00:00 PM 5.59 42.062 0.054 6.6 3.41 13.39
12/12/2021 2:15:00 PM 5.59 42.062 0.054 6.59 3.67 13.38
12/12/2021 2:30:00 PM 5.59 42.062 0.054 6.59 3.4 13.37
12/12/2021 2:45:00 PM 5.59 42.062 0.054 6.58 3.65 13.37
12/12/2021 3:00:00 PM 5.59 42.062 0.054 6.57 3.39 13.37
12/12/2021 3:15:00 PM 5.59 42.062 0.054 6.57 3.44 13.37
12/12/2021 3:30:00 PM 5.58 42.044 0.054 6.56 3.57 13.36
12/12/2021 3:45:00 PM 5.57 42.026 0.054 6.58 3.8 13.36
12/12/2021 4:00:00 PM 5.57 42.026 0.054 6.57 3.7 13.36
12/12/2021 4:15:00 PM 5.57 42.026 0.054 6.57 3.35 13.35
12/12/2021 4:30:00 PM 5.55 41.99 0.054 6.56 3.44 13.35
12/12/2021 4:45:00 PM 5.53 41.954 0.054 6.55 3.68 13.34
12/12/2021 5:00:00 PM 5.52 41.936 0.054 6.55 3.53 13.33
12/12/2021 5:15:00 PM 5.5 41.9 0.054 6.55 3.57 13.34
12/12/2021 5:30:00 PM 5.47 41.846 0.054 6.54 3.61 13.34
12/12/2021 5:45:00 PM 5.45 41.81 0.054 6.54 3.79 13.34
12/12/2021 6:00:00 PM 5.43 41.774 0.054 6.53 4.22 13.35
12/12/2021 6:15:00 PM 5.4 41.72 0.054 6.54 3.84 13.36
12/12/2021 6:30:00 PM 5.37 41.666 0.054 6.53 3.95 13.37
12/12/2021 6:45:00 PM 5.35 41.63 0.054 6.52 3.86 13.38
12/12/2021 7:00:00 PM 5.32 41.576 0.054 6.53 4.05 13.39
12/12/2021 7:15:00 PM 5.29 41.522 0.054 6.55 3.97 13.4
12/12/2021 7:30:00 PM 5.26 41.468 0.054 6.55 3.55 13.42
12/12/2021 7:45:00 PM 5.24 41.432 0.054 6.55 3.99 13.43
12/12/2021 8:00:00 PM 5.21 41.378 0.054 6.56 3.65 13.44
12/12/2021 8:15:00 PM 5.18 41.324 0.054 6.56 3.64 13.44
12/12/2021 8:30:00 PM 5.15 41.27 0.054 6.56 3.44 13.45
12/12/2021 8:45:00 PM 5.12 41.216 0.054 6.55 3.65 13.47
12/12/2021 9:00:00 PM 5.09 41.162 0.054 6.56 3.65 13.48
12/12/2021 9:15:00 PM 5.06 41.108 0.054 6.56 3.6 13.49
12/12/2021 9:30:00 PM 5.03 41.054 0.054 6.55 3.28 13.5
12/12/2021 9:45:00 PM 5 41 0.054 6.55 3.31 13.52
12/12/2021 10:00:00 PM 4.97 40.946 0.054 6.55 3.41 13.52
12/12/2021 10:15:00 PM 4.95 40.91 0.054 6.55 3.44 13.53
12/12/2021 10:30:00 PM 4.92 40.856 0.054 6.55 3.4 13.54
12/12/2021 10:45:00 PM 4.9 40.82 0.054 6.55 3.39 13.54
12/12/2021 11:00:00 PM 4.87 40.766 0.054 6.54 3.34 13.55
12/12/2021 11:15:00 PM 4.84 40.712 0.054 6.55 3.22 13.56
12/12/2021 11:30:00 PM 4.82 40.676 0.054 6.55 3.12 13.57
12/12/2021 11:45:00 PM 4.79 40.622 0.054 6.54 3.29 13.58
12/13/2021 12:00:00 AM 4.77 40.586 0.054 6.54 3.23 13.59
12/13/2021 12:15:00 AM 4.75 40.55 0.054 6.54 3.15 13.61
12/13/2021 12:30:00 AM 4.72 40.496 0.054 6.55 3.22 13.61
12/13/2021 12:45:00 AM 4.7 40.46 0.054 6.55 3.2 13.63
12/13/2021 1:00:00 AM 4.68 40.424 0.054 6.55 3.24 13.63
12/13/2021 1:15:00 AM 4.66 40.388 0.054 6.55 3.17 13.64
12/13/2021 1:30:00 AM 4.64 40.352 0.054 6.55 3.11 13.65
12/13/2021 1:45:00 AM 4.61 40.298 0.054 6.55 3.15 13.65
12/13/2021 2:00:00 AM 4.59 40.262 0.054 6.55 3.37 13.67
12/13/2021 2:15:00 AM 4.57 40.226 0.054 6.55 3.23 13.68
12/13/2021 2:30:00 AM 4.56 40.208 0.054 6.55 3.12 13.69
12/13/2021 2:45:00 AM 4.55 40.19 0.054 6.55 3.25 13.7
12/13/2021 3:00:00 AM 4.53 40.154 0.054 6.55 3.1 13.7
12/13/2021 3:15:00 AM 4.53 40.154 0.054 6.55 3.15 13.7
12/13/2021 3:30:00 AM 4.52 40.136 0.053 6.55 3.04 13.7
12/13/2021 3:45:00 AM 4.52 40.136 0.053 6.55 3.07 13.71
12/13/2021 4:00:00 AM 4.52 40.136 0.053 6.55 3.17 13.71
12/13/2021 4:15:00 AM 4.51 40.118 0.053 6.55 3.08 13.71
12/13/2021 4:30:00 AM 4.5 40.1 0.053 6.55 3.36 13.72
12/13/2021 4:45:00 AM 4.49 40.082 0.053 6.54 3.36 13.72
12/13/2021 5:00:00 AM 4.48 40.064 0.053 6.54 2.97 13.73
12/13/2021 5:15:00 AM 4.46 40.028 0.053 6.54 3.28 13.73
12/13/2021 5:30:00 AM 4.45 40.01 0.053 6.54 3.11 13.74
12/13/2021 5:45:00 AM 4.44 39.992 0.053 6.54 2.95 13.74
12/13/2021 6:00:00 AM 4.43 39.974 0.053 6.54 3.16 13.75
12/13/2021 6:15:00 AM 4.42 39.956 0.053 6.54 2.93 13.74
12/13/2021 6:30:00 AM 4.41 39.938 0.053 6.54 3.38 13.75
12/13/2021 6:45:00 AM 4.4 39.92 0.053 6.55 2.87 13.75
12/13/2021 7:00:00 AM 4.39 39.902 0.053 6.54 3.04 13.76
12/13/2021 7:15:00 AM 4.38 39.884 0.053 6.54 2.83 13.76
12/13/2021 7:30:00 AM 4.37 39.866 0.053 6.54 2.91 13.77
12/13/2021 7:45:00 AM 4.35 39.83 0.053 6.54 2.99 13.77
12/13/2021 8:00:00 AM 4.34 39.812 0.053 6.55 2.8 13.8
12/13/2021 8:15:00 AM 4.33 39.794 0.053 6.55 2.83 13.82
12/13/2021 8:30:00 AM 4.32 39.776 0.053 6.55 2.79 13.83
12/13/2021 8:45:00 AM 4.33 39.794 0.053 6.55 3.04 13.85
12/13/2021 9:00:00 AM 4.34 39.812 0.053 6.56 2.84 13.86
12/13/2021 9:15:00 AM 4.35 39.83 0.053 6.57 2.83 13.86
12/13/2021 9:30:00 AM 4.38 39.884 0.053 6.57 2.85 13.87
12/13/2021 9:45:00 AM 4.4 39.92 0.053 6.57 2.89 13.87
12/13/2021 10:00:00 AM 4.44 39.992 0.053 6.58 2.78 13.86
12/13/2021 10:15:00 AM 4.48 40.064 0.053 6.59 2.8 13.86
12/13/2021 10:30:00 AM 4.52 40.136 0.053 6.59 2.77 13.85
12/13/2021 10:45:00 AM 4.57 40.226 0.053 6.59 2.75 13.83
12/13/2021 11:00:00 AM 4.63 40.334 0.053 6.59 2.85 13.82
12/13/2021 11:15:00 AM 4.69 40.442 0.053 6.6 2.71 13.8
12/13/2021 11:30:00 AM 4.75 40.55 0.053 6.6 2.7 13.77
12/13/2021 11:45:00 AM 4.82 40.676 0.053 6.61 2.7 13.75
12/13/2021 12:00:00 PM 4.88 40.784 0.053 6.6 3.04 13.72
12/13/2021 12:15:00 PM 4.94 40.892 0.053 6.61 2.7 13.68
12/13/2021 12:30:00 PM 5.01 41.018 0.053 6.6 2.65 13.66
12/13/2021 12:45:00 PM 5.06 41.108 0.053 6.61 2.64 13.63
12/13/2021 1:00:00 PM 5.12 41.216 0.053 6.61 2.67 13.6
12/13/2021 1:15:00 PM 5.18 41.324 0.053 6.61 2.69 13.58
12/13/2021 1:30:00 PM 5.23 41.414 0.053 6.6 2.65 13.55
12/13/2021 1:45:00 PM 5.27 41.486 0.053 6.59 2.96 13.53
12/13/2021 2:00:00 PM 5.31 41.558 0.053 6.6 2.8 13.5
12/13/2021 2:15:00 PM 5.35 41.63 0.053 6.6 2.64 13.48
12/13/2021 2:30:00 PM 5.38 41.684 0.053 6.59 2.67 13.47
12/13/2021 2:45:00 PM 5.4 41.72 0.053 6.59 2.8 13.45
12/13/2021 3:00:00 PM 5.42 41.756 0.053 6.59 2.87 13.44
12/13/2021 3:15:00 PM 5.44 41.792 0.053 6.58 2.78 13.43
12/13/2021 3:30:00 PM 5.45 41.81 0.053 6.59 2.8 13.43
12/13/2021 3:45:00 PM 5.45 41.81 0.053 6.59 2.7 13.42
12/13/2021 4:00:00 PM 5.46 41.828 0.053 6.59 2.81 13.41
12/13/2021 4:15:00 PM 5.46 41.828 0.053 6.58 2.64 13.4
12/13/2021 4:30:00 PM 5.46 41.828 0.053 6.58 2.94 13.4
12/13/2021 4:45:00 PM 5.45 41.81 0.053 6.58 2.61 13.39
12/13/2021 5:00:00 PM 5.43 41.774 0.053 6.57 2.85 13.38
12/13/2021 5:15:00 PM 5.42 41.756 0.053 6.57 2.75 13.38
12/13/2021 5:30:00 PM 5.4 41.72 0.053 6.57 2.77 13.38
12/13/2021 5:45:00 PM 5.38 41.684 0.053 6.57 2.78 13.39
12/13/2021 6:00:00 PM 5.36 41.648 0.053 6.57 2.71 13.39
12/13/2021 6:15:00 PM 5.34 41.612 0.053 6.57 2.77 13.4
12/13/2021 6:30:00 PM 5.31 41.558 0.053 6.56 2.8 13.41
12/13/2021 6:45:00 PM 5.29 41.522 0.053 6.56 2.77 13.42
12/13/2021 7:00:00 PM 5.26 41.468 0.053 6.57 2.79 13.42
12/13/2021 7:15:00 PM 5.24 41.432 0.053 6.56 2.83 13.43
12/13/2021 7:30:00 PM 5.22 41.396 0.053 6.57 2.87 13.44
12/13/2021 7:45:00 PM 5.19 41.342 0.053 6.57 2.66 13.46
12/13/2021 8:00:00 PM 5.16 41.288 0.053 6.56 2.73 13.47
12/13/2021 8:15:00 PM 5.13 41.234 0.053 6.56 2.83 13.48
12/13/2021 8:30:00 PM 5.11 41.198 0.053 6.56 3.11 13.5
12/13/2021 8:45:00 PM 5.08 41.144 0.053 6.56 2.81 13.51
12/13/2021 9:00:00 PM 5.05 41.09 0.053 6.56 2.79 13.52
12/13/2021 9:15:00 PM 5.02 41.036 0.053 6.56 2.81 13.53
12/13/2021 9:30:00 PM 4.99 40.982 0.053 6.56 2.64 13.54
12/13/2021 9:45:00 PM 4.97 40.946 0.053 6.56 2.82 13.56
12/13/2021 10:00:00 PM 4.93 40.874 0.053 6.56 2.98 13.56
12/13/2021 10:15:00 PM 4.91 40.838 0.053 6.56 2.74 13.58
12/13/2021 10:30:00 PM 4.88 40.784 0.053 6.55 2.83 13.59
12/13/2021 10:45:00 PM 4.85 40.73 0.053 6.55 2.79 13.61
12/13/2021 11:00:00 PM 4.82 40.676 0.053 6.56 2.73 13.62
12/13/2021 11:15:00 PM 4.79 40.622 0.053 6.55 2.8 13.63
12/13/2021 11:30:00 PM 4.76 40.568 0.053 6.56 2.72 13.64
12/13/2021 11:45:00 PM 4.74 40.532 0.053 6.55 2.91 13.65
12/14/2021 12:00:00 AM 4.71 40.478 0.053 6.55 2.73 13.67
12/14/2021 12:15:00 AM 4.68 40.424 0.053 6.55 2.67 13.68
12/14/2021 12:30:00 AM 4.66 40.388 0.053 6.55 2.89 13.69
12/14/2021 12:45:00 AM 4.63 40.334 0.053 6.55 2.69 13.7
12/14/2021 1:00:00 AM 4.61 40.298 0.053 6.55 2.83 13.71
12/14/2021 1:15:00 AM 4.58 40.244 0.053 6.55 2.65 13.72
12/14/2021 1:30:00 AM 4.56 40.208 0.053 6.55 2.85 13.74
12/14/2021 1:45:00 AM 4.53 40.154 0.053 6.55 3.17 13.74
12/14/2021 2:00:00 AM 4.51 40.118 0.054 6.55 2.74 13.76
12/14/2021 2:15:00 AM 4.48 40.064 0.054 6.55 2.66 13.77
12/14/2021 2:30:00 AM 4.46 40.028 0.054 6.55 2.63 13.78
12/14/2021 2:45:00 AM 4.43 39.974 0.054 6.55 2.56 13.79
12/14/2021 3:00:00 AM 4.4 39.92 0.054 6.55 2.6 13.8
12/14/2021 3:15:00 AM 4.38 39.884 0.054 6.55 2.73 13.81
12/14/2021 3:30:00 AM 4.35 39.83 0.054 6.54 2.61 13.82
12/14/2021 3:45:00 AM 4.32 39.776 0.054 6.55 2.89 13.83
12/14/2021 4:00:00 AM 4.29 39.722 0.054 6.54 2.6 13.84
12/14/2021 4:15:00 AM 4.26 39.668 0.054 6.55 2.56 13.85
12/14/2021 4:30:00 AM 4.23 39.614 0.054 6.55 2.69 13.86
12/14/2021 4:45:00 AM 4.21 39.578 0.054 6.55 2.58 13.87
12/14/2021 5:00:00 AM 4.18 39.524 0.054 6.55 2.67 13.89
12/14/2021 5:15:00 AM 4.15 39.47 0.054 6.55 2.51 13.9
12/14/2021 5:30:00 AM 4.12 39.416 0.054 6.55 2.66 13.92
12/14/2021 5:45:00 AM 4.09 39.362 0.054 6.55 2.67 13.93
12/14/2021 6:00:00 AM 4.06 39.308 0.054 6.55 2.58 13.94
12/14/2021 6:15:00 AM 4.04 39.272 0.054 6.55 2.53 13.96
12/14/2021 6:30:00 AM 4.01 39.218 0.054 6.55 2.51 13.97
12/14/2021 6:45:00 AM 3.98 39.164 0.054 6.55 2.71 13.98
12/14/2021 7:00:00 AM 3.96 39.128 0.054 6.55 2.59 13.99
12/14/2021 7:15:00 AM 3.93 39.074 0.054 6.54 2.68 14
12/14/2021 7:30:00 AM 3.9 39.02 0.054 6.54 2.56 14.02
12/14/2021 7:45:00 AM 3.88 38.984 0.054 6.55 2.57 14.04
12/14/2021 8:00:00 AM 3.86 38.948 0.054 6.55 2.53 14.06
12/14/2021 8:15:00 AM 3.84 38.912 0.054 6.55 2.6 14.08
12/14/2021 8:30:00 AM 3.82 38.876 0.054 6.56 2.49 14.1
12/14/2021 8:45:00 AM 3.82 38.876 0.054 6.56 2.48 14.13
12/14/2021 9:00:00 AM 3.82 38.876 0.054 6.56 2.58 14.14
12/14/2021 9:15:00 AM 3.84 38.912 0.054 6.57 2.51 14.15
12/14/2021 9:30:00 AM 3.85 38.93 0.054 6.57 2.84 14.16
12/14/2021 9:45:00 AM 3.87 38.966 0.054 6.57 2.83 14.17
12/14/2021 10:00:00 AM 3.9 39.02 0.054 6.51 2.54 14.17
12/14/2021 10:15:00 AM 3.93 39.074 0.054 6.5 3.21 14.17
12/14/2021 10:30:00 AM 3.97 39.146 0.054 6.48 3.87 14.16
12/14/2021 10:45:00 AM 4.02 39.236 0.054 6.51 2.56 14.15
12/14/2021 11:00:00 AM 4.07 39.326 0.054 6.53 2.6 14.13
12/14/2021 11:15:00 AM 4.13 39.434 0.054 6.56 3.02 14.11
12/14/2021 11:30:00 AM 4.19 39.542 0.054 6.56 2.78 14.09
12/14/2021 11:45:00 AM 4.25 39.65 0.054 6.58 2.52 14.07
12/14/2021 12:00:00 PM 4.31 39.758 0.054 6.58 2.62 14.05
12/14/2021 12:15:00 PM 4.37 39.866 0.054 6.59 2.51 14.01
12/14/2021 12:30:00 PM 4.44 39.992 0.054 6.6 2.59 13.98
12/14/2021 12:45:00 PM 4.51 40.118 0.054 6.6 2.47 13.95
12/14/2021 1:00:00 PM 4.59 40.262 0.054 6.6 2.41 13.91
12/14/2021 1:15:00 PM 4.66 40.388 0.054 6.61 2.39 13.89
12/14/2021 1:30:00 PM 4.72 40.496 0.054 6.6 2.36 13.85
12/14/2021 1:45:00 PM 4.77 40.586 0.054 6.59 2.41 13.82
12/14/2021 2:00:00 PM 4.83 40.694 0.054 6.61 2.51 13.8
12/14/2021 2:15:00 PM 4.87 40.766 0.054 6.6 2.28 13.78
12/14/2021 2:30:00 PM 4.91 40.838 0.054 6.59 2.33 13.75
12/14/2021 2:45:00 PM 4.95 40.91 0.054 6.59 2.38 13.73
12/14/2021 3:00:00 PM 4.98 40.964 0.054 6.59 2.35 13.72
12/14/2021 3:15:00 PM 5 41 0.054 6.59 2.54 13.71
12/14/2021 3:30:00 PM 5.01 41.018 0.054 6.59 2.41 13.7
12/14/2021 3:45:00 PM 5.02 41.036 0.054 6.59 2.4 13.7
12/14/2021 4:00:00 PM 5.03 41.054 0.054 6.58 2.44 13.68
12/14/2021 4:15:00 PM 5.03 41.054 0.054 6.58 2.91 13.67
12/14/2021 4:30:00 PM 5.03 41.054 0.054 6.58 2.46 13.67
12/14/2021 4:45:00 PM 5.01 41.018 0.054 6.58 2.46 13.66
12/14/2021 5:00:00 PM 5 41 0.054 6.57 2.44 13.65
12/14/2021 5:15:00 PM 4.98 40.964 0.054 6.57 2.46 13.65
12/14/2021 5:30:00 PM 4.96 40.928 0.054 6.57 2.61 13.65
12/14/2021 5:45:00 PM 4.94 40.892 0.054 6.57 2.4 13.66
12/14/2021 6:00:00 PM 4.92 40.856 0.054 6.56 2.44 13.66
12/14/2021 6:15:00 PM 4.9 40.82 0.054 6.56 2.51 13.67
12/14/2021 6:30:00 PM 4.89 40.802 0.054 6.55 2.63 13.67
12/14/2021 6:45:00 PM 4.87 40.766 0.054 6.56 2.42 13.68
12/14/2021 7:00:00 PM 4.86 40.748 0.054 6.55 2.34 13.69
12/14/2021 7:15:00 PM 4.85 40.73 0.054 6.56 2.61 13.69
12/14/2021 7:30:00 PM 4.84 40.712 0.054 6.56 2.61 13.7
12/14/2021 7:45:00 PM 4.82 40.676 0.054 6.56 2.51 13.7
12/14/2021 8:00:00 PM 4.8 40.64 0.054 6.55 2.58 13.71
12/14/2021 8:15:00 PM 4.79 40.622 0.055 6.55 2.4 13.71
12/14/2021 8:30:00 PM 4.77 40.586 0.055 6.54 2.49 13.72
12/14/2021 8:45:00 PM 4.75 40.55 0.055 6.56 2.47 13.73
12/14/2021 9:00:00 PM 4.73 40.514 0.055 6.55 2.54 13.73
12/14/2021 9:15:00 PM 4.71 40.478 0.055 6.55 2.54 13.74
12/14/2021 9:30:00 PM 4.68 40.424 0.055 6.55 2.38 13.75
12/14/2021 9:45:00 PM 4.65 40.37 0.055 6.54 2.42 13.76
12/14/2021 10:00:00 PM 4.63 40.334 0.055 6.55 2.47 13.77
12/14/2021 10:15:00 PM 4.61 40.298 0.055 6.55 2.56 13.78
12/14/2021 10:30:00 PM 4.59 40.262 0.055 6.55 2.34 13.78
12/14/2021 10:45:00 PM 4.56 40.208 0.055 6.54 2.43 13.8
12/14/2021 11:00:00 PM 4.55 40.19 0.055 6.54 2.53 13.8
12/14/2021 11:15:00 PM 4.53 40.154 0.055 6.55 2.4 13.81
12/14/2021 11:30:00 PM 4.51 40.118 0.055 6.54 2.46 13.82
12/14/2021 11:45:00 PM 4.5 40.1 0.055 6.54 2.35 13.83
12/15/2021 12:00:00 AM 4.48 40.064 0.055 6.54 2.51 13.83
12/15/2021 12:15:00 AM 4.47 40.046 0.055 6.54 2.55 13.84
12/15/2021 12:30:00 AM 4.45 40.01 0.055 6.54 2.52 13.84
12/15/2021 12:45:00 AM 4.42 39.956 0.055 6.54 2.37 13.85
12/15/2021 1:00:00 AM 4.4 39.92 0.055 6.54 2.4 13.85
12/15/2021 1:15:00 AM 4.38 39.884 0.055 6.55 2.4 13.86
12/15/2021 1:30:00 AM 4.36 39.848 0.055 6.54 2.4 13.87
12/15/2021 1:45:00 AM 4.33 39.794 0.055 6.54 2.43 13.88
12/15/2021 2:00:00 AM 4.31 39.758 0.055 6.54 2.41 13.88
12/15/2021 2:15:00 AM 4.29 39.722 0.055 6.55 2.46 13.89
12/15/2021 2:30:00 AM 4.26 39.668 0.055 6.54 2.3 13.9
12/15/2021 2:45:00 AM 4.24 39.632 0.055 6.54 2.58 13.9
12/15/2021 3:00:00 AM 4.22 39.596 0.055 6.54 2.41 13.92
12/15/2021 3:15:00 AM 4.19 39.542 0.055 6.54 2.33 13.92
12/15/2021 3:30:00 AM 4.17 39.506 0.055 6.55 2.5 13.93
12/15/2021 3:45:00 AM 4.15 39.47 0.055 6.53 2.36 13.93
12/15/2021 4:00:00 AM 4.13 39.434 0.055 6.54 2.58 13.94
12/15/2021 4:15:00 AM 4.11 39.398 0.055 6.54 2.95 13.95
12/15/2021 4:30:00 AM 4.09 39.362 0.055 6.54 2.6 13.96
12/15/2021 4:45:00 AM 4.07 39.326 0.055 6.54 2.34 13.96
12/15/2021 5:00:00 AM 4.06 39.308 0.055 6.54 2.36 13.97
12/15/2021 5:15:00 AM 4.05 39.29 0.055 6.55 2.29 13.98
12/15/2021 5:30:00 AM 4.05 39.29 0.055 6.55 2.38 13.98
12/15/2021 5:45:00 AM 4.04 39.272 0.055 6.54 2.37 13.98
12/15/2021 6:00:00 AM 4.03 39.254 0.055 6.54 2.33 13.98
12/15/2021 6:15:00 AM 4.02 39.236 0.055 6.55 2.27 13.97
12/15/2021 6:30:00 AM 4 39.2 0.055 6.55 2.28 13.98
12/15/2021 6:45:00 AM 4 39.2 0.055 6.55 2.39 13.98
12/15/2021 7:00:00 AM 3.99 39.182 0.055 6.54 2.5 14
12/15/2021 7:15:00 AM 3.99 39.182 0.055 6.55 2.47 14
12/15/2021 7:30:00 AM 3.99 39.182 0.055 6.54 2.26 13.99
12/15/2021 7:45:00 AM 4 39.2 0.055 6.55 2.26 14.01
12/15/2021 8:00:00 AM 4.01 39.218 0.055 6.55 2.38 14.02
12/15/2021 8:15:00 AM 4.03 39.254 0.055 6.56 2.3 14.02
12/15/2021 8:30:00 AM 4.06 39.308 0.055 6.56 2.34 14.03
12/15/2021 8:45:00 AM 4.1 39.38 0.055 6.57 2.24 14.03
12/15/2021 9:00:00 AM 4.14 39.452 0.055 6.57 2.33 14.03
12/15/2021 9:15:00 AM 4.19 39.542 0.055 6.57 2.37 14.02
12/15/2021 9:30:00 AM 4.25 39.65 0.055 6.58 2.28 14.02
12/15/2021 9:45:00 AM 4.29 39.722 0.055 6.58 2.4 14.01
12/15/2021 10:00:00 AM 4.35 39.83 0.055 6.59 2.3 13.99
12/15/2021 10:15:00 AM 4.42 39.956 0.055 6.58 2.32 13.98
12/15/2021 10:30:00 AM 4.49 40.082 0.055 6.59 2.49 13.96
12/15/2021 10:45:00 AM 4.56 40.208 0.055 6.6 2.34 13.94
12/15/2021 11:00:00 AM 4.64 40.352 0.055 6.59 2.28 13.91
12/15/2021 11:15:00 AM 4.71 40.478 0.055 6.6 2.26 13.88
12/15/2021 11:30:00 AM 4.77 40.586 0.055 6.6 2.26 13.85
12/15/2021 11:45:00 AM 4.84 40.712 0.055 6.6 2.29 13.82
12/15/2021 12:00:00 PM 4.91 40.838 0.055 6.6 2.23 13.79
12/15/2021 12:15:00 PM 4.98 40.964 0.055 6.61 2.26 13.76
12/15/2021 12:30:00 PM 5.04 41.072 0.055 6.6 2.26 13.74
12/15/2021 12:45:00 PM 5.09 41.162 0.055 6.61 2.25 13.7
12/15/2021 1:00:00 PM 5.14 41.252 0.055 6.61 2.29 13.68
12/15/2021 1:15:00 PM 5.2 41.36 0.055 6.61 2.18 13.66
12/15/2021 1:30:00 PM 5.25 41.45 0.055 6.61 2.22 13.63
12/15/2021 1:45:00 PM 5.3 41.54 0.055 6.6 2.17 13.6
12/15/2021 2:00:00 PM 5.34 41.612 0.055 6.6 2.25 13.57
12/15/2021 2:15:00 PM 5.38 41.684 0.055 6.6 2.2 13.54
12/15/2021 2:30:00 PM 5.42 41.756 0.055 6.6 2.36 13.53
12/15/2021 2:45:00 PM 5.46 41.828 0.055 6.6 2.21 13.51
12/15/2021 3:00:00 PM 5.5 41.9 0.055 6.6 2.21 13.5
12/15/2021 3:15:00 PM 5.55 41.99 0.055 6.61 2.19 13.49
12/15/2021 3:30:00 PM 5.58 42.044 0.055 6.61 2.24 13.47
12/15/2021 3:45:00 PM 5.61 42.098 0.055 6.6 2.18 13.43
12/15/2021 4:00:00 PM 5.64 42.152 0.055 6.6 2.33 13.41
12/15/2021 4:15:00 PM 5.66 42.188 0.055 6.59 2.25 13.37
12/15/2021 4:30:00 PM 5.69 42.242 0.055 6.59 2.21 13.35
12/15/2021 4:45:00 PM 5.7 42.26 0.055 6.59 2.3 13.33
12/15/2021 5:00:00 PM 5.72 42.296 0.055 6.58 2.31 13.31
12/15/2021 5:15:00 PM 5.74 42.332 0.056 6.58 2.2 13.3
12/15/2021 5:30:00 PM 5.75 42.35 0.056 6.58 2.51 13.29
12/15/2021 5:45:00 PM 5.77 42.386 0.056 6.58 2.34 13.27
12/15/2021 6:00:00 PM 5.78 42.404 0.056 6.58 2.33 13.26
12/15/2021 6:15:00 PM 5.8 42.44 0.056 6.58 2.28 13.26
12/15/2021 6:30:00 PM 5.81 42.458 0.056 6.58 2.43 13.25
12/15/2021 6:45:00 PM 5.82 42.476 0.056 6.58 2.34 13.25
12/15/2021 7:00:00 PM 5.83 42.494 0.056 6.58 2.38 13.24
12/15/2021 7:15:00 PM 5.84 42.512 0.056 6.59 2.36 13.24
12/15/2021 7:30:00 PM 5.85 42.53 0.056 6.58 2.4 13.23
12/15/2021 7:45:00 PM 5.86 42.548 0.056 6.58 2.33 13.22
12/15/2021 8:00:00 PM 5.87 42.566 0.056 6.58 2.35 13.21
12/15/2021 8:15:00 PM 5.88 42.584 0.056 6.58 2.45 13.22
12/15/2021 8:30:00 PM 5.88 42.584 0.056 6.58 2.74 13.21
12/15/2021 8:45:00 PM 5.89 42.602 0.056 6.57 2.36 13.21
12/15/2021 9:00:00 PM 5.9 42.62 0.056 6.57 2.47 13.21
12/15/2021 9:15:00 PM 5.9 42.62 0.056 6.57 2.35 13.2
12/15/2021 9:30:00 PM 5.92 42.656 0.056 6.57 2.26 13.19
12/15/2021 9:45:00 PM 5.93 42.674 0.056 6.57 2.3 13.18
12/15/2021 10:00:00 PM 5.94 42.692 0.056 6.57 2.23 13.18
12/15/2021 10:15:00 PM 5.95 42.71 0.056 6.57 2.37 13.16
12/15/2021 10:30:00 PM 5.96 42.728 0.056 6.57 2.35 13.16
12/15/2021 10:45:00 PM 5.98 42.764 0.056 6.57 2.55 13.15
12/15/2021 11:00:00 PM 5.99 42.782 0.056 6.57 2.28 13.15
12/15/2021 11:15:00 PM 6 42.8 0.056 6.57 2.33 13.14
12/15/2021 11:30:00 PM 6.02 42.836 0.056 6.57 2.36 13.13
12/15/2021 11:45:00 PM 6.03 42.854 0.056 6.57 2.39 13.13
12/16/2021 12:00:00 AM 6.04 42.872 0.056 6.57 2.32 13.12
12/16/2021 12:15:00 AM 6.05 42.89 0.056 6.57 2.36 13.11
12/16/2021 12:30:00 AM 6.06 42.908 0.056 6.57 2.35 13.1
12/16/2021 12:45:00 AM 6.07 42.926 0.056 6.57 2.29 13.1
12/16/2021 1:00:00 AM 6.07 42.926 0.056 6.57 2.29 13.09
12/16/2021 1:15:00 AM 6.07 42.926 0.056 6.57 2.5 13.09
12/16/2021 1:30:00 AM 6.08 42.944 0.056 6.57 2.39 13.09
12/16/2021 1:45:00 AM 6.09 42.962 0.056 6.57 2.47 13.08
12/16/2021 2:00:00 AM 6.09 42.962 0.056 6.57 2.26 13.08
12/16/2021 2:15:00 AM 6.09 42.962 0.056 6.57 2.26 13.08
12/16/2021 2:30:00 AM 6.09 42.962 0.056 6.57 2.27 13.07
12/16/2021 2:45:00 AM 6.09 42.962 0.056 6.57 2.35 13.07
12/16/2021 3:00:00 AM 6.1 42.98 0.056 6.57 2.27 13.07
12/16/2021 3:15:00 AM 6.09 42.962 0.056 6.57 2.24 13.06
12/16/2021 3:30:00 AM 6.09 42.962 0.056 6.57 2.36 13.06
12/16/2021 3:45:00 AM 6.09 42.962 0.056 6.57 2.44 13.06
12/16/2021 4:00:00 AM 6.09 42.962 0.056 6.57 2.31 13.06
12/16/2021 4:15:00 AM 6.09 42.962 0.056 6.57 2.31 13.06
12/16/2021 4:30:00 AM 6.07 42.926 0.056 6.56 2.28 13.06
12/16/2021 4:45:00 AM 6.07 42.926 0.056 6.57 2.39 13.05
12/16/2021 5:00:00 AM 6.06 42.908 0.056 6.57 2.25 13.06
12/16/2021 5:15:00 AM 6.05 42.89 0.056 6.57 2.25 13.06
12/16/2021 5:30:00 AM 6.03 42.854 0.056 6.57 2.27 13.06
12/16/2021 5:45:00 AM 6.01 42.818 0.056 6.57 2.27 13.06
12/16/2021 6:00:00 AM 5.99 42.782 0.056 6.56 2.23 13.06
12/16/2021 6:15:00 AM 5.97 42.746 0.056 6.57 2.32 13.08
12/16/2021 6:30:00 AM 5.94 42.692 0.056 6.57 2.27 13.08
12/16/2021 6:45:00 AM 5.92 42.656 0.056 6.57 2.22 13.09
12/16/2021 7:00:00 AM 5.89 42.602 0.057 6.57 2.28 13.1
12/16/2021 7:15:00 AM 5.86 42.548 0.057 6.57 2.54 13.1
12/16/2021 7:30:00 AM 5.84 42.512 0.057 6.57 2.3 13.12
12/16/2021 7:45:00 AM 5.81 42.458 0.056 6.57 2.26 13.13
12/16/2021 8:00:00 AM 5.79 42.422 0.057 6.57 2.31 13.15
12/16/2021 8:15:00 AM 5.78 42.404 0.057 6.58 2.22 13.18
12/16/2021 8:30:00 AM 5.77 42.386 0.056 6.59 2.22 13.21
12/16/2021 8:45:00 AM 5.76 42.368 0.056 6.59 2.15 13.23
12/16/2021 9:00:00 AM 5.76 42.368 0.056 6.6 2.33 13.25
12/16/2021 9:15:00 AM 5.77 42.386 0.056 6.6 2.24 13.26
12/16/2021 9:30:00 AM 5.79 42.422 0.056 6.61 2.29 13.26
12/16/2021 9:45:00 AM 5.82 42.476 0.056 6.61 2.2 13.27
12/16/2021 10:00:00 AM 5.84 42.512 0.056 6.61 2.32 13.26
12/16/2021 10:15:00 AM 5.88 42.584 0.056 6.62 2.23 13.26
12/16/2021 10:30:00 AM 5.93 42.674 0.056 6.62 2.19 13.25
12/16/2021 10:45:00 AM 6.01 42.818 0.056 6.62 2.21 13.24
12/16/2021 11:00:00 AM 6.08 42.944 0.056 6.62 2.17 13.22
12/16/2021 11:15:00 AM 6.13 43.034 0.056 6.62 2.33 13.2
12/16/2021 11:30:00 AM 6.21 43.178 0.056 6.63 2.32 13.17
12/16/2021 11:45:00 AM 6.29 43.322 0.056 6.63 2.19 13.14
12/16/2021 12:00:00 PM 6.39 43.502 0.056 6.64 2.19 13.12
12/16/2021 12:15:00 PM 6.49 43.682 0.056 6.64 2.27 13.09
12/16/2021 12:30:00 PM 6.57 43.826 0.056 6.64 2.3 13.05
12/16/2021 12:45:00 PM 6.66 43.988 0.056 6.64 2.2 13
12/16/2021 1:00:00 PM 6.75 44.15 0.056 6.64 2.18 12.97
12/16/2021 1:15:00 PM 6.86 44.348 0.056 6.64 2.22 12.95
12/16/2021 1:30:00 PM 6.92 44.456 0.056 6.64 2.21 12.9
12/16/2021 1:45:00 PM 7.02 44.636 0.056 6.64 2.24 12.87
12/16/2021 2:00:00 PM 7.1 44.78 0.056 6.64 2.36 12.84
12/16/2021 2:15:00 PM 7.17 44.906 0.056 6.64 2.16 12.81
12/16/2021 2:30:00 PM 7.24 45.032 0.056 6.64 2.24 12.77
12/16/2021 2:45:00 PM 7.32 45.176 0.056 6.64 2.22 12.74
12/16/2021 3:00:00 PM 7.4 45.32 0.056 6.64 2.17 12.71
12/16/2021 3:15:00 PM 7.47 45.446 0.056 6.64 2.35 12.68
12/16/2021 3:30:00 PM 7.55 45.59 0.056 6.63 2.27 12.64
12/16/2021 3:45:00 PM 7.61 45.698 0.056 6.64 2.2 12.6
12/16/2021 4:00:00 PM 7.65 45.77 0.056 6.62 2.28 12.57
12/16/2021 4:15:00 PM 7.69 45.842 0.056 6.62 2.38 12.54
12/16/2021 4:30:00 PM 7.74 45.932 0.056 6.62 2.14 12.51
12/16/2021 4:45:00 PM 7.79 46.022 0.057 6.62 2.18 12.47
12/16/2021 5:00:00 PM 7.79 46.022 0.057 6.61 2.14 12.46
12/16/2021 5:15:00 PM 7.82 46.076 0.057 6.61 2.14 12.44
12/16/2021 5:30:00 PM 7.85 46.13 0.057 6.6 2.15 12.42
12/16/2021 5:45:00 PM 7.88 46.184 0.057 6.61 2.39 12.41
12/16/2021 6:00:00 PM 7.9 46.22 0.057 6.6 2.48 12.4
12/16/2021 6:15:00 PM 7.92 46.256 0.057 6.6 2.19 12.39
12/16/2021 6:30:00 PM 7.94 46.292 0.057 6.6 2.22 12.39
12/16/2021 6:45:00 PM 7.97 46.346 0.057 6.6 2.31 12.38
12/16/2021 7:00:00 PM 8 46.4 0.057 6.61 2.27 12.36
12/16/2021 7:15:00 PM 8.03 46.454 0.057 6.6 2.22 12.35
12/16/2021 7:30:00 PM 8.05 46.49 0.057 6.6 2.23 12.35
12/16/2021 7:45:00 PM 8.06 46.508 0.057 6.6 2.3 12.35
12/16/2021 8:00:00 PM 8.1 46.58 0.057 6.6 2.12 12.34
12/16/2021 8:15:00 PM 8.14 46.652 0.057 6.61 2.29 12.32
12/16/2021 8:30:00 PM 8.17 46.706 0.057 6.61 2.22 12.31
12/16/2021 8:45:00 PM 8.2 46.76 0.057 6.61 2.18 12.3
12/16/2021 9:00:00 PM 8.22 46.796 0.057 6.61 2.28 12.29
12/16/2021 9:15:00 PM 8.23 46.814 0.057 6.61 2.22 12.29
12/16/2021 9:30:00 PM 8.26 46.868 0.057 6.6 2.34 12.28
12/16/2021 9:45:00 PM 8.29 46.922 0.057 6.6 2.3 12.27
12/16/2021 10:00:00 PM 8.32 46.976 0.057 6.6 2.3 12.26
12/16/2021 10:15:00 PM 8.33 46.994 0.057 6.6 2.31 12.26
12/16/2021 10:30:00 PM 8.32 46.976 0.057 6.61 2.17 12.26
12/16/2021 10:45:00 PM 8.32 46.976 0.057 6.61 2.25 12.26
12/16/2021 11:00:00 PM 8.3 46.94 0.057 6.61 2.44 12.26
12/16/2021 11:15:00 PM 8.26 46.868 0.057 6.61 2.33 12.26
12/16/2021 11:30:00 PM 8.22 46.796 0.057 6.61 2.2 12.28
12/16/2021 11:45:00 PM 8.17 46.706 0.057 6.6 2.24 12.29
12/17/2021 12:00:00 AM 8.13 46.634 0.057 6.6 2.33 12.31
12/17/2021 12:15:00 AM 8.09 46.562 0.057 6.6 2.21 12.32
12/17/2021 12:30:00 AM 8.05 46.49 0.057 6.6 2.23 12.34
12/17/2021 12:45:00 AM 8 46.4 0.057 6.6 2.22 12.35
12/17/2021 1:00:00 AM 7.95 46.31 0.057 6.6 2.16 12.37
12/17/2021 1:15:00 AM 7.89 46.202 0.057 6.6 2.3 12.39
12/17/2021 1:30:00 AM 7.84 46.112 0.057 6.6 2.35 12.41
12/17/2021 1:45:00 AM 7.79 46.022 0.057 6.6 2.18 12.44
12/17/2021 2:00:00 AM 7.73 45.914 0.057 6.6 2.26 12.45
12/17/2021 2:15:00 AM 7.68 45.824 0.057 6.6 2.23 12.47
12/17/2021 2:30:00 AM 7.62 45.716 0.057 6.6 2.47 12.48
12/17/2021 2:45:00 AM 7.56 45.608 0.057 6.6 2.23 12.51
12/17/2021 3:00:00 AM 7.49 45.482 0.057 6.6 2.31 12.54
12/17/2021 3:15:00 AM 7.42 45.356 0.057 6.59 2.34 12.56
12/17/2021 3:30:00 AM 7.36 45.248 0.057 6.59 2.28 12.58
12/17/2021 3:45:00 AM 7.3 45.14 0.057 6.59 2.26 12.61
12/17/2021 4:00:00 AM 7.23 45.014 0.057 6.59 2.35 12.63
12/17/2021 4:15:00 AM 7.16 44.888 0.057 6.59 2.2 12.65
12/17/2021 4:30:00 AM 7.09 44.762 0.057 6.59 2.24 12.67
12/17/2021 4:45:00 AM 7.02 44.636 0.057 6.59 2.23 12.7
12/17/2021 5:00:00 AM 6.94 44.492 0.057 6.59 2.17 12.72
12/17/2021 5:15:00 AM 6.87 44.366 0.057 6.59 2.2 12.75
12/17/2021 5:30:00 AM 6.79 44.222 0.057 6.59 2.18 12.77
12/17/2021 5:45:00 AM 6.72 44.096 0.057 6.59 2.3 12.8
12/17/2021 6:00:00 AM 6.65 43.97 0.057 6.59 2.2 12.83
12/17/2021 6:15:00 AM 6.58 43.844 0.057 6.59 2.22 12.85
12/17/2021 6:30:00 AM 6.51 43.718 0.057 6.59 2.33 12.88
12/17/2021 6:45:00 AM 6.44 43.592 0.057 6.59 2.17 12.91
12/17/2021 7:00:00 AM 6.38 43.484 0.057 6.59 2.27 12.93
12/17/2021 7:15:00 AM 6.31 43.358 0.057 6.59 2.21 12.95
12/17/2021 7:30:00 AM 6.25 43.25 0.057 6.59 2.28 12.98
12/17/2021 7:45:00 AM 6.18 43.124 0.057 6.59 2.19 13.01
12/17/2021 8:00:00 AM 6.12 43.016 0.057 6.59 2.24 13.04
12/17/2021 8:15:00 AM 6.06 42.908 0.057 6.6 2.18 13.09
12/17/2021 8:30:00 AM 6.01 42.818 0.057 6.6 2.17 13.12
12/17/2021 8:45:00 AM 5.97 42.746 0.057 6.61 2.17 13.16
12/17/2021 9:00:00 AM 5.94 42.692 0.057 6.61 2.23 13.2
12/17/2021 9:15:00 AM 5.93 42.674 0.057 6.62 2.15 13.23
12/17/2021 9:30:00 AM 5.92 42.656 0.057 6.62 2.16 13.25
12/17/2021 9:45:00 AM 5.93 42.674 0.057 6.63 2.2 13.26
12/17/2021 10:00:00 AM 5.93 42.674 0.057 6.63 2.18 13.27
12/17/2021 10:15:00 AM 5.93 42.674 0.057 6.63 2.19 13.28
12/17/2021 10:30:00 AM 5.94 42.692 0.057 6.63 2.1 13.29
12/17/2021 10:45:00 AM 5.97 42.746 0.057 6.63 2.13 13.28
12/17/2021 11:00:00 AM 6 42.8 0.057 6.63 2.19 13.28
12/17/2021 11:15:00 AM 6.03 42.854 0.057 6.64 2.07 13.27
12/17/2021 11:30:00 AM 6.05 42.89 0.057 6.64 2.12 13.26
12/17/2021 11:45:00 AM 6.09 42.962 0.057 6.65 2.14 13.25
12/17/2021 12:00:00 PM 6.1 42.98 0.057 6.65 2.27 13.24
12/17/2021 12:15:00 PM 6.11 42.998 0.057 6.65 2.09 13.24
12/17/2021 12:30:00 PM 6.11 42.998 0.057 6.66 2.17 13.22
12/17/2021 12:45:00 PM 6.13 43.034 0.057 6.66 2.08 13.22
12/17/2021 1:00:00 PM 6.15 43.07 0.057 6.66 2.09 13.21
12/17/2021 1:15:00 PM 6.16 43.088 0.057 6.66 2.06 13.22
12/17/2021 1:30:00 PM 6.2 43.16 0.057 6.66 2.1 13.22
12/17/2021 1:45:00 PM 6.24 43.232 0.057 6.66 2.18 13.21
12/17/2021 2:00:00 PM 6.29 43.322 0.057 6.67 2.12 13.2
12/17/2021 2:15:00 PM 6.31 43.358 0.057 6.67 2.16 13.19
12/17/2021 2:30:00 PM 6.33 43.394 0.057 6.66 2.21 13.18
12/17/2021 2:45:00 PM 6.34 43.412 0.057 6.65 2.17 13.16
12/17/2021 3:00:00 PM 6.35 43.43 0.057 6.65 2.13 13.15
12/17/2021 3:15:00 PM 6.37 43.466 0.057 6.64 2.06 13.14
12/17/2021 3:30:00 PM 6.38 43.484 0.057 6.64 2.13 13.13
12/17/2021 3:45:00 PM 6.38 43.484 0.057 6.64 2.09 13.12
12/17/2021 4:00:00 PM 6.37 43.466 0.057 6.64 2.11 13.11
12/17/2021 4:15:00 PM 6.35 43.43 0.057 6.63 2.22 13.09
12/17/2021 4:30:00 PM 6.33 43.394 0.057 6.62 2.19 13.08
12/17/2021 4:45:00 PM 6.3 43.34 0.058 6.62 2.11 13.05
12/17/2021 5:00:00 PM 6.27 43.286 0.058 6.61 2.59 13.04
12/17/2021 5:15:00 PM 6.25 43.25 0.058 6.6 2.21 13.04
12/17/2021 5:30:00 PM 6.22 43.196 0.058 6.6 2.22 13.04
12/17/2021 5:45:00 PM 6.18 43.124 0.058 6.6 2.14 13.04
12/17/2021 6:00:00 PM 6.15 43.07 0.058 6.6 2.16 13.06
12/17/2021 6:15:00 PM 6.11 42.998 0.058 6.6 2.07 13.07
12/17/2021 6:30:00 PM 6.07 42.926 0.058 6.6 2.23 13.07
12/17/2021 6:45:00 PM 6.04 42.872 0.058 6.59 2.09 13.08
12/17/2021 7:00:00 PM 6.01 42.818 0.058 6.59 2.03 13.1
12/17/2021 7:15:00 PM 5.98 42.764 0.058 6.59 2.03 13.11
12/17/2021 7:30:00 PM 5.94 42.692 0.058 6.59 2.09 13.12
12/17/2021 7:45:00 PM 5.91 42.638 0.058 6.59 2.36 13.14
12/17/2021 8:00:00 PM 5.86 42.548 0.058 6.58 2.56 13.13
12/17/2021 8:15:00 PM 5.83 42.494 0.058 6.59 2.29 13.16
12/17/2021 8:30:00 PM 5.8 42.44 0.058 6.59 2.17 13.17
12/17/2021 8:45:00 PM 5.76 42.368 0.058 6.59 2.08 13.19
12/17/2021 9:00:00 PM 5.72 42.296 0.058 6.59 2.13 13.2
12/17/2021 9:15:00 PM 5.69 42.242 0.058 6.59 2.16 13.21
12/17/2021 9:30:00 PM 5.67 42.206 0.058 6.59 2.18 13.22
12/17/2021 9:45:00 PM 5.65 42.17 0.058 6.59 2.11 13.23
12/17/2021 10:00:00 PM 5.63 42.134 0.058 6.59 2.12 13.24
12/17/2021 10:15:00 PM 5.62 42.116 0.058 6.59 2.22 13.24
12/17/2021 10:30:00 PM 5.6 42.08 0.058 6.59 1.99 13.25
12/17/2021 10:45:00 PM 5.59 42.062 0.058 6.59 2.11 13.25
12/17/2021 11:00:00 PM 5.57 42.026 0.058 6.59 2.14 13.25
12/17/2021 11:15:00 PM 5.56 42.008 0.058 6.59 2.14 13.26
12/17/2021 11:30:00 PM 5.55 41.99 0.058 6.59 2.71 13.26
12/17/2021 11:45:00 PM 5.54 41.972 0.058 6.59 2.35 13.27
12/18/2021 12:00:00 AM 5.53 41.954 0.058 6.59 2.08 13.27
12/18/2021 12:15:00 AM 5.52 41.936 0.058 6.59 2.08 13.28
12/18/2021 12:30:00 AM 5.51 41.918 0.058 6.59 2.04 13.28
12/18/2021 12:45:00 AM 5.5 41.9 0.058 6.59 2.14 13.28
12/18/2021 1:00:00 AM 5.49 41.882 0.058 6.59 2.11 13.28
12/18/2021 1:15:00 AM 5.48 41.864 0.058 6.59 2.14 13.28
12/18/2021 1:30:00 AM 5.48 41.864 0.058 6.59 2.06 13.28
12/18/2021 1:45:00 AM 5.47 41.846 0.058 6.59 2.1 13.28
12/18/2021 2:00:00 AM 5.47 41.846 0.058 6.59 2.78 13.28
12/18/2021 2:15:00 AM 5.46 41.828 0.058 6.59 2.38 13.28
12/18/2021 2:30:00 AM 5.45 41.81 0.058 6.59 2.06 13.28
12/18/2021 2:45:00 AM 5.45 41.81 0.058 6.58 2.09 13.29
12/18/2021 3:00:00 AM 5.45 41.81 0.058 6.59 2.12 13.29
12/18/2021 3:15:00 AM 5.45 41.81 0.058 6.59 2.08 13.29
12/18/2021 3:30:00 AM 5.44 41.792 0.058 6.59 2.12 13.29
12/18/2021 3:45:00 AM 5.44 41.792 0.058 6.59 2.09 13.28
12/18/2021 4:00:00 AM 5.44 41.792 0.058 6.59 2.39 13.29
12/18/2021 4:15:00 AM 5.43 41.774 0.058 6.59 2.1 13.28
12/18/2021 4:30:00 AM 5.43 41.774 0.058 6.59 2.07 13.29
12/18/2021 4:45:00 AM 5.43 41.774 0.058 6.6 2.14 13.28
12/18/2021 5:00:00 AM 5.43 41.774 0.058 6.59 2.07 13.28
12/18/2021 5:15:00 AM 5.43 41.774 0.058 6.59 2.1 13.28
12/18/2021 5:30:00 AM 5.43 41.774 0.058 6.59 2.03 13.27
12/18/2021 5:45:00 AM 5.43 41.774 0.058 6.59 2.08 13.27
12/18/2021 6:00:00 AM 5.42 41.756 0.058 6.59 2.17 13.27
12/18/2021 6:15:00 AM 5.42 41.756 0.058 6.59 2.14 13.27
12/18/2021 6:30:00 AM 5.42 41.756 0.059 6.59 2.1 13.27
12/18/2021 6:45:00 AM 5.42 41.756 0.059 6.59 2.12 13.27
12/18/2021 7:00:00 AM 5.41 41.738 0.059 6.59 2.08 13.27
12/18/2021 7:15:00 AM 5.41 41.738 0.059 6.59 2.02 13.27
12/18/2021 7:30:00 AM 5.4 41.72 0.058 6.59 2.03 13.27
12/18/2021 7:45:00 AM 5.4 41.72 0.058 6.6 2.05 13.27
12/18/2021 8:00:00 AM 5.39 41.702 0.058 6.59 2.1 13.28
12/18/2021 8:15:00 AM 5.39 41.702 0.058 6.6 2.09 13.29
12/18/2021 8:30:00 AM 5.39 41.702 0.058 6.6 2.1 13.3
12/18/2021 8:45:00 AM 5.38 41.684 0.058 6.61 2.06 13.32
12/18/2021 9:00:00 AM 5.38 41.684 0.058 6.61 2.15 13.33
12/18/2021 9:15:00 AM 5.38 41.684 0.058 6.62 2.15 13.33
12/18/2021 9:30:00 AM 5.39 41.702 0.058 6.63 2.14 13.35
12/18/2021 9:45:00 AM 5.4 41.72 0.058 6.63 2.13 13.36
12/18/2021 10:00:00 AM 5.41 41.738 0.058 6.63 2.17 13.37
12/18/2021 10:15:00 AM 5.42 41.756 0.058 6.64 2.26 13.36
12/18/2021 10:30:00 AM 5.42 41.756 0.058 6.63 2.38 13.35
12/18/2021 10:45:00 AM 5.43 41.774 0.058 6.63 2.72 13.35
12/18/2021 11:00:00 AM 5.45 41.81 0.058 6.64 2.55 13.36
12/18/2021 11:15:00 AM 5.47 41.846 0.058 6.65 2.8 13.37
12/18/2021 11:30:00 AM 5.48 41.864 0.058 6.65 2.82 13.35
12/18/2021 11:45:00 AM 5.48 41.864 0.058 6.65 2.84 13.33
12/18/2021 12:00:00 PM 5.49 41.882 0.058 6.65 2.85 13.32
12/18/2021 12:15:00 PM 5.5 41.9 0.058 6.65 2.83 13.3
12/18/2021 12:30:00 PM 5.51 41.918 0.058 6.64 2.85 13.29
12/18/2021 12:45:00 PM 5.53 41.954 0.058 6.64 2.99 13.29
12/18/2021 1:00:00 PM 5.55 41.99 0.058 6.64 2.98 13.28
12/18/2021 1:15:00 PM 5.57 42.026 0.058 6.65 2.99 13.28
12/18/2021 1:30:00 PM 5.59 42.062 0.058 6.65 2.97 13.27
12/18/2021 1:45:00 PM 5.61 42.098 0.058 6.65 3 13.25
12/18/2021 2:00:00 PM 5.63 42.134 0.058 6.65 3.26 13.25
12/18/2021 2:15:00 PM 5.65 42.17 0.059 6.64 3.45 13.23
12/18/2021 2:30:00 PM 5.67 42.206 0.059 6.65 3.31 13.22
12/18/2021 2:45:00 PM 5.69 42.242 0.059 6.64 3.39 13.2
12/18/2021 3:00:00 PM 5.7 42.26 0.059 6.64 3.69 13.19
12/18/2021 3:15:00 PM 5.72 42.296 0.059 6.63 3.55 13.18
12/18/2021 3:30:00 PM 5.73 42.314 0.059 6.63 4.32 13.16
12/18/2021 3:45:00 PM 5.75 42.35 0.059 6.63 3.76 13.15
12/18/2021 4:00:00 PM 5.77 42.386 0.06 6.62 4.16 13.14
12/18/2021 4:15:00 PM 5.78 42.404 0.06 6.61 3.94 13.12
12/18/2021 4:30:00 PM 5.79 42.422 0.06 6.61 4.41 13.1
12/18/2021 4:45:00 PM 5.8 42.44 0.06 6.61 4.16 13.09
12/18/2021 5:00:00 PM 5.81 42.458 0.061 6.59 4.9 13.07
12/18/2021 5:15:00 PM 5.82 42.476 0.061 6.59 3.81 13.06
12/18/2021 5:30:00 PM 5.84 42.512 0.061 6.6 4.41 13.05
12/18/2021 5:45:00 PM 5.85 42.53 0.061 6.56 4.74 13.05
12/18/2021 6:00:00 PM 5.86 42.548 0.061 6.57 4.49 13.05
12/18/2021 6:15:00 PM 5.87 42.566 0.061 6.55 4.62 13.04
12/18/2021 6:30:00 PM 5.88 42.584 0.061 6.57 4.79 13.04
12/18/2021 6:45:00 PM 5.89 42.602 0.062 6.57 5.03 13.04
12/18/2021 7:00:00 PM 5.9 42.62 0.062 6.55 4.59 13.04
12/18/2021 7:15:00 PM 5.91 42.638 0.062 6.56 4.91 13.03
12/18/2021 7:30:00 PM 5.92 42.656 0.062 6.56 4.96 13.03
12/18/2021 7:45:00 PM 5.93 42.674 0.062 6.56 5.08 13.03
12/18/2021 8:00:00 PM 5.94 42.692 0.062 6.54 9.6 13.02
12/18/2021 8:15:00 PM 5.95 42.71 0.062 6.55 5.62 13.02
12/18/2021 8:30:00 PM 5.96 42.728 0.062 6.56 7.28 13.02
12/18/2021 8:45:00 PM 5.97 42.746 0.062 6.54 6.42 13.02
12/18/2021 9:00:00 PM 5.98 42.764 0.062 6.54 6.32 13.02
12/18/2021 9:15:00 PM 5.98 42.764 0.062 6.53 4.3 13.02
12/18/2021 9:30:00 PM 5.99 42.782 0.062 6.53 4.18 13.02
12/18/2021 9:45:00 PM 6 42.8 0.062 6.53 4.36 13.02
12/18/2021 10:00:00 PM 6.01 42.818 0.062 6.53 4.35 13.02
12/18/2021 10:15:00 PM 6.01 42.818 0.062 6.52 4.48 13.02
12/18/2021 10:30:00 PM 6.01 42.818 0.062 6.53 4.29 13.02
12/18/2021 10:45:00 PM 6.02 42.836 0.062 6.52 4.06 13.03
12/18/2021 11:00:00 PM 6.01 42.818 0.062 6.52 3.97 13.03
12/18/2021 11:15:00 PM 6 42.8 0.062 6.53 4.1 13.04
12/18/2021 11:30:00 PM 6 42.8 0.062 6.52 3.98 13.04
12/18/2021 11:45:00 PM 5.99 42.782 0.062 6.53 3.92 13.05
12/19/2021 12:00:00 AM 5.97 42.746 0.062 6.52 3.83 13.05
12/19/2021 12:15:00 AM 5.96 42.728 0.062 6.53 3.62 13.06
12/19/2021 12:30:00 AM 5.94 42.692 0.061 6.53 3.7 13.07
12/19/2021 12:45:00 AM 5.91 42.638 0.061 6.53 3.7 13.09
12/19/2021 1:00:00 AM 5.89 42.602 0.061 6.52 3.72 13.1
12/19/2021 1:15:00 AM 5.86 42.548 0.061 6.52 3.57 13.11
12/19/2021 1:30:00 AM 5.84 42.512 0.061 6.53 3.62 13.12
12/19/2021 1:45:00 AM 5.82 42.476 0.061 6.51 3.63 13.13
12/19/2021 2:00:00 AM 5.78 42.404 0.061 6.51 3.59 13.15
12/19/2021 2:15:00 AM 5.75 42.35 0.061 6.52 3.52 13.16
12/19/2021 2:30:00 AM 5.73 42.314 0.061 6.52 3.36 13.18
12/19/2021 2:45:00 AM 5.69 42.242 0.061 6.51 3.58 13.19
12/19/2021 3:00:00 AM 5.66 42.188 0.061 6.52 3.32 13.2
12/19/2021 3:15:00 AM 5.63 42.134 0.061 6.52 3.43 13.21
12/19/2021 3:30:00 AM 5.6 42.08 0.061 6.52 3.36 13.23
12/19/2021 3:45:00 AM 5.57 42.026 0.061 6.52 3.25 13.25
12/19/2021 4:00:00 AM 5.54 41.972 0.061 6.52 3.27 13.25
12/19/2021 4:15:00 AM 5.52 41.936 0.06 6.52 3.26 13.27
12/19/2021 4:30:00 AM 5.49 41.882 0.06 6.52 3.36 13.28
12/19/2021 4:45:00 AM 5.45 41.81 0.06 6.52 3.15 13.29
12/19/2021 5:00:00 AM 5.42 41.756 0.06 6.52 3.21 13.3
12/19/2021 5:15:00 AM 5.38 41.684 0.06 6.52 3.21 13.31
12/19/2021 5:30:00 AM 5.36 41.648 0.06 6.52 3.21 13.32
12/19/2021 5:45:00 AM 5.33 41.594 0.06 6.52 3.18 13.33
12/19/2021 6:00:00 AM 5.31 41.558 0.06 6.51 3.05 13.34
12/19/2021 6:15:00 AM 5.28 41.504 0.06 6.52 2.97 13.35
12/19/2021 6:30:00 AM 5.25 41.45 0.06 6.52 2.94 13.37
12/19/2021 6:45:00 AM 5.21 41.378 0.06 6.52 3.04 13.38
12/19/2021 7:00:00 AM 5.17 41.306 0.06 6.52 3.33 13.4
12/19/2021 7:15:00 AM 5.13 41.234 0.06 6.52 3.2 13.42
12/19/2021 7:30:00 AM 5.09 41.162 0.06 6.52 3.12 13.44
12/19/2021 7:45:00 AM 5.06 41.108 0.06 6.53 2.99 13.45
12/19/2021 8:00:00 AM 5.03 41.054 0.06 6.52 3.53 13.47
12/19/2021 8:15:00 AM 5 41 0.06 6.52 3.1 13.48
12/19/2021 8:30:00 AM 4.97 40.946 0.06 6.52 2.9 13.5
12/19/2021 8:45:00 AM 4.93 40.874 0.06 6.53 2.87 13.52
12/19/2021 9:00:00 AM 4.91 40.838 0.06 6.53 2.88 13.55
12/19/2021 9:15:00 AM 4.89 40.802 0.06 6.54 2.81 13.57
12/19/2021 9:30:00 AM 4.87 40.766 0.06 6.53 2.86 13.61
12/19/2021 9:45:00 AM 4.87 40.766 0.06 6.54 2.75 13.63
12/19/2021 10:00:00 AM 4.86 40.748 0.06 6.55 2.78 13.66
12/19/2021 10:15:00 AM 4.86 40.748 0.059 6.56 3.25 13.68
12/19/2021 10:30:00 AM 4.88 40.784 0.059 6.56 3 13.69
12/19/2021 10:45:00 AM 4.89 40.802 0.059 6.57 2.75 13.7
12/19/2021 11:00:00 AM 4.91 40.838 0.059 6.58 2.76 13.7
12/19/2021 11:15:00 AM 4.91 40.838 0.059 6.58 2.81 13.71
12/19/2021 11:30:00 AM 4.94 40.892 0.059 6.56 2.78 13.7
12/19/2021 11:45:00 AM 4.95 40.91 0.059 6.58 2.78 13.69
12/19/2021 12:00:00 PM 4.97 40.946 0.059 6.58 2.71 13.69
12/19/2021 12:15:00 PM 5 41 0.059 6.58 2.78 13.68
12/19/2021 12:30:00 PM 4.97 40.946 0.059 6.58 2.65 13.67
12/19/2021 12:45:00 PM 4.99 40.982 0.059 6.58 2.65 13.67
12/19/2021 1:00:00 PM 5.02 41.036 0.059 6.58 2.65 13.65
12/19/2021 1:15:00 PM 5.01 41.018 0.059 6.57 2.73 13.65
12/19/2021 1:30:00 PM 5.01 41.018 0.059 6.58 2.69 13.65
12/19/2021 1:45:00 PM 5.02 41.036 0.059 6.57 2.7 13.63
12/19/2021 2:00:00 PM 5.02 41.036 0.059 6.58 2.64 13.63
12/19/2021 2:15:00 PM 5 41 0.059 6.57 2.68 13.64
12/19/2021 2:30:00 PM 4.99 40.982 0.059 6.58 2.64 13.65
12/19/2021 2:45:00 PM 4.99 40.982 0.059 6.58 2.69 13.64
12/19/2021 3:00:00 PM 4.98 40.964 0.059 6.56 2.66 13.65
12/19/2021 3:15:00 PM 4.98 40.964 0.059 6.57 2.73 13.64
12/19/2021 3:30:00 PM 4.96 40.928 0.059 6.56 2.58 13.63
12/19/2021 3:45:00 PM 4.93 40.874 0.059 6.56 2.59 13.62
12/19/2021 4:00:00 PM 4.91 40.838 0.059 6.56 2.67 13.62
12/19/2021 4:15:00 PM 4.89 40.802 0.059 6.56 2.53 13.63
12/19/2021 4:30:00 PM 4.84 40.712 0.059 6.55 2.56 13.62
12/19/2021 4:45:00 PM 4.8 40.64 0.059 6.55 2.59 13.62
12/19/2021 5:00:00 PM 4.76 40.568 0.059 6.54 2.59 13.61
12/19/2021 5:15:00 PM 4.71 40.478 0.059 6.54 2.54 13.61
12/19/2021 5:30:00 PM 4.66 40.388 0.059 6.53 2.5 13.62
12/19/2021 5:45:00 PM 4.62 40.316 0.059 6.54 2.57 13.64
12/19/2021 6:00:00 PM 4.57 40.226 0.059 6.53 2.52 13.66
12/19/2021 6:15:00 PM 4.52 40.136 0.059 6.53 2.56 13.67
12/19/2021 6:30:00 PM 4.48 40.064 0.059 6.53 2.68 13.68
12/19/2021 6:45:00 PM 4.43 39.974 0.059 6.53 2.57 13.7
12/19/2021 7:00:00 PM 4.39 39.902 0.059 6.53 2.51 13.73
12/19/2021 7:15:00 PM 4.34 39.812 0.059 6.54 2.66 13.74
12/19/2021 7:30:00 PM 4.3 39.74 0.059 6.54 2.5 13.76
12/19/2021 7:45:00 PM 4.26 39.668 0.059 6.53 2.62 13.78
12/19/2021 8:00:00 PM 4.23 39.614 0.059 6.53 2.47 13.8
12/19/2021 8:15:00 PM 4.19 39.542 0.059 6.53 2.43 13.81
12/19/2021 8:30:00 PM 4.15 39.47 0.059 6.53 2.57 13.83
12/19/2021 8:45:00 PM 4.1 39.38 0.059 6.53 2.51 13.84
12/19/2021 9:00:00 PM 4.06 39.308 0.059 6.53 2.41 13.86
12/19/2021 9:15:00 PM 4.02 39.236 0.059 6.53 2.48 13.88
12/19/2021 9:30:00 PM 3.96 39.128 0.059 6.53 2.59 13.89
12/19/2021 9:45:00 PM 3.92 39.056 0.059 6.53 2.48 13.9
12/19/2021 10:00:00 PM 3.88 38.984 0.059 6.53 2.56 13.93
12/19/2021 10:15:00 PM 3.83 38.894 0.059 6.53 2.37 13.94
12/19/2021 10:30:00 PM 3.79 38.822 0.059 6.53 2.44 13.96
12/19/2021 10:45:00 PM 3.74 38.732 0.059 6.54 2.54 13.97
12/19/2021 11:00:00 PM 3.69 38.642 0.059 6.53 2.54 14
12/19/2021 11:15:00 PM 3.65 38.57 0.059 6.53 2.56 14.01
12/19/2021 11:30:00 PM 3.6 38.48 0.059 6.53 2.43 14.03
12/19/2021 11:45:00 PM 3.56 38.408 0.059 6.53 2.59 14.05
12/20/2021 12:00:00 AM 3.51 38.318 0.059 6.53 2.53 14.06
12/20/2021 12:15:00 AM 3.46 38.228 0.059 6.54 2.48 14.08
12/20/2021 12:30:00 AM 3.42 38.156 0.059 6.53 2.5 14.1
12/20/2021 12:45:00 AM 3.37 38.066 0.059 6.53 2.44 14.11
12/20/2021 1:00:00 AM 3.33 37.994 0.059 6.53 2.67 14.13
12/20/2021 1:15:00 AM 3.29 37.922 0.059 6.53 2.37 14.14
12/20/2021 1:30:00 AM 3.24 37.832 0.059 6.54 2.46 14.16
12/20/2021 1:45:00 AM 3.2 37.76 0.059 6.53 2.35 14.18
12/20/2021 2:00:00 AM 3.15 37.67 0.059 6.54 2.43 14.2
12/20/2021 2:15:00 AM 3.1 37.58 0.059 6.53 2.46 14.21
12/20/2021 2:30:00 AM 3.05 37.49 0.059 6.53 2.35 14.23
12/20/2021 2:45:00 AM 3.01 37.418 0.059 6.54 2.31 14.26
12/20/2021 3:00:00 AM 2.97 37.346 0.059 6.53 2.44 14.27
12/20/2021 3:15:00 AM 2.92 37.256 0.059 6.54 2.46 14.29
12/20/2021 3:30:00 AM 2.87 37.166 0.059 6.53 2.35 14.31
12/20/2021 3:45:00 AM 2.83 37.094 0.059 6.53 2.5 14.33
12/20/2021 4:00:00 AM 2.79 37.022 0.059 6.53 2.56 14.35
12/20/2021 4:15:00 AM 2.75 36.95 0.059 6.53 2.39 14.36
12/20/2021 4:30:00 AM 2.7 36.86 0.059 6.53 2.38 14.38
12/20/2021 4:45:00 AM 2.66 36.788 0.059 6.53 2.38 14.4
12/20/2021 5:00:00 AM 2.62 36.716 0.059 6.53 2.34 14.41
12/20/2021 5:15:00 AM 2.58 36.644 0.059 6.53 2.31 14.43
12/20/2021 5:30:00 AM 2.54 36.572 0.059 6.54 2.33 14.45
12/20/2021 5:45:00 AM 2.5 36.5 0.059 6.53 2.35 14.46
12/20/2021 6:00:00 AM 2.47 36.446 0.059 6.54 2.47 14.48
12/20/2021 6:15:00 AM 2.43 36.374 0.059 6.54 2.4 14.49
12/20/2021 6:30:00 AM 2.4 36.32 0.059 6.53 2.35 14.51
12/20/2021 6:45:00 AM 2.36 36.248 0.059 6.53 2.32 14.52
12/20/2021 7:00:00 AM 2.33 36.194 0.059 6.53 2.27 14.54
12/20/2021 7:15:00 AM 2.32 36.176 0.059 6.54 2.26 14.55
12/20/2021 7:30:00 AM 2.31 36.158 0.059 6.54 2.25 14.55
12/20/2021 7:45:00 AM 2.31 36.158 0.059 6.54 2.69 14.57
12/20/2021 8:00:00 AM 2.3 36.14 0.059 6.54 2.26 14.59
12/20/2021 8:15:00 AM 2.3 36.14 0.059 6.55 2.26 14.61
12/20/2021 8:30:00 AM 2.31 36.158 0.059 6.55 2.26 14.62
12/20/2021 8:45:00 AM 2.32 36.176 0.059 6.55 2.2 14.64
12/20/2021 9:00:00 AM 2.34 36.212 0.059 6.56 2.23 14.65
12/20/2021 9:15:00 AM 2.36 36.248 0.059 6.56 2.29 14.66
12/20/2021 9:30:00 AM 2.39 36.302 0.059 6.57 2.24 14.66
12/20/2021 9:45:00 AM 2.45 36.41 0.059 6.57 2.27 14.66
12/20/2021 10:00:00 AM 2.49 36.482 0.059 6.57 2.26 14.65
12/20/2021 10:15:00 AM 2.51 36.518 0.058 6.57 2.26 14.63
12/20/2021 10:30:00 AM 2.54 36.572 0.058 6.57 2.28 14.62
12/20/2021 10:45:00 AM 2.6 36.68 0.058 6.58 2.27 14.6
12/20/2021 11:00:00 AM 2.67 36.806 0.058 6.58 2.31 14.58
12/20/2021 11:15:00 AM 2.72 36.896 0.058 6.58 2.32 14.56
12/20/2021 11:30:00 AM 2.77 36.986 0.058 6.58 2.22 14.52
12/20/2021 11:45:00 AM 2.83 37.094 0.058 6.59 2.24 14.5
12/20/2021 12:00:00 PM 2.89 37.202 0.058 6.59 2.22 14.47
12/20/2021 12:15:00 PM 2.94 37.292 0.058 6.59 2.21 14.45
12/20/2021 12:30:00 PM 2.99 37.382 0.058 6.59 2.29 14.42
12/20/2021 12:45:00 PM 3.03 37.454 0.058 6.59 2.25 14.39
12/20/2021 1:00:00 PM 3.09 37.562 0.058 6.59 2.28 14.36
12/20/2021 1:15:00 PM 3.13 37.634 0.058 6.59 2.23 14.33
12/20/2021 1:30:00 PM 3.18 37.724 0.058 6.6 2.24 14.3
12/20/2021 1:45:00 PM 3.2 37.76 0.058 6.58 2.29 14.28
12/20/2021 2:00:00 PM 3.26 37.868 0.058 6.59 2.33 14.25
12/20/2021 2:15:00 PM 3.28 37.904 0.058 6.59 2.3 14.23
12/20/2021 2:30:00 PM 3.3 37.94 0.058 6.58 2.26 14.21
12/20/2021 2:45:00 PM 3.33 37.994 0.058 6.58 2.27 14.19
12/20/2021 3:00:00 PM 3.36 38.048 0.058 6.58 2.27 14.18
12/20/2021 3:15:00 PM 3.37 38.066 0.058 6.58 2.25 14.16
12/20/2021 3:30:00 PM 3.39 38.102 0.058 6.57 2.3 14.15
12/20/2021 3:45:00 PM 3.39 38.102 0.058 6.57 2.25 14.14
12/20/2021 4:00:00 PM 3.39 38.102 0.058 6.57 2.22 14.13
12/20/2021 4:15:00 PM 3.39 38.102 0.058 6.57 2.25 14.12
12/20/2021 4:30:00 PM 3.38 38.084 0.058 6.57 2.26 14.11
12/20/2021 4:45:00 PM 3.37 38.066 0.058 6.56 2.25 14.1
12/20/2021 5:00:00 PM 3.36 38.048 0.058 6.56 2.3 14.09
12/20/2021 5:15:00 PM 3.34 38.012 0.058 6.56 2.24 14.09
12/20/2021 5:30:00 PM 3.32 37.976 0.058 6.56 2.31 14.09
12/20/2021 5:45:00 PM 3.31 37.958 0.058 6.55 2.26 14.09
12/20/2021 6:00:00 PM 3.29 37.922 0.058 6.55 2.36 14.09
12/20/2021 6:15:00 PM 3.28 37.904 0.058 6.55 2.29 14.1
12/20/2021 6:30:00 PM 3.26 37.868 0.058 6.55 2.28 14.1
12/20/2021 6:45:00 PM 3.24 37.832 0.058 6.55 2.34 14.1
12/20/2021 7:00:00 PM 3.22 37.796 0.058 6.55 2.33 14.11
12/20/2021 7:15:00 PM 3.2 37.76 0.058 6.55 2.26 14.12
12/20/2021 7:30:00 PM 3.19 37.742 0.058 6.55 2.31 14.13
12/20/2021 7:45:00 PM 3.17 37.706 0.058 6.55 2.27 14.13
12/20/2021 8:00:00 PM 3.15 37.67 0.058 6.55 2.23 14.14
12/20/2021 8:15:00 PM 3.13 37.634 0.058 6.55 2.26 14.14
12/20/2021 8:30:00 PM 3.12 37.616 0.058 6.55 2.28 14.15
12/20/2021 8:45:00 PM 3.1 37.58 0.058 6.55 2.24 14.15
12/20/2021 9:00:00 PM 3.08 37.544 0.058 6.55 2.31 14.17
12/20/2021 9:15:00 PM 3.06 37.508 0.058 6.55 2.26 14.17
12/20/2021 9:30:00 PM 3.04 37.472 0.058 6.55 2.4 14.18
12/20/2021 9:45:00 PM 3.02 37.436 0.058 6.56 2.34 14.19
12/20/2021 10:00:00 PM 2.99 37.382 0.058 6.55 2.26 14.19
12/20/2021 10:15:00 PM 2.97 37.346 0.058 6.55 2.33 14.2
12/20/2021 10:30:00 PM 2.95 37.31 0.058 6.55 2.31 14.21
12/20/2021 10:45:00 PM 2.92 37.256 0.058 6.55 2.3 14.22
12/20/2021 11:00:00 PM 2.89 37.202 0.058 6.55 2.28 14.22
12/20/2021 11:15:00 PM 2.87 37.166 0.058 6.55 2.27 14.23
12/20/2021 11:30:00 PM 2.85 37.13 0.058 6.55 2.26 14.24
12/20/2021 11:45:00 PM 2.82 37.076 0.058 6.55 2.34 14.25
12/21/2021 12:00:00 AM 2.78 37.004 0.058 6.55 2.26 14.26
12/21/2021 12:15:00 AM 2.76 36.968 0.058 6.55 2.22 14.27
12/21/2021 12:30:00 AM 2.73 36.914 0.058 6.55 2.2 14.28
12/21/2021 12:45:00 AM 2.7 36.86 0.058 6.55 2.23 14.29
12/21/2021 1:00:00 AM 2.67 36.806 0.058 6.55 2.28 14.3
12/21/2021 1:15:00 AM 2.65 36.77 0.058 6.55 2.26 14.31
12/21/2021 1:30:00 AM 2.62 36.716 0.058 6.55 2.24 14.33
12/21/2021 1:45:00 AM 2.59 36.662 0.058 6.55 2.21 14.33
12/21/2021 2:00:00 AM 2.56 36.608 0.058 6.55 2.22 14.34
12/21/2021 2:15:00 AM 2.53 36.554 0.058 6.55 2.27 14.36
12/21/2021 2:30:00 AM 2.51 36.518 0.058 6.55 2.25 14.36
12/21/2021 2:45:00 AM 2.48 36.464 0.058 6.55 2.27 14.38
12/21/2021 3:00:00 AM 2.45 36.41 0.058 6.55 2.23 14.38
12/21/2021 3:15:00 AM 2.43 36.374 0.058 6.55 2.2 14.4
12/21/2021 3:30:00 AM 2.41 36.338 0.058 6.55 2.25 14.41
12/21/2021 3:45:00 AM 2.4 36.32 0.058 6.56 2.21 14.42
12/21/2021 4:00:00 AM 2.39 36.302 0.058 6.55 2.33 14.42
12/21/2021 4:15:00 AM 2.37 36.266 0.058 6.55 2.22 14.43
12/21/2021 4:30:00 AM 2.35 36.23 0.058 6.55 2.22 14.43
12/21/2021 4:45:00 AM 2.34 36.212 0.058 6.55 2.25 14.44
12/21/2021 5:00:00 AM 2.31 36.158 0.058 6.55 2.23 14.45
12/21/2021 5:15:00 AM 2.29 36.122 0.058 6.55 2.25 14.46
12/21/2021 5:30:00 AM 2.28 36.104 0.058 6.55 2.34 14.46
12/21/2021 5:45:00 AM 2.27 36.086 0.058 6.55 2.19 14.47
12/21/2021 6:00:00 AM 2.27 36.086 0.058 6.55 2.22 14.47
12/21/2021 6:15:00 AM 2.28 36.104 0.058 6.55 2.31 14.47
12/21/2021 6:30:00 AM 2.3 36.14 0.058 6.54 2.22 14.47
12/21/2021 6:45:00 AM 2.3 36.14 0.058 6.55 2.21 14.47
12/21/2021 7:00:00 AM 2.32 36.176 0.058 6.55 2.27 14.47
12/21/2021 7:15:00 AM 2.33 36.194 0.058 6.55 2.2 14.47
12/21/2021 7:30:00 AM 2.35 36.23 0.058 6.55 2.27 14.46
12/21/2021 7:45:00 AM 2.37 36.266 0.058 6.55 2.27 14.46
12/21/2021 8:00:00 AM 2.39 36.302 0.058 6.56 2.46 14.45
12/21/2021 8:15:00 AM 2.41 36.338 0.058 6.56 2.28 14.45
12/21/2021 8:30:00 AM 2.44 36.392 0.058 6.56 2.37 14.45
12/21/2021 8:45:00 AM 2.46 36.428 0.058 6.56 2.31 14.46
12/21/2021 9:00:00 AM 2.49 36.482 0.058 6.57 2.48 14.46
12/21/2021 9:15:00 AM 2.53 36.554 0.058 6.57 2.23 14.47
12/21/2021 9:30:00 AM 2.57 36.626 0.058 6.58 2.23 14.47
12/21/2021 9:45:00 AM 2.61 36.698 0.058 6.58 2.41 14.46
12/21/2021 10:00:00 AM 2.67 36.806 0.058 6.58 2.26 14.46
12/21/2021 10:15:00 AM 2.72 36.896 0.058 6.59 2.37 14.45
12/21/2021 10:30:00 AM 2.79 37.022 0.058 6.59 2.24 14.43
12/21/2021 10:45:00 AM 2.86 37.148 0.058 6.6 2.27 14.41
12/21/2021 11:00:00 AM 2.94 37.292 0.058 6.6 2.25 14.39
12/21/2021 11:15:00 AM 3.02 37.436 0.058 6.59 2.26 14.36
12/21/2021 11:30:00 AM 3.11 37.598 0.058 6.6 2.28 14.33
12/21/2021 11:45:00 AM 3.19 37.742 0.058 6.61 2.31 14.3
12/21/2021 12:00:00 PM 3.26 37.868 0.058 6.6 2.29 14.26
12/21/2021 12:15:00 PM 3.34 38.012 0.058 6.61 2.34 14.23
12/21/2021 12:30:00 PM 3.38 38.084 0.058 6.61 2.31 14.19
12/21/2021 12:45:00 PM 3.44 38.192 0.058 6.61 2.4 14.16
12/21/2021 1:00:00 PM 3.51 38.318 0.057 6.61 2.25 14.14
12/21/2021 1:15:00 PM 3.59 38.462 0.057 6.61 2.29 14.1
12/21/2021 1:30:00 PM 3.68 38.624 0.057 6.62 2.23 14.07
12/21/2021 1:45:00 PM 3.68 38.624 0.057 6.61 2.23 14.03
12/21/2021 2:00:00 PM 3.7 38.66 0.057 6.62 2.22 14
12/21/2021 2:15:00 PM 3.72 38.696 0.057 6.61 2.27 13.98
12/21/2021 2:30:00 PM 3.75 38.75 0.057 6.6 2.35 13.95
12/21/2021 2:45:00 PM 3.76 38.768 0.057 6.6 2.28 13.94
12/21/2021 3:00:00 PM 3.78 38.804 0.057 6.6 2.59 13.93
12/21/2021 3:15:00 PM 3.79 38.822 0.057 6.59 2.48 13.91
12/21/2021 3:30:00 PM 3.8 38.84 0.057 6.6 2.35 13.89
12/21/2021 3:45:00 PM 3.79 38.822 0.057 6.59 2.22 13.89
12/21/2021 4:00:00 PM 3.8 38.84 0.057 6.59 2.31 13.87
12/21/2021 4:15:00 PM 3.79 38.822 0.058 6.59 2.37 13.87
12/21/2021 4:30:00 PM 3.77 38.786 0.058 6.58 2.36 13.84
12/21/2021 4:45:00 PM 3.76 38.768 0.058 6.59 2.26 13.84
12/21/2021 5:00:00 PM 3.73 38.714 0.058 6.57 2.41 13.83
12/21/2021 5:15:00 PM 3.71 38.678 0.058 6.58 2.38 13.82
12/21/2021 5:30:00 PM 3.69 38.642 0.058 6.56 2.32 13.82
12/21/2021 5:45:00 PM 3.66 38.588 0.058 6.57 2.34 13.83
12/21/2021 6:00:00 PM 3.64 38.552 0.058 6.57 2.36 13.83
12/21/2021 6:15:00 PM 3.61 38.498 0.058 6.57 2.28 13.83
12/21/2021 6:30:00 PM 3.58 38.444 0.058 6.57 2.4 13.85
12/21/2021 6:45:00 PM 3.55 38.39 0.058 6.56 2.38 13.84
12/21/2021 7:00:00 PM 3.53 38.354 0.058 6.56 2.29 13.86
12/21/2021 7:15:00 PM 3.5 38.3 0.058 6.56 2.34 13.86
12/21/2021 7:30:00 PM 3.47 38.246 0.058 6.56 2.26 13.88
12/21/2021 7:45:00 PM 3.44 38.192 0.058 6.56 2.34 13.88
12/21/2021 8:00:00 PM 3.41 38.138 0.058 6.55 2.31 13.89
12/21/2021 8:15:00 PM 3.39 38.102 0.058 6.56 2.29 13.9
12/21/2021 8:30:00 PM 3.36 38.048 0.058 6.56 2.3 13.91
12/21/2021 8:45:00 PM 3.33 37.994 0.058 6.56 2.29 13.92
12/21/2021 9:00:00 PM 3.3 37.94 0.058 6.56 2.27 13.92
12/21/2021 9:15:00 PM 3.27 37.886 0.058 6.56 2.26 13.93
12/21/2021 9:30:00 PM 3.24 37.832 0.058 6.56 2.23 13.94
12/21/2021 9:45:00 PM 3.22 37.796 0.058 6.55 2.26 13.95
12/21/2021 10:00:00 PM 3.19 37.742 0.058 6.55 2.29 13.95
12/21/2021 10:15:00 PM 3.17 37.706 0.058 6.55 2.26 13.96
12/21/2021 10:30:00 PM 3.14 37.652 0.058 6.56 2.25 13.97
12/21/2021 10:45:00 PM 3.12 37.616 0.058 6.55 2.4 13.98
12/21/2021 11:00:00 PM 3.08 37.544 0.058 6.55 2.26 13.98
12/21/2021 11:15:00 PM 3.06 37.508 0.058 6.55 2.27 13.99
12/21/2021 11:30:00 PM 3.04 37.472 0.058 6.55 2.86 13.99
12/21/2021 11:45:00 PM 3.01 37.418 0.058 6.55 2.69 14
12/22/2021 12:00:00 AM 2.98 37.364 0.058 6.55 2.06 14.01
12/22/2021 12:15:00 AM 2.95 37.31 0.058 6.55 2.11 14.02
12/22/2021 12:30:00 AM 2.93 37.274 0.058 6.55 2.1 14.03
12/22/2021 12:45:00 AM 2.9 37.22 0.058 6.55 2.11 14.03
12/22/2021 1:00:00 AM 2.87 37.166 0.058 6.54 2.06 14.04
12/22/2021 1:15:00 AM 2.84 37.112 0.058 6.54 2.03 14.05
12/22/2021 1:30:00 AM 2.83 37.094 0.058 6.55 2.05 14.05
12/22/2021 1:45:00 AM 2.8 37.04 0.058 6.55 2.12 14.06
12/22/2021 2:00:00 AM 2.77 36.986 0.058 6.55 2.03 14.06
12/22/2021 2:15:00 AM 2.75 36.95 0.058 6.55 2.01 14.08
12/22/2021 2:30:00 AM 2.73 36.914 0.058 6.55 2.07 14.08
12/22/2021 2:45:00 AM 2.71 36.878 0.058 6.55 2.04 14.09
12/22/2021 3:00:00 AM 2.69 36.842 0.058 6.55 2.03 14.09
12/22/2021 3:15:00 AM 2.69 36.842 0.058 6.55 2.02 14.1
12/22/2021 3:30:00 AM 2.67 36.806 0.058 6.54 2.15 14.11
12/22/2021 3:45:00 AM 2.68 36.824 0.058 6.55 2.02 14.1
12/22/2021 4:00:00 AM 2.69 36.842 0.058 6.55 1.98 14.11
12/22/2021 4:15:00 AM 2.69 36.842 0.058 6.55 2.05 14.11
12/22/2021 4:30:00 AM 2.71 36.878 0.058 6.54 2.02 14.11
12/22/2021 4:45:00 AM 2.72 36.896 0.058 6.55 2.01 14.09
12/22/2021 5:00:00 AM 2.73 36.914 0.058 6.55 2.05 14.09
12/22/2021 5:15:00 AM 2.74 36.932 0.058 6.55 2.09 14.08
12/22/2021 5:30:00 AM 2.74 36.932 0.058 6.55 2.02 14.08
12/22/2021 5:45:00 AM 2.75 36.95 0.058 6.55 2.05 14.08
12/22/2021 6:00:00 AM 2.75 36.95 0.058 6.54 2 14.08
12/22/2021 6:15:00 AM 2.77 36.986 0.058 6.55 2.06 14.08
12/22/2021 6:30:00 AM 2.79 37.022 0.058 6.55 2.07 14.07
12/22/2021 6:45:00 AM 2.8 37.04 0.058 6.54 2.02 14.06
12/22/2021 7:00:00 AM 2.82 37.076 0.058 6.54 2.08 14.06
12/22/2021 7:15:00 AM 2.84 37.112 0.058 6.54 2.13 14.05
12/22/2021 7:30:00 AM 2.86 37.148 0.058 6.54 2.01 14.04
12/22/2021 7:45:00 AM 2.89 37.202 0.058 6.54 2 14.04
12/22/2021 8:00:00 AM 2.91 37.238 0.058 6.54 2 14.04
12/22/2021 8:15:00 AM 2.95 37.31 0.057 6.55 1.98 14.03
12/22/2021 8:30:00 AM 2.97 37.346 0.057 6.56 1.99 14.02
12/22/2021 8:45:00 AM 3.02 37.436 0.057 6.56 2.02 14.02
12/22/2021 9:00:00 AM 3.06 37.508 0.057 6.56 2.01 14.03
12/22/2021 9:15:00 AM 3.1 37.58 0.057 6.57 2.11 14.04
12/22/2021 9:30:00 AM 3.16 37.688 0.057 6.58 1.99 14.06
12/22/2021 9:45:00 AM 3.2 37.76 0.057 6.59 2.04 14.06
12/22/2021 10:00:00 AM 3.24 37.832 0.057 6.6 1.98 14.05
12/22/2021 10:15:00 AM 3.29 37.922 0.057 6.59 2.02 14.05
12/22/2021 10:30:00 AM 3.32 37.976 0.057 6.6 2.07 14.05
12/22/2021 10:45:00 AM 3.37 38.066 0.057 6.6 2.07 14.03
12/22/2021 11:00:00 AM 3.43 38.174 0.057 6.61 2.3 14.03
12/22/2021 11:15:00 AM 3.47 38.246 0.057 6.6 2.04 14
12/22/2021 11:30:00 AM 3.5 38.3 0.057 6.61 1.97 13.99
12/22/2021 11:45:00 AM 3.53 38.354 0.057 6.61 2.03 13.98
12/22/2021 12:00:00 PM 3.54 38.372 0.057 6.6 2.07 13.97
12/22/2021 12:15:00 PM 3.58 38.444 0.057 6.61 2.13 13.97
12/22/2021 12:30:00 PM 3.58 38.444 0.057 6.6 2.09 13.96
12/22/2021 12:45:00 PM 3.6 38.48 0.057 6.6 2.09 13.95
12/22/2021 1:00:00 PM 3.58 38.444 0.057 6.6 2.07 13.94
12/22/2021 1:15:00 PM 3.59 38.462 0.057 6.6 1.97 13.95
12/22/2021 1:30:00 PM 3.56 38.408 0.057 6.6 1.98 13.95
12/22/2021 1:45:00 PM 3.55 38.39 0.057 6.59 2.13 13.95
12/22/2021 2:00:00 PM 3.54 38.372 0.057 6.6 2.03 13.96
12/22/2021 2:15:00 PM 3.55 38.39 0.057 6.6 2.02 13.96
12/22/2021 2:30:00 PM 3.54 38.372 0.057 6.6 1.97 13.98
12/22/2021 2:45:00 PM 3.51 38.318 0.057 6.6 2.03 13.99
12/22/2021 3:00:00 PM 3.49 38.282 0.057 6.6 2.03 13.98
12/22/2021 3:15:00 PM 3.46 38.228 0.057 6.6 2.04 13.98
12/22/2021 3:30:00 PM 3.42 38.156 0.057 6.6 2.06 13.98
12/22/2021 3:45:00 PM 3.39 38.102 0.057 6.59 2 13.98
12/22/2021 4:00:00 PM 3.35 38.03 0.057 6.59 2.09 14
12/22/2021 4:15:00 PM 3.32 37.976 0.057 6.59 2.03 14.01
12/22/2021 4:30:00 PM 3.28 37.904 0.057 6.58 2 14.01
12/22/2021 4:45:00 PM 3.24 37.832 0.057 6.58 2.11 14.01
12/22/2021 5:00:00 PM 3.21 37.778 0.057 6.57 1.98 14.02
12/22/2021 5:15:00 PM 3.18 37.724 0.057 6.57 2 14.02
12/22/2021 5:30:00 PM 3.16 37.688 0.058 6.57 2 14.03
12/22/2021 5:45:00 PM 3.14 37.652 0.058 6.57 2.1 14.04
12/22/2021 6:00:00 PM 3.11 37.598 0.058 6.58 2.06 14.05
12/22/2021 6:15:00 PM 3.09 37.562 0.058 6.56 2.12 14.06
12/22/2021 6:30:00 PM 3.06 37.508 0.058 6.57 2.1 14.08
12/22/2021 6:45:00 PM 3.03 37.454 0.058 6.57 2.02 14.09
12/22/2021 7:00:00 PM 3.01 37.418 0.058 6.57 2.05 14.1
12/22/2021 7:15:00 PM 2.99 37.382 0.058 6.57 2.01 14.11
12/22/2021 7:30:00 PM 2.97 37.346 0.058 6.57 2.12 14.12
12/22/2021 7:45:00 PM 2.94 37.292 0.058 6.57 1.97 14.13
12/22/2021 8:00:00 PM 2.92 37.256 0.058 6.56 2.02 14.15
12/22/2021 8:15:00 PM 2.9 37.22 0.058 6.56 1.98 14.16
12/22/2021 8:30:00 PM 2.88 37.184 0.058 6.56 1.99 14.17
12/22/2021 8:45:00 PM 2.87 37.166 0.058 6.56 2.02 14.17
12/22/2021 9:00:00 PM 2.84 37.112 0.058 6.57 2.05 14.19
12/22/2021 9:15:00 PM 2.82 37.076 0.058 6.57 1.99 14.19
12/22/2021 9:30:00 PM 2.81 37.058 0.058 6.56 2.02 14.2
12/22/2021 9:45:00 PM 2.79 37.022 0.058 6.56 2.01 14.21
12/22/2021 10:00:00 PM 2.77 36.986 0.058 6.56 2.04 14.22
12/22/2021 10:15:00 PM 2.77 36.986 0.058 6.56 2.05 14.22
12/22/2021 10:30:00 PM 2.75 36.95 0.058 6.57 2.12 14.23
12/22/2021 10:45:00 PM 2.75 36.95 0.058 6.56 1.98 14.23
12/22/2021 11:00:00 PM 2.74 36.932 0.058 6.56 2.04 14.24
12/22/2021 11:15:00 PM 2.73 36.914 0.058 6.56 1.96 14.24
12/22/2021 11:30:00 PM 2.71 36.878 0.058 6.56 2 14.26
12/22/2021 11:45:00 PM 2.7 36.86 0.058 6.56 1.99 14.25
12/23/2021 12:00:00 AM 2.69 36.842 0.058 6.56 1.98 14.26
12/23/2021 12:15:00 AM 2.67 36.806 0.058 6.57 2.01 14.27
12/23/2021 12:30:00 AM 2.66 36.788 0.058 6.56 2.09 14.28
12/23/2021 12:45:00 AM 2.65 36.77 0.058 6.58 2.03 14.28
12/23/2021 1:00:00 AM 2.64 36.752 0.058 6.56 2.05 14.28
12/23/2021 1:15:00 AM 2.63 36.734 0.058 6.56 2.01 14.29
12/23/2021 1:30:00 AM 2.63 36.734 0.058 6.56 1.95 14.3
12/23/2021 1:45:00 AM 2.62 36.716 0.058 6.56 2.02 14.31
12/23/2021 2:00:00 AM 2.61 36.698 0.058 6.56 1.95 14.31
12/23/2021 2:15:00 AM 2.61 36.698 0.058 6.56 2.03 14.31
12/23/2021 2:30:00 AM 2.59 36.662 0.058 6.56 1.99 14.32
12/23/2021 2:45:00 AM 2.58 36.644 0.058 6.56 2.07 14.32
12/23/2021 3:00:00 AM 2.57 36.626 0.058 6.56 1.95 14.33
12/23/2021 3:15:00 AM 2.54 36.572 0.058 6.56 1.98 14.34
12/23/2021 3:30:00 AM 2.53 36.554 0.058 6.56 1.94 14.35
12/23/2021 3:45:00 AM 2.53 36.554 0.058 6.56 1.98 14.35
12/23/2021 4:00:00 AM 2.5 36.5 0.058 6.56 2 14.36
12/23/2021 4:15:00 AM 2.49 36.482 0.058 6.55 1.95 14.36
12/23/2021 4:30:00 AM 2.48 36.464 0.058 6.55 3.19 14.38
12/23/2021 4:45:00 AM 2.46 36.428 0.058 6.56 1.98 14.38
12/23/2021 5:00:00 AM 2.45 36.41 0.058 6.56 2.03 14.4
12/23/2021 5:15:00 AM 2.44 36.392 0.058 6.56 1.98 14.4
12/23/2021 5:30:00 AM 2.43 36.374 0.058 6.56 2.03 14.4
12/23/2021 5:45:00 AM 2.42 36.356 0.058 6.56 1.97 14.41
12/23/2021 6:00:00 AM 2.4 36.32 0.058 6.55 1.96 14.42
12/23/2021 6:15:00 AM 2.4 36.32 0.058 6.56 2.02 14.43
12/23/2021 6:30:00 AM 2.39 36.302 0.058 6.56 2.04 14.44
12/23/2021 6:45:00 AM 2.38 36.284 0.058 6.56 1.98 14.44
12/23/2021 7:00:00 AM 2.37 36.266 0.058 6.56 1.97 14.45
12/23/2021 7:15:00 AM 2.37 36.266 0.058 6.56 2.05 14.45
12/23/2021 7:30:00 AM 2.36 36.248 0.058 6.57 2.02 14.46
12/23/2021 7:45:00 AM 2.35 36.23 0.058 6.56 1.99 14.47
12/23/2021 8:00:00 AM 2.35 36.23 0.058 6.56 1.94 14.48
12/23/2021 8:15:00 AM 2.34 36.212 0.058 6.57 1.99 14.51
12/23/2021 8:30:00 AM 2.33 36.194 0.058 6.57 1.97 14.54
12/23/2021 8:45:00 AM 2.33 36.194 0.058 6.58 1.94 14.56
12/23/2021 9:00:00 AM 2.33 36.194 0.058 6.58 1.98 14.58
12/23/2021 9:15:00 AM 2.35 36.23 0.058 6.59 2.06 14.59
12/23/2021 9:30:00 AM 2.38 36.284 0.058 6.59 1.98 14.6
12/23/2021 9:45:00 AM 2.4 36.32 0.058 6.59 1.93 14.6
12/23/2021 10:00:00 AM 2.44 36.392 0.058 6.6 1.96 14.59
12/23/2021 10:15:00 AM 2.46 36.428 0.058 6.59 2.01 14.59
12/23/2021 10:30:00 AM 2.5 36.5 0.058 6.6 2.09 14.58
12/23/2021 10:45:00 AM 2.54 36.572 0.058 6.59 2.01 14.58
12/23/2021 11:00:00 AM 2.57 36.626 0.058 6.6 1.97 14.57
12/23/2021 11:15:00 AM 2.62 36.716 0.058 6.6 2.05 14.56
12/23/2021 11:30:00 AM 2.7 36.86 0.058 6.6 1.97 14.54
12/23/2021 11:45:00 AM 2.72 36.896 0.058 6.6 2.01 14.53
12/23/2021 12:00:00 PM 2.75 36.95 0.058 6.61 2.02 14.5
12/23/2021 12:15:00 PM 2.8 37.04 0.058 6.61 2.01 14.48
12/23/2021 12:30:00 PM 2.86 37.148 0.058 6.61 2.19 14.46
12/23/2021 12:45:00 PM 2.89 37.202 0.058 6.61 1.97 14.45
12/23/2021 1:00:00 PM 2.91 37.238 0.058 6.61 2.33 14.42
12/23/2021 1:15:00 PM 2.95 37.31 0.058 6.61 1.94 14.39
12/23/2021 1:30:00 PM 3 37.4 0.058 6.6 1.92 14.37
12/23/2021 1:45:00 PM 3.03 37.454 0.058 6.6 1.95 14.37
12/23/2021 2:00:00 PM 3.05 37.49 0.058 6.6 2.25 14.35
12/23/2021 2:15:00 PM 3.1 37.58 0.058 6.6 1.98 14.33
12/23/2021 2:30:00 PM 3.14 37.652 0.058 6.6 1.89 14.3
12/23/2021 2:45:00 PM 3.16 37.688 0.058 6.6 1.94 14.28
12/23/2021 3:00:00 PM 3.15 37.67 0.058 6.61 1.94 14.29
12/23/2021 3:15:00 PM 3.15 37.67 0.058 6.6 1.99 14.27
12/23/2021 3:30:00 PM 3.16 37.688 0.058 6.59 1.95 14.27
12/23/2021 3:45:00 PM 3.16 37.688 0.058 6.59 2.01 14.24
12/23/2021 4:00:00 PM 3.15 37.67 0.058 6.59 2.02 14.23
12/23/2021 4:15:00 PM 3.13 37.634 0.058 6.58 1.9 14.21
12/23/2021 4:30:00 PM 3.12 37.616 0.058 6.58 2.01 14.19
12/23/2021 4:45:00 PM 3.1 37.58 0.058 6.59 2 14.18
12/23/2021 5:00:00 PM 3.09 37.562 0.058 6.58 2.02 14.17
12/23/2021 5:15:00 PM 3.07 37.526 0.058 6.57 1.91 14.16
12/23/2021 5:30:00 PM 3.04 37.472 0.058 6.58 1.96 14.16
12/23/2021 5:45:00 PM 3.03 37.454 0.058 6.57 1.93 14.16
12/23/2021 6:00:00 PM 3.01 37.418 0.058 6.57 1.97 14.16
12/23/2021 6:15:00 PM 2.99 37.382 0.058 6.58 2.14 14.17
12/23/2021 6:30:00 PM 2.98 37.364 0.059 6.57 1.96 14.17
12/23/2021 6:45:00 PM 2.96 37.328 0.059 6.57 1.96 14.17
12/23/2021 7:00:00 PM 2.95 37.31 0.059 6.57 1.98 14.17
12/23/2021 7:15:00 PM 2.94 37.292 0.059 6.56 1.93 14.17
12/23/2021 7:30:00 PM 2.94 37.292 0.059 6.57 1.99 14.17
12/23/2021 7:45:00 PM 2.94 37.292 0.059 6.57 1.94 14.17
12/23/2021 8:00:00 PM 2.94 37.292 0.059 6.57 1.92 14.16
12/23/2021 8:15:00 PM 2.94 37.292 0.059 6.56 1.92 14.16
12/23/2021 8:30:00 PM 2.96 37.328 0.059 6.57 1.99 14.15
12/23/2021 8:45:00 PM 2.96 37.328 0.059 6.56 1.95 14.15
12/23/2021 9:00:00 PM 2.96 37.328 0.059 6.57 1.95 14.15
12/23/2021 9:15:00 PM 2.95 37.31 0.059 6.56 2.01 14.14
12/23/2021 9:30:00 PM 2.95 37.31 0.059 6.57 2.01 14.14
12/23/2021 9:45:00 PM 2.96 37.328 0.059 6.58 1.99 14.14
12/23/2021 10:00:00 PM 2.97 37.346 0.059 6.56 1.96 14.14
12/23/2021 10:15:00 PM 2.98 37.364 0.059 6.57 1.95 14.13
12/23/2021 10:30:00 PM 2.98 37.364 0.059 6.56 1.95 14.12
12/23/2021 10:45:00 PM 2.97 37.346 0.059 6.57 1.97 14.12
12/23/2021 11:00:00 PM 2.97 37.346 0.059 6.57 2.05 14.11
12/23/2021 11:15:00 PM 2.92 37.256 0.059 6.57 1.95 14.12
12/23/2021 11:30:00 PM 2.91 37.238 0.059 6.57 2.02 14.13
12/23/2021 11:45:00 PM 2.79 37.022 0.059 6.56 1.96 14.13
12/24/2021 12:00:00 AM 2.75 36.95 0.059 6.56 1.99 14.15
12/24/2021 12:15:00 AM 2.77 36.986 0.059 6.57 1.94 14.17
12/24/2021 12:30:00 AM 2.78 37.004 0.059 6.57 1.96 14.18
12/24/2021 12:45:00 AM 2.79 37.022 0.059 6.56 2.4 14.18
12/24/2021 1:00:00 AM 2.79 37.022 0.059 6.57 2.01 14.18
12/24/2021 1:15:00 AM 2.81 37.058 0.059 6.57 2.11 14.19
12/24/2021 1:30:00 AM 2.82 37.076 0.059 6.57 1.96 14.19
12/24/2021 1:45:00 AM 2.84 37.112 0.059 6.57 1.97 14.18
12/24/2021 2:00:00 AM 2.85 37.13 0.059 6.56 2.09 14.17
12/24/2021 2:15:00 AM 2.87 37.166 0.059 6.56 2.04 14.17
12/24/2021 2:30:00 AM 2.88 37.184 0.059 6.57 1.97 14.17
12/24/2021 2:45:00 AM 2.9 37.22 0.059 6.56 1.93 14.16
12/24/2021 3:00:00 AM 2.91 37.238 0.059 6.57 1.93 14.15
12/24/2021 3:15:00 AM 2.92 37.256 0.059 6.57 2.03 14.15
12/24/2021 3:30:00 AM 2.93 37.274 0.059 6.56 1.93 14.14
12/24/2021 3:45:00 AM 2.94 37.292 0.059 6.57 1.96 14.14
12/24/2021 4:00:00 AM 2.95 37.31 0.059 6.57 1.96 14.14
12/24/2021 4:15:00 AM 2.97 37.346 0.059 6.57 1.95 14.13
12/24/2021 4:30:00 AM 2.99 37.382 0.059 6.57 1.93 14.13
12/24/2021 4:45:00 AM 3 37.4 0.059 6.56 1.91 14.12
12/24/2021 5:00:00 AM 3.01 37.418 0.059 6.57 1.89 14.12
12/24/2021 5:15:00 AM 3.02 37.436 0.059 6.56 1.91 14.11
12/24/2021 5:30:00 AM 3.03 37.454 0.059 6.57 1.92 14.11
12/24/2021 5:45:00 AM 3.05 37.49 0.059 6.57 1.93 14.1
12/24/2021 6:00:00 AM 3.05 37.49 0.059 6.57 1.94 14.1
12/24/2021 6:15:00 AM 3.06 37.508 0.059 6.57 1.93 14.1
12/24/2021 6:30:00 AM 3.07 37.526 0.059 6.57 1.94 14.1
12/24/2021 6:45:00 AM 3.08 37.544 0.059 6.57 1.9 14.09
12/24/2021 7:00:00 AM 3.09 37.562 0.059 6.57 1.93 14.1
12/24/2021 7:15:00 AM 3.1 37.58 0.059 6.56 1.92 14.09
12/24/2021 7:30:00 AM 3.11 37.598 0.059 6.56 1.93 14.09
12/24/2021 7:45:00 AM 3.12 37.616 0.059 6.57 1.94 14.09
12/24/2021 8:00:00 AM 3.13 37.634 0.059 6.56 1.92 14.1
12/24/2021 8:15:00 AM 3.14 37.652 0.059 6.57 1.92 14.11
12/24/2021 8:30:00 AM 3.15 37.67 0.059 6.57 1.93 14.12
12/24/2021 8:45:00 AM 3.17 37.706 0.059 6.58 1.95 14.13
12/24/2021 9:00:00 AM 3.2 37.76 0.059 6.58 1.91 14.15
12/24/2021 9:15:00 AM 3.23 37.814 0.059 6.59 1.97 14.16
12/24/2021 9:30:00 AM 3.27 37.886 0.059 6.59 1.93 14.17
12/24/2021 9:45:00 AM 3.31 37.958 0.059 6.6 1.96 14.18
12/24/2021 10:00:00 AM 3.35 38.03 0.059 6.6 1.92 14.18
12/24/2021 10:15:00 AM 3.42 38.156 0.059 6.61 1.94 14.17
12/24/2021 10:30:00 AM 3.45 38.21 0.059 6.61 1.95 14.15
12/24/2021 10:45:00 AM 3.47 38.246 0.059 6.61 1.96 14.14
12/24/2021 11:00:00 AM 3.53 38.354 0.059 6.61 1.97 14.11
12/24/2021 11:15:00 AM 3.59 38.462 0.059 6.61 2.11 14.1
12/24/2021 11:30:00 AM 3.63 38.534 0.059 6.61 1.91 14.06
12/24/2021 11:45:00 AM 3.67 38.606 0.059 6.62 1.88 14.05
12/24/2021 12:00:00 PM 3.71 38.678 0.059 6.62 1.92 14.02
12/24/2021 12:15:00 PM 3.75 38.75 0.059 6.62 1.89 14.01
12/24/2021 12:30:00 PM 3.78 38.804 0.059 6.62 1.9 13.98
12/24/2021 12:45:00 PM 3.83 38.894 0.059 6.62 1.89 13.97
12/24/2021 1:00:00 PM 3.87 38.966 0.059 6.62 1.96 13.94
12/24/2021 1:15:00 PM 3.92 39.056 0.059 6.63 1.9 13.94
12/24/2021 1:30:00 PM 3.95 39.11 0.059 6.63 1.98 13.91
12/24/2021 1:45:00 PM 4 39.2 0.059 6.62 1.95 13.9
12/24/2021 2:00:00 PM 4.05 39.29 0.059 6.62 2.07 13.88
12/24/2021 2:15:00 PM 4.1 39.38 0.059 6.61 1.93 13.85
12/24/2021 2:30:00 PM 4.16 39.488 0.059 6.61 1.86 13.83
12/24/2021 2:45:00 PM 4.22 39.596 0.059 6.62 1.93 13.81
12/24/2021 3:00:00 PM 4.27 39.686 0.059 6.61 1.91 13.79
12/24/2021 3:15:00 PM 4.3 39.74 0.059 6.61 1.91 13.77
12/24/2021 3:30:00 PM 4.32 39.776 0.059 6.61 1.92 13.75
12/24/2021 3:45:00 PM 4.33 39.794 0.059 6.6 2.08 13.72
12/24/2021 4:00:00 PM 4.33 39.794 0.059 6.6 1.97 13.71
12/24/2021 4:15:00 PM 4.33 39.794 0.059 6.6 1.97 13.69
12/24/2021 4:30:00 PM 4.33 39.794 0.059 6.59 1.95 13.66
12/24/2021 4:45:00 PM 4.34 39.812 0.059 6.59 1.96 13.64
12/24/2021 5:00:00 PM 4.34 39.812 0.059 6.59 2 13.62
12/24/2021 5:15:00 PM 4.34 39.812 0.059 6.59 2 13.6
12/24/2021 5:30:00 PM 4.33 39.794 0.059 6.58 1.99 13.59
12/24/2021 5:45:00 PM 4.32 39.776 0.059 6.6 2.02 13.59
12/24/2021 6:00:00 PM 4.32 39.776 0.059 6.58 2.04 13.58
12/24/2021 6:15:00 PM 4.32 39.776 0.059 6.58 1.97 13.59
12/24/2021 6:30:00 PM 4.32 39.776 0.06 6.58 2.01 13.59
12/24/2021 6:45:00 PM 4.31 39.758 0.06 6.58 2.02 13.58
12/24/2021 7:00:00 PM 4.31 39.758 0.06 6.57 1.99 13.58
12/24/2021 7:15:00 PM 4.31 39.758 0.06 6.58 1.98 13.58
12/24/2021 7:30:00 PM 4.32 39.776 0.06 6.58 1.96 13.57
12/24/2021 7:45:00 PM 4.33 39.794 0.06 6.58 1.97 13.57
12/24/2021 8:00:00 PM 4.34 39.812 0.06 6.58 2.06 13.56
12/24/2021 8:15:00 PM 4.34 39.812 0.06 6.58 2.09 13.56
12/24/2021 8:30:00 PM 4.34 39.812 0.06 6.58 1.93 13.56
12/24/2021 8:45:00 PM 4.35 39.83 0.06 6.57 1.99 13.55
12/24/2021 9:00:00 PM 4.35 39.83 0.06 6.57 2.02 13.55
12/24/2021 9:15:00 PM 4.35 39.83 0.06 6.58 5 13.54
12/24/2021 9:30:00 PM 4.36 39.848 0.06 6.57 2.35 13.54
12/24/2021 9:45:00 PM 4.36 39.848 0.06 6.57 2.38 13.54
12/24/2021 10:00:00 PM 4.37 39.866 0.06 6.57 2.25 13.53
12/24/2021 10:15:00 PM 4.38 39.884 0.06 6.57 2.21 13.53
12/24/2021 10:30:00 PM 4.39 39.902 0.06 6.57 2.23 13.53
12/24/2021 10:45:00 PM 4.4 39.92 0.06 6.57 3.59 13.52
12/24/2021 11:00:00 PM 4.4 39.92 0.06 6.58 2.22 13.51
12/24/2021 11:15:00 PM 4.41 39.938 0.06 6.56 2.25 13.51
12/24/2021 11:30:00 PM 4.42 39.956 0.06 6.57 2.34 13.5
12/24/2021 11:45:00 PM 4.43 39.974 0.06 6.57 2.22 13.5
12/25/2021 12:00:00 AM 4.44 39.992 0.06 6.57 2.18 13.5
12/25/2021 12:15:00 AM 4.45 40.01 0.06 6.57 2.22 13.49
12/25/2021 12:30:00 AM 4.46 40.028 0.06 6.57 2.2 13.49
12/25/2021 12:45:00 AM 4.46 40.028 0.06 6.57 2.2 13.47
12/25/2021 1:00:00 AM 4.47 40.046 0.06 6.57 2.2 13.46
12/25/2021 1:15:00 AM 4.48 40.064 0.06 6.57 2.18 13.45
12/25/2021 1:30:00 AM 4.5 40.1 0.06 6.57 2.2 13.45
12/25/2021 1:45:00 AM 4.5 40.1 0.06 6.57 2.22 13.44
12/25/2021 2:00:00 AM 4.51 40.118 0.06 6.57 2.15 13.43
12/25/2021 2:15:00 AM 4.51 40.118 0.06 6.57 2.2 13.43
12/25/2021 2:30:00 AM 4.53 40.154 0.06 6.57 2.23 13.42
12/25/2021 2:45:00 AM 4.54 40.172 0.06 6.57 2.19 13.41
12/25/2021 3:00:00 AM 4.55 40.19 0.06 6.58 2.15 13.41
12/25/2021 3:15:00 AM 4.56 40.208 0.06 6.57 2.21 13.4
12/25/2021 3:30:00 AM 4.57 40.226 0.06 6.57 2.21 13.4
12/25/2021 3:45:00 AM 4.57 40.226 0.06 6.57 2.15 13.4
12/25/2021 4:00:00 AM 4.59 40.262 0.06 6.57 2.22 13.39
12/25/2021 4:15:00 AM 4.6 40.28 0.06 6.57 2.18 13.38
12/25/2021 4:30:00 AM 4.61 40.298 0.06 6.57 2.15 13.37
12/25/2021 4:45:00 AM 4.62 40.316 0.06 6.58 2.22 13.36
12/25/2021 5:00:00 AM 4.63 40.334 0.06 6.57 2.14 13.35
12/25/2021 5:15:00 AM 4.64 40.352 0.06 6.57 2.16 13.35
12/25/2021 5:30:00 AM 4.65 40.37 0.06 6.57 2.51 13.34
12/25/2021 5:45:00 AM 4.66 40.388 0.06 6.57 2.34 13.34
12/25/2021 6:00:00 AM 4.67 40.406 0.06 6.57 2.26 13.33
12/25/2021 6:15:00 AM 4.68 40.424 0.06 6.57 2.3 13.32
12/25/2021 6:30:00 AM 4.69 40.442 0.06 6.57 2.28 13.32
12/25/2021 6:45:00 AM 4.69 40.442 0.06 6.57 2.33 13.31
12/25/2021 7:00:00 AM 4.7 40.46 0.06 6.57 2.65 13.31
12/25/2021 7:15:00 AM 4.71 40.478 0.06 6.57 2.53 13.31
12/25/2021 7:30:00 AM 4.72 40.496 0.06 6.56 2.48 13.3
12/25/2021 7:45:00 AM 4.73 40.514 0.06 6.57 2.51 13.3
12/25/2021 8:00:00 AM 4.74 40.532 0.059 6.57 2.57 13.29
12/25/2021 8:15:00 AM 4.75 40.55 0.059 6.57 2.64 13.29
12/25/2021 8:30:00 AM 4.77 40.586 0.059 6.57 2.62 13.29
12/25/2021 8:45:00 AM 4.78 40.604 0.059 6.57 2.63 13.3
12/25/2021 9:00:00 AM 4.8 40.64 0.059 6.58 2.67 13.29
12/25/2021 9:15:00 AM 4.81 40.658 0.059 6.58 2.68 13.3
12/25/2021 9:30:00 AM 4.84 40.712 0.059 6.6 2.86 13.32
12/25/2021 9:45:00 AM 4.88 40.784 0.059 6.6 3.03 13.34
12/25/2021 10:00:00 AM 4.91 40.838 0.059 6.61 3.26 13.34
12/25/2021 10:15:00 AM 4.95 40.91 0.059 6.61 3.3 13.34
12/25/2021 10:30:00 AM 4.98 40.964 0.059 6.61 3.42 13.32
12/25/2021 10:45:00 AM 5.01 41.018 0.059 6.61 3.3 13.31
12/25/2021 11:00:00 AM 5.03 41.054 0.059 6.62 3.22 13.29
12/25/2021 11:15:00 AM 5.07 41.126 0.059 6.61 3.3 13.28
12/25/2021 11:30:00 AM 5.1 41.18 0.059 6.62 3.24 13.28
12/25/2021 11:45:00 AM 5.14 41.252 0.06 6.62 3.32 13.27
12/25/2021 12:00:00 PM 5.18 41.324 0.06 6.62 3.32 13.26
12/25/2021 12:15:00 PM 5.21 41.378 0.06 6.62 3.32 13.25
12/25/2021 12:30:00 PM 5.28 41.504 0.06 6.62 3.33 13.25
12/25/2021 12:45:00 PM 5.32 41.576 0.061 6.62 3.43 13.24
12/25/2021 1:00:00 PM 5.35 41.63 0.061 6.62 3.31 13.21
12/25/2021 1:15:00 PM 5.38 41.684 0.061 6.61 3.41 13.19
12/25/2021 1:30:00 PM 5.4 41.72 0.062 6.61 3.44 13.17
12/25/2021 1:45:00 PM 5.43 41.774 0.062 6.59 3.26 13.15
12/25/2021 2:00:00 PM 5.45 41.81 0.062 6.59 3.59 13.13
12/25/2021 2:15:00 PM 5.48 41.864 0.062 6.58 3.2 13.11
12/25/2021 2:30:00 PM 5.51 41.918 0.063 6.58 3.07 13.1
12/25/2021 2:45:00 PM 5.53 41.954 0.063 6.58 3.19 13.11
12/25/2021 3:00:00 PM 5.56 42.008 0.063 6.58 3.07 13.09
12/25/2021 3:15:00 PM 5.58 42.044 0.063 6.57 3.13 13.07
12/25/2021 3:30:00 PM 5.61 42.098 0.063 6.56 2.9 13.05
12/25/2021 3:45:00 PM 5.63 42.134 0.063 6.56 3.06 13.04
12/25/2021 4:00:00 PM 5.66 42.188 0.063 6.56 3.02 13.03
12/25/2021 4:15:00 PM 5.68 42.224 0.063 6.56 3.04 13.03
12/25/2021 4:30:00 PM 5.7 42.26 0.063 6.55 3.14 13
12/25/2021 4:45:00 PM 5.72 42.296 0.063 6.55 2.8 12.99
12/25/2021 5:00:00 PM 5.73 42.314 0.063 6.54 2.82 12.98
12/25/2021 5:15:00 PM 5.75 42.35 0.063 6.55 2.9 12.97
12/25/2021 5:30:00 PM 5.77 42.386 0.063 6.54 2.95 12.96
12/25/2021 5:45:00 PM 5.79 42.422 0.063 6.57 2.95 12.96
12/25/2021 6:00:00 PM 5.81 42.458 0.063 6.53 2.88 12.95
12/25/2021 6:15:00 PM 5.83 42.494 0.063 6.54 2.97 12.94
12/25/2021 6:30:00 PM 5.85 42.53 0.063 6.54 2.98 12.94
12/25/2021 6:45:00 PM 5.87 42.566 0.063 6.54 3.02 12.94
12/25/2021 7:00:00 PM 5.88 42.584 0.063 6.53 2.93 12.94
12/25/2021 7:15:00 PM 5.9 42.62 0.063 6.54 3.09 12.94
12/25/2021 7:30:00 PM 5.91 42.638 0.063 6.53 3.02 12.93
12/25/2021 7:45:00 PM 5.93 42.674 0.063 6.53 2.91 12.93
12/25/2021 8:00:00 PM 5.95 42.71 0.063 6.53 2.91 12.93
12/25/2021 8:15:00 PM 5.97 42.746 0.063 6.54 2.96 12.92
12/25/2021 8:30:00 PM 5.98 42.764 0.063 6.53 2.83 12.92
12/25/2021 8:45:00 PM 6.01 42.818 0.063 6.53 2.79 12.93
12/25/2021 9:00:00 PM 6.03 42.854 0.063 6.54 2.81 12.92
12/25/2021 9:15:00 PM 6.05 42.89 0.063 6.54 2.76 12.92
12/25/2021 9:30:00 PM 6.05 42.89 0.063 6.54 2.75 12.92
12/25/2021 9:45:00 PM 6.06 42.908 0.063 6.54 2.84 12.92
12/25/2021 10:00:00 PM 6.07 42.926 0.063 6.53 2.98 12.92
12/25/2021 10:15:00 PM 6.08 42.944 0.063 6.54 2.75 12.92
12/25/2021 10:30:00 PM 6.09 42.962 0.062 6.54 2.68 12.92
12/25/2021 10:45:00 PM 6.09 42.962 0.062 6.53 2.7 12.92
12/25/2021 11:00:00 PM 6.09 42.962 0.062 6.54 2.8 12.92
12/25/2021 11:15:00 PM 6.07 42.926 0.062 6.54 2.74 12.93
12/25/2021 11:30:00 PM 6.04 42.872 0.062 6.54 2.69 12.94
12/25/2021 11:45:00 PM 6.03 42.854 0.062 6.54 2.64 12.95
12/26/2021 12:00:00 AM 6.02 42.836 0.062 6.54 2.69 12.95
12/26/2021 12:15:00 AM 6 42.8 0.062 6.54 2.6 12.96
12/26/2021 12:30:00 AM 5.98 42.764 0.062 6.54 2.63 12.97
12/26/2021 12:45:00 AM 5.96 42.728 0.062 6.54 2.69 12.98
12/26/2021 1:00:00 AM 5.93 42.674 0.062 6.54 2.63 12.99
12/26/2021 1:15:00 AM 5.92 42.656 0.062 6.54 2.71 13
12/26/2021 1:30:00 AM 5.9 42.62 0.062 6.54 2.81 13
12/26/2021 1:45:00 AM 5.88 42.584 0.062 6.53 2.64 13.01
12/26/2021 2:00:00 AM 5.86 42.548 0.062 6.54 2.62 13.02
12/26/2021 2:15:00 AM 5.83 42.494 0.062 6.54 2.73 13.03
12/26/2021 2:30:00 AM 5.82 42.476 0.062 6.53 2.63 13.04
12/26/2021 2:45:00 AM 5.81 42.458 0.062 6.53 2.81 13.05
12/26/2021 3:00:00 AM 5.79 42.422 0.062 6.53 2.55 13.07
12/26/2021 3:15:00 AM 5.78 42.404 0.062 6.53 2.53 13.07
12/26/2021 3:30:00 AM 5.76 42.368 0.062 6.53 2.51 13.08
12/26/2021 3:45:00 AM 5.76 42.368 0.062 6.53 2.54 13.08
12/26/2021 4:00:00 AM 5.74 42.332 0.062 6.53 2.51 13.09
12/26/2021 4:15:00 AM 5.71 42.278 0.062 6.53 2.49 13.1
12/26/2021 4:30:00 AM 5.66 42.188 0.062 6.53 2.51 13.11
12/26/2021 4:45:00 AM 5.62 42.116 0.062 6.53 2.6 13.12
12/26/2021 5:00:00 AM 5.58 42.044 0.062 6.53 2.43 13.13
12/26/2021 5:15:00 AM 5.54 41.972 0.062 6.53 2.5 13.14
12/26/2021 5:30:00 AM 5.51 41.918 0.062 6.53 2.47 13.16
12/26/2021 5:45:00 AM 5.49 41.882 0.063 6.53 2.45 13.17
12/26/2021 6:00:00 AM 5.45 41.81 0.063 6.53 2.48 13.19
12/26/2021 6:15:00 AM 5.42 41.756 0.063 6.52 2.6 13.21
12/26/2021 6:30:00 AM 5.39 41.702 0.063 6.53 2.47 13.22
12/26/2021 6:45:00 AM 5.35 41.63 0.063 6.53 2.48 13.23
12/26/2021 7:00:00 AM 5.32 41.576 0.063 6.53 2.44 13.24
12/26/2021 7:15:00 AM 5.28 41.504 0.063 6.52 2.51 13.26
12/26/2021 7:30:00 AM 5.23 41.414 0.063 6.52 2.47 13.27
12/26/2021 7:45:00 AM 5.21 41.378 0.063 6.53 2.46 13.29
12/26/2021 8:00:00 AM 5.18 41.324 0.063 6.52 2.45 13.32
12/26/2021 8:15:00 AM 5.16 41.288 0.063 6.53 2.47 13.36
12/26/2021 8:30:00 AM 5.13 41.234 0.063 6.54 2.48 13.39
12/26/2021 8:45:00 AM 5.13 41.234 0.063 6.54 2.42 13.41
12/26/2021 9:00:00 AM 5.14 41.252 0.063 6.56 2.4 13.44
12/26/2021 9:15:00 AM 5.17 41.306 0.063 6.56 2.48 13.46
12/26/2021 9:30:00 AM 5.19 41.342 0.063 6.56 2.51 13.47
12/26/2021 9:45:00 AM 5.21 41.378 0.063 6.57 2.41 13.47
12/26/2021 10:00:00 AM 5.22 41.396 0.063 6.57 2.47 13.48
12/26/2021 10:15:00 AM 5.24 41.432 0.063 6.57 2.41 13.48
12/26/2021 10:30:00 AM 5.28 41.504 0.063 6.58 2.44 13.48
12/26/2021 10:45:00 AM 5.38 41.684 0.063 6.58 2.41 13.48
12/26/2021 11:00:00 AM 5.38 41.684 0.062 6.59 2.39 13.47
12/26/2021 11:15:00 AM 5.44 41.792 0.062 6.58 2.46 13.44
12/26/2021 11:30:00 AM 5.46 41.828 0.062 6.58 2.42 13.43
12/26/2021 11:45:00 AM 5.47 41.846 0.062 6.58 2.4 13.42
12/26/2021 12:00:00 PM 5.49 41.882 0.062 6.59 2.35 13.42
12/26/2021 12:15:00 PM 5.51 41.918 0.062 6.58 2.47 13.4
12/26/2021 12:30:00 PM 5.52 41.936 0.062 6.58 2.34 13.4
12/26/2021 12:45:00 PM 5.52 41.936 0.062 6.59 2.39 13.39
12/26/2021 1:00:00 PM 5.56 42.008 0.062 6.59 2.35 13.39
12/26/2021 1:15:00 PM 5.58 42.044 0.062 6.6 2.36 13.39
12/26/2021 1:30:00 PM 5.59 42.062 0.062 6.6 2.35 13.38
12/26/2021 1:45:00 PM 5.57 42.026 0.062 6.6 2.36 13.36
12/26/2021 2:00:00 PM 5.59 42.062 0.062 6.6 2.37 13.35
12/26/2021 2:15:00 PM 5.58 42.044 0.062 6.6 2.49 13.35
12/26/2021 2:30:00 PM 5.55 41.99 0.062 6.58 2.37 13.36
12/26/2021 2:45:00 PM 5.56 42.008 0.062 6.59 2.43 13.36
12/26/2021 3:00:00 PM 5.59 42.062 0.062 6.59 2.34 13.36
12/26/2021 3:15:00 PM 5.56 42.008 0.062 6.59 2.32 13.35
12/26/2021 3:30:00 PM 5.54 41.972 0.062 6.57 2.36 13.36
12/26/2021 3:45:00 PM 5.53 41.954 0.062 6.58 2.47 13.35
12/26/2021 4:00:00 PM 5.52 41.936 0.062 6.58 2.39 13.33
12/26/2021 4:15:00 PM 5.49 41.882 0.062 6.58 2.48 13.31
12/26/2021 4:30:00 PM 5.46 41.828 0.062 6.56 2.34 13.31
12/26/2021 4:45:00 PM 5.42 41.756 0.062 6.56 2.42 13.31
12/26/2021 5:00:00 PM 5.37 41.666 0.062 6.55 2.35 13.3
12/26/2021 5:15:00 PM 5.33 41.594 0.063 6.55 2.4 13.3
12/26/2021 5:30:00 PM 5.27 41.486 0.063 6.55 2.39 13.31
12/26/2021 5:45:00 PM 5.22 41.396 0.063 6.55 2.46 13.32
12/26/2021 6:00:00 PM 5.16 41.288 0.063 6.55 2.35 13.34
12/26/2021 6:15:00 PM 5.1 41.18 0.063 6.55 2.33 13.36
12/26/2021 6:30:00 PM 5.04 41.072 0.063 6.55 2.42 13.39
12/26/2021 6:45:00 PM 4.97 40.946 0.063 6.54 2.47 13.41
12/26/2021 7:00:00 PM 4.9 40.82 0.063 6.55 2.43 13.43
12/26/2021 7:15:00 PM 4.84 40.712 0.063 6.55 2.38 13.46
12/26/2021 7:30:00 PM 4.77 40.586 0.063 6.55 2.49 13.48
12/26/2021 7:45:00 PM 4.71 40.478 0.063 6.54 2.47 13.5
12/26/2021 8:00:00 PM 4.65 40.37 0.063 6.55 2.36 13.53
12/26/2021 8:15:00 PM 4.6 40.28 0.063 6.54 2.35 13.55
12/26/2021 8:30:00 PM 4.54 40.172 0.063 6.54 2.37 13.58
12/26/2021 8:45:00 PM 4.48 40.064 0.063 6.54 2.33 13.6
12/26/2021 9:00:00 PM 4.43 39.974 0.063 6.54 2.33 13.61
12/26/2021 9:15:00 PM 4.38 39.884 0.063 6.54 2.46 13.63
12/26/2021 9:30:00 PM 4.32 39.776 0.063 6.53 2.37 13.66
12/26/2021 9:45:00 PM 4.27 39.686 0.063 6.54 2.33 13.67
12/26/2021 10:00:00 PM 4.23 39.614 0.062 6.54 2.38 13.7
12/26/2021 10:15:00 PM 4.19 39.542 0.062 6.54 2.33 13.71
12/26/2021 10:30:00 PM 4.16 39.488 0.063 6.55 2.34 13.72
12/26/2021 10:45:00 PM 4.13 39.434 0.063 6.54 2.33 13.74
12/26/2021 11:00:00 PM 4.1 39.38 0.063 6.54 2.39 13.75
12/26/2021 11:15:00 PM 4.08 39.344 0.063 6.54 2.33 13.77
12/26/2021 11:30:00 PM 4.06 39.308 0.063 6.54 2.28 13.78
12/26/2021 11:45:00 PM 4.03 39.254 0.063 6.53 2.35 13.79
12/27/2021 12:00:00 AM 4.01 39.218 0.062 6.53 2.33 13.79
12/27/2021 12:15:00 AM 3.98 39.164 0.062 6.54 2.35 13.81
12/27/2021 12:30:00 AM 3.94 39.092 0.062 6.53 2.33 13.81
12/27/2021 12:45:00 AM 3.92 39.056 0.062 6.53 2.31 13.82
12/27/2021 1:00:00 AM 3.88 38.984 0.062 6.53 2.36 13.83
12/27/2021 1:15:00 AM 3.85 38.93 0.062 6.54 2.33 13.84
12/27/2021 1:30:00 AM 3.8 38.84 0.062 6.53 2.31 13.85
12/27/2021 1:45:00 AM 3.77 38.786 0.062 6.54 2.33 13.87
12/27/2021 2:00:00 AM 3.73 38.714 0.062 6.54 2.34 13.87
12/27/2021 2:15:00 AM 3.68 38.624 0.062 6.54 2.35 13.88
12/27/2021 2:30:00 AM 3.65 38.57 0.062 6.54 2.3 13.89
12/27/2021 2:45:00 AM 3.63 38.534 0.062 6.54 2.32 13.91
12/27/2021 3:00:00 AM 3.61 38.498 0.062 6.54 2.34 13.93
12/27/2021 3:15:00 AM 3.59 38.462 0.062 6.54 2.31 13.93
12/27/2021 3:30:00 AM 3.57 38.426 0.062 6.54 2.29 13.94
12/27/2021 3:45:00 AM 3.55 38.39 0.062 6.54 2.26 13.96
12/27/2021 4:00:00 AM 3.54 38.372 0.062 6.54 2.36 13.95
12/27/2021 4:15:00 AM 3.53 38.354 0.062 6.54 2.25 13.96
12/27/2021 4:30:00 AM 3.52 38.336 0.062 6.54 2.26 13.97
12/27/2021 4:45:00 AM 3.51 38.318 0.062 6.54 2.27 13.97
12/27/2021 5:00:00 AM 3.49 38.282 0.062 6.54 2.31 13.98
12/27/2021 5:15:00 AM 3.49 38.282 0.062 6.54 2.31 13.97
12/27/2021 5:30:00 AM 3.48 38.264 0.062 6.54 2.29 13.97
12/27/2021 5:45:00 AM 3.48 38.264 0.062 6.54 2.33 13.97
12/27/2021 6:00:00 AM 3.47 38.246 0.062 6.54 2.24 13.97
12/27/2021 6:15:00 AM 3.47 38.246 0.062 6.55 2.3 13.97
12/27/2021 6:30:00 AM 3.47 38.246 0.062 6.55 2.31 13.97
12/27/2021 6:45:00 AM 3.46 38.228 0.062 6.54 2.23 13.97
12/27/2021 7:00:00 AM 3.45 38.21 0.062 6.55 2.23 13.97
12/27/2021 7:15:00 AM 3.45 38.21 0.062 6.54 2.43 13.97
12/27/2021 7:30:00 AM 3.46 38.228 0.062 6.55 2.24 13.96
12/27/2021 7:45:00 AM 3.45 38.21 0.062 6.54 2.38 13.97
12/27/2021 8:00:00 AM 3.46 38.228 0.062 6.54 2.24 13.97
12/27/2021 8:15:00 AM 3.47 38.246 0.062 6.55 2.25 13.98
12/27/2021 8:30:00 AM 3.41 38.138 0.062 6.55 2.32 13.98
12/27/2021 8:45:00 AM 3.23 37.814 0.062 6.54 2.25 14
12/27/2021 9:00:00 AM 3.15 37.67 0.062 6.55 2.34 14.03
12/27/2021 9:15:00 AM 3.19 37.742 0.062 6.56 2.24 14.08
12/27/2021 9:30:00 AM 3.22 37.796 0.062 6.57 2.24 14.1
12/27/2021 9:45:00 AM 3.2 37.76 0.062 6.57 2.28 14.12
12/27/2021 10:00:00 AM 3.09 37.562 0.062 6.57 2.24 14.14
12/27/2021 10:15:00 AM 3.13 37.634 0.062 6.58 2.24 14.17
12/27/2021 10:30:00 AM 3.17 37.706 0.062 6.58 2.26 14.18
12/27/2021 10:45:00 AM 3.2 37.76 0.062 6.59 2.23 14.19
12/27/2021 11:00:00 AM 3.22 37.796 0.062 6.59 2.29 14.17
12/27/2021 11:15:00 AM 3.22 37.796 0.062 6.58 2.25 14.16
12/27/2021 11:30:00 AM 3.24 37.832 0.062 6.59 2.25 14.15
12/27/2021 11:45:00 AM 3.25 37.85 0.062 6.59 2.3 14.14
12/27/2021 12:00:00 PM 3.28 37.904 0.062 6.59 2.23 14.13
12/27/2021 12:15:00 PM 3.29 37.922 0.061 6.58 2.25 14.11
12/27/2021 12:30:00 PM 3.24 37.832 0.061 6.58 2.37 14.11
12/27/2021 12:45:00 PM 3.29 37.922 0.061 6.58 2.43 14.11
12/27/2021 1:00:00 PM 3.32 37.976 0.061 6.58 2.47 14.09
12/27/2021 1:15:00 PM 3.34 38.012 0.061 6.58 2.47 14.07
12/27/2021 1:30:00 PM 3.38 38.084 0.061 6.58 2.4 14.04
12/27/2021 1:45:00 PM 3.4 38.12 0.061 6.58 2.44 14.03
12/27/2021 2:00:00 PM 3.43 38.174 0.061 6.58 2.41 14.02
12/27/2021 2:15:00 PM 3.45 38.21 0.061 6.58 2.39 14
12/27/2021 2:30:00 PM 3.47 38.246 0.061 6.58 2.34 13.97
12/27/2021 2:45:00 PM 3.5 38.3 0.061 6.58 2.4 13.95
12/27/2021 3:00:00 PM 3.52 38.336 0.061 6.58 2.39 13.94
12/27/2021 3:15:00 PM 3.54 38.372 0.061 6.58 2.44 13.91
12/27/2021 3:30:00 PM 3.56 38.408 0.061 6.58 2.4 13.9
12/27/2021 3:45:00 PM 3.58 38.444 0.061 6.58 2.37 13.89
12/27/2021 4:00:00 PM 3.59 38.462 0.061 6.58 2.43 13.87
12/27/2021 4:15:00 PM 3.61 38.498 0.061 6.57 2.47 13.85
12/27/2021 4:30:00 PM 3.62 38.516 0.061 6.57 2.47 13.84
12/27/2021 4:45:00 PM 3.64 38.552 0.061 6.57 2.51 13.83
12/27/2021 5:00:00 PM 3.64 38.552 0.061 6.57 2.48 13.82
12/27/2021 5:15:00 PM 3.65 38.57 0.061 6.57 2.52 13.81
12/27/2021 5:30:00 PM 3.66 38.588 0.061 6.57 2.66 13.8
12/27/2021 5:45:00 PM 3.67 38.606 0.062 6.56 2.6 13.78
12/27/2021 6:00:00 PM 3.68 38.624 0.062 6.56 2.64 13.78
12/27/2021 6:15:00 PM 3.69 38.642 0.062 6.56 2.66 13.77
12/27/2021 6:30:00 PM 3.7 38.66 0.062 6.56 2.86 13.78
12/27/2021 6:45:00 PM 3.7 38.66 0.062 6.56 2.89 13.77
12/27/2021 7:00:00 PM 3.71 38.678 0.062 6.57 2.86 13.77
12/27/2021 7:15:00 PM 3.72 38.696 0.062 6.56 2.92 13.77
12/27/2021 7:30:00 PM 3.73 38.714 0.062 6.57 3.01 13.75
12/27/2021 7:45:00 PM 3.74 38.732 0.062 6.56 3.15 13.75
12/27/2021 8:00:00 PM 3.76 38.768 0.062 6.57 3.39 13.74
12/27/2021 8:15:00 PM 3.77 38.786 0.062 6.56 3.41 13.75
12/27/2021 8:30:00 PM 3.78 38.804 0.062 6.56 3.39 13.73
12/27/2021 8:45:00 PM 3.79 38.822 0.062 6.57 3.66 13.74
12/27/2021 9:00:00 PM 3.8 38.84 0.062 6.57 3.78 13.72
12/27/2021 9:15:00 PM 3.8 38.84 0.062 6.56 3.62 13.73
12/27/2021 9:30:00 PM 3.8 38.84 0.062 6.56 3.55 13.72
12/27/2021 9:45:00 PM 3.81 38.858 0.062 6.56 3.71 13.73
12/27/2021 10:00:00 PM 3.82 38.876 0.062 6.57 3.76 13.73
12/27/2021 10:15:00 PM 3.83 38.894 0.062 6.57 3.74 13.72
12/27/2021 10:30:00 PM 3.83 38.894 0.062 6.55 3.8 13.71
12/27/2021 10:45:00 PM 3.84 38.912 0.062 6.56 3.96 13.71
12/27/2021 11:00:00 PM 3.85 38.93 0.062 6.55 3.81 13.7
12/27/2021 11:15:00 PM 3.86 38.948 0.063 6.56 3.93 13.71
12/27/2021 11:30:00 PM 3.87 38.966 0.063 6.55 3.73 13.7
12/27/2021 11:45:00 PM 3.87 38.966 0.063 6.57 4 13.7
12/28/2021 12:00:00 AM 3.88 38.984 0.063 6.57 3.63 13.7
12/28/2021 12:15:00 AM 3.89 39.002 0.063 6.54 3.63 13.7
12/28/2021 12:30:00 AM 3.9 39.02 0.063 6.55 3.48 13.7
12/28/2021 12:45:00 AM 3.91 39.038 0.063 6.55 3.47 13.7
12/28/2021 1:00:00 AM 3.92 39.056 0.063 6.55 3.27 13.7
12/28/2021 1:15:00 AM 3.93 39.074 0.063 6.55 3.19 13.69
12/28/2021 1:30:00 AM 3.93 39.074 0.064 6.55 3.3 13.7
12/28/2021 1:45:00 AM 3.93 39.074 0.064 6.55 3.09 13.69
12/28/2021 2:00:00 AM 3.92 39.056 0.064 6.54 2.99 13.7
12/28/2021 2:15:00 AM 3.92 39.056 0.064 6.55 2.98 13.71
12/28/2021 2:30:00 AM 3.92 39.056 0.064 6.56 3 13.71
12/28/2021 2:45:00 AM 3.9 39.02 0.064 6.53 2.92 13.7
12/28/2021 3:00:00 AM 3.89 39.002 0.064 6.54 2.86 13.72
12/28/2021 3:15:00 AM 3.87 38.966 0.064 6.53 2.92 13.72
12/28/2021 3:30:00 AM 3.85 38.93 0.064 6.54 3.06 13.73
12/28/2021 3:45:00 AM 3.84 38.912 0.064 6.53 2.79 13.73
12/28/2021 4:00:00 AM 3.82 38.876 0.064 6.53 2.86 13.75
12/28/2021 4:15:00 AM 3.8 38.84 0.064 6.52 2.83 13.75
12/28/2021 4:30:00 AM 3.78 38.804 0.064 6.53 2.78 13.76
12/28/2021 4:45:00 AM 3.77 38.786 0.064 6.53 2.7 13.77
12/28/2021 5:00:00 AM 3.75 38.75 0.064 6.54 2.75 13.77
12/28/2021 5:15:00 AM 3.72 38.696 0.064 6.52 2.68 13.78
12/28/2021 5:30:00 AM 3.7 38.66 0.064 6.52 2.76 13.79
12/28/2021 5:45:00 AM 3.68 38.624 0.064 6.52 2.69 13.81
12/28/2021 6:00:00 AM 3.66 38.588 0.064 6.54 2.56 13.81
12/28/2021 6:15:00 AM 3.63 38.534 0.064 6.53 2.57 13.82
12/28/2021 6:30:00 AM 3.61 38.498 0.064 6.51 2.61 13.83
12/28/2021 6:45:00 AM 3.59 38.462 0.064 6.52 2.58 13.83
12/28/2021 7:00:00 AM 3.57 38.426 0.064 6.51 2.58 13.86
12/28/2021 7:15:00 AM 3.55 38.39 0.064 6.51 2.58 13.85
12/28/2021 7:30:00 AM 3.52 38.336 0.064 6.52 2.57 13.87
12/28/2021 7:45:00 AM 3.5 38.3 0.064 6.51 2.52 13.88
12/28/2021 8:00:00 AM 3.49 38.282 0.064 6.52 2.59 13.91
12/28/2021 8:15:00 AM 3.49 38.282 0.064 6.53 2.47 13.95
12/28/2021 8:30:00 AM 3.49 38.282 0.064 6.55 2.53 13.96
12/28/2021 8:45:00 AM 3.5 38.3 0.064 6.51 2.5 13.98
12/28/2021 9:00:00 AM 3.51 38.318 0.064 6.55 2.48 14
12/28/2021 9:15:00 AM 3.53 38.354 0.064 6.55 2.58 14
12/28/2021 9:30:00 AM 3.58 38.444 0.063 6.56 2.56 14.01
12/28/2021 9:45:00 AM 3.61 38.498 0.063 6.54 2.5 14
12/28/2021 10:00:00 AM 3.64 38.552 0.063 6.56 2.46 14
12/28/2021 10:15:00 AM 3.71 38.678 0.063 6.57 2.49 13.99
12/28/2021 10:30:00 AM 3.81 38.858 0.063 6.55 2.51 13.99
12/28/2021 10:45:00 AM 3.9 39.02 0.063 6.58 2.5 13.97
12/28/2021 11:00:00 AM 4 39.2 0.063 6.58 2.5 13.95
12/28/2021 11:15:00 AM 4.09 39.362 0.063 6.57 2.52 13.92
12/28/2021 11:30:00 AM 4.18 39.524 0.063 6.57 2.48 13.88
12/28/2021 11:45:00 AM 4.25 39.65 0.063 6.57 2.48 13.85
12/28/2021 12:00:00 PM 4.32 39.776 0.063 6.57 2.41 13.81
12/28/2021 12:15:00 PM 4.37 39.866 0.063 6.57 2.48 13.77
12/28/2021 12:30:00 PM 4.41 39.938 0.063 6.56 2.44 13.74
12/28/2021 12:45:00 PM 4.45 40.01 0.063 6.56 2.49 13.72
12/28/2021 1:00:00 PM 4.47 40.046 0.063 6.56 2.42 13.69
12/28/2021 1:15:00 PM 4.49 40.082 0.063 6.56 2.44 13.67
12/28/2021 1:30:00 PM 4.51 40.118 0.063 6.56 2.42 13.66
12/28/2021 1:45:00 PM 4.54 40.172 0.063 6.57 2.4 13.65
12/28/2021 2:00:00 PM 4.56 40.208 0.063 6.56 2.43 13.64
12/28/2021 2:15:00 PM 4.6 40.28 0.063 6.56 2.55 13.63
12/28/2021 2:30:00 PM 4.62 40.316 0.063 6.56 2.46 13.6
12/28/2021 2:45:00 PM 4.62 40.316 0.063 6.57 2.49 13.58
12/28/2021 3:00:00 PM 4.63 40.334 0.063 6.55 2.57 13.56
12/28/2021 3:15:00 PM 4.63 40.334 0.063 6.55 2.54 13.55
12/28/2021 3:30:00 PM 4.63 40.334 0.063 6.55 2.49 13.55
12/28/2021 3:45:00 PM 4.63 40.334 0.063 6.55 2.49 13.55
12/28/2021 4:00:00 PM 4.63 40.334 0.063 6.54 2.55 13.54
12/28/2021 4:15:00 PM 4.62 40.316 0.063 6.54 2.51 13.53
12/28/2021 4:30:00 PM 4.61 40.298 0.063 6.54 2.55 13.52
12/28/2021 4:45:00 PM 4.61 40.298 0.063 6.54 2.56 13.52
12/28/2021 5:00:00 PM 4.6 40.28 0.063 6.53 2.57 13.51
12/28/2021 5:15:00 PM 4.6 40.28 0.063 6.54 2.71 13.51
12/28/2021 5:30:00 PM 4.59 40.262 0.063 6.54 2.68 13.5
12/28/2021 5:45:00 PM 4.58 40.244 0.063 6.53 2.67 13.5
12/28/2021 6:00:00 PM 4.56 40.208 0.063 6.53 2.72 13.51
12/28/2021 6:15:00 PM 4.54 40.172 0.063 6.53 2.66 13.51
12/28/2021 6:30:00 PM 4.47 40.046 0.063 6.53 2.88 13.51
12/28/2021 6:45:00 PM 4.38 39.884 0.063 6.53 2.76 13.52
12/28/2021 7:00:00 PM 4.29 39.722 0.063 6.53 2.78 13.54
12/28/2021 7:15:00 PM 4.22 39.596 0.063 6.53 2.85 13.57
12/28/2021 7:30:00 PM 4.05 39.29 0.063 6.53 2.89 13.6
12/28/2021 7:45:00 PM 3.95 39.11 0.063 6.53 3.09 13.64
12/28/2021 8:00:00 PM 3.83 38.894 0.063 6.53 3.24 13.68
12/28/2021 8:15:00 PM 3.67 38.606 0.063 6.53 3.55 13.72
12/28/2021 8:30:00 PM 3.63 38.534 0.063 6.53 3.48 13.75
12/28/2021 8:45:00 PM 3.58 38.444 0.063 6.53 3.8 13.79
12/28/2021 9:00:00 PM 3.57 38.426 0.063 6.53 3.76 13.81
12/28/2021 9:15:00 PM 3.56 38.408 0.063 6.53 3.94 13.84
12/28/2021 9:30:00 PM 3.56 38.408 0.063 6.53 3.72 13.85
12/28/2021 9:45:00 PM 3.57 38.426 0.063 6.53 3.81 13.84
12/28/2021 10:00:00 PM 3.58 38.444 0.063 6.52 3.59 13.85
12/28/2021 10:15:00 PM 3.58 38.444 0.063 6.53 3.64 13.83
12/28/2021 10:30:00 PM 3.59 38.462 0.063 6.52 3.44 13.83
12/28/2021 10:45:00 PM 3.6 38.48 0.063 6.52 3.61 13.83
12/28/2021 11:00:00 PM 3.61 38.498 0.063 6.51 3.6 13.82
12/28/2021 11:15:00 PM 3.62 38.516 0.063 6.51 3.66 13.82
12/28/2021 11:30:00 PM 3.64 38.552 0.063 6.51 3.58 13.81
12/28/2021 11:45:00 PM 3.66 38.588 0.063 6.52 3.38 13.8
12/29/2021 12:00:00 AM 3.69 38.642 0.063 6.52 3.25 13.78
12/29/2021 12:15:00 AM 3.71 38.678 0.063 6.53 3.22 13.78
12/29/2021 12:30:00 AM 3.73 38.714 0.063 6.52 3.39 13.77
12/29/2021 12:45:00 AM 3.75 38.75 0.063 6.52 3.15 13.75
12/29/2021 1:00:00 AM 3.77 38.786 0.063 6.52 3.18 13.75
12/29/2021 1:15:00 AM 3.79 38.822 0.063 6.52 3.08 13.72
12/29/2021 1:30:00 AM 3.81 38.858 0.062 6.52 3.21 13.71
12/29/2021 1:45:00 AM 3.83 38.894 0.062 6.52 3.2 13.71
12/29/2021 2:00:00 AM 3.85 38.93 0.062 6.52 3.15 13.71
12/29/2021 2:15:00 AM 3.86 38.948 0.062 6.52 3.18 13.7
12/29/2021 2:30:00 AM 3.88 38.984 0.062 6.52 3.04 13.7
12/29/2021 2:45:00 AM 3.89 39.002 0.062 6.51 3.13 13.69
12/29/2021 3:00:00 AM 3.91 39.038 0.062 6.52 3.09 13.7
12/29/2021 3:15:00 AM 3.92 39.056 0.062 6.51 3.17 13.69
12/29/2021 3:30:00 AM 3.93 39.074 0.062 6.51 3.07 13.69
12/29/2021 3:45:00 AM 3.95 39.11 0.062 6.53 3.16 13.68
12/29/2021 4:00:00 AM 3.96 39.128 0.062 6.52 3.13 13.68
12/29/2021 4:15:00 AM 3.97 39.146 0.062 6.51 3.12 13.68
12/29/2021 4:30:00 AM 3.98 39.164 0.062 6.51 3.04 13.67
12/29/2021 4:45:00 AM 3.99 39.182 0.062 6.51 3.17 13.67
12/29/2021 5:00:00 AM 4.01 39.218 0.062 6.51 3.13 13.65
12/29/2021 5:15:00 AM 4.02 39.236 0.062 6.51 3.24 13.66
12/29/2021 5:30:00 AM 4.03 39.254 0.062 6.51 3.16 13.65
12/29/2021 5:45:00 AM 4.04 39.272 0.062 6.51 3.19 13.65
12/29/2021 6:00:00 AM 4.05 39.29 0.062 6.52 3.26 13.65
12/29/2021 6:15:00 AM 4.06 39.308 0.062 6.51 3.23 13.65
12/29/2021 6:30:00 AM 4.07 39.326 0.062 6.51 3.1 13.65
12/29/2021 6:45:00 AM 4.08 39.344 0.062 6.51 3.33 13.65
12/29/2021 7:00:00 AM 4.09 39.362 0.062 6.5 3.22 13.65
12/29/2021 7:15:00 AM 4.09 39.362 0.062 6.51 3.29 13.65
12/29/2021 7:30:00 AM 4.1 39.38 0.062 6.51 3.3 13.65
12/29/2021 7:45:00 AM 4.11 39.398 0.062 6.5 3.25 13.65
12/29/2021 8:00:00 AM 4.12 39.416 0.062 6.5 3.16 13.65
12/29/2021 8:15:00 AM 4.13 39.434 0.062 6.5 9.6 13.66
12/29/2021 8:30:00 AM 4.14 39.452 0.062 6.51 3.07 13.66
12/29/2021 8:45:00 AM 4.15 39.47 0.062 6.52 3.02 13.68
12/29/2021 9:00:00 AM 4.17 39.506 0.062 6.51 3.46 13.68
12/29/2021 9:15:00 AM 4.18 39.524 0.062 6.51 2.99 13.69
12/29/2021 9:30:00 AM 4.2 39.56 0.062 6.51 3 13.7
12/29/2021 9:45:00 AM 4.22 39.596 0.062 6.52 3.17 13.7
12/29/2021 10:00:00 AM 4.24 39.632 0.062 6.52 3.09 13.71
12/29/2021 10:15:00 AM 4.27 39.686 0.062 6.53 3.02 13.7
12/29/2021 10:30:00 AM 4.29 39.722 0.062 6.53 3 13.71
12/29/2021 10:45:00 AM 4.32 39.776 0.062 6.53 3.47 13.7
12/29/2021 11:00:00 AM 4.35 39.83 0.062 6.54 3.05 13.7
12/29/2021 11:15:00 AM 4.37 39.866 0.062 6.53 3.15 13.69
12/29/2021 11:30:00 AM 4.4 39.92 0.062 6.54 3.18 13.69
12/29/2021 11:45:00 AM 4.43 39.974 0.062 6.53 3.18 13.68
12/29/2021 12:00:00 PM 4.45 40.01 0.062 6.54 3.23 13.67
12/29/2021 12:15:00 PM 4.48 40.064 0.061 6.53 3.32 13.66
12/29/2021 12:30:00 PM 4.51 40.118 0.061 6.54 3.31 13.66
12/29/2021 12:45:00 PM 4.55 40.19 0.061 6.53 3.25 13.65
12/29/2021 1:00:00 PM 4.59 40.262 0.061 6.54 3.42 13.64
12/29/2021 1:15:00 PM 4.62 40.316 0.061 6.54 3.37 13.63
12/29/2021 1:30:00 PM 4.65 40.37 0.061 6.54 3.36 13.62
12/29/2021 1:45:00 PM 4.68 40.424 0.061 6.54 3.57 13.61
12/29/2021 2:00:00 PM 4.73 40.514 0.061 6.54 3.46 13.6
12/29/2021 2:15:00 PM 4.76 40.568 0.061 6.53 3.35 13.58
12/29/2021 2:30:00 PM 4.8 40.64 0.061 6.54 3.51 13.57
12/29/2021 2:45:00 PM 4.84 40.712 0.061 6.54 3.64 13.56
12/29/2021 3:00:00 PM 4.86 40.748 0.061 6.54 3.42 13.53
12/29/2021 3:15:00 PM 4.89 40.802 0.061 6.53 3.59 13.53
12/29/2021 3:30:00 PM 4.92 40.856 0.061 6.53 3.57 13.51
12/29/2021 3:45:00 PM 4.94 40.892 0.061 6.52 3.69 13.49
12/29/2021 4:00:00 PM 4.96 40.928 0.061 6.52 3.75 13.46
12/29/2021 4:15:00 PM 4.98 40.964 0.061 6.53 3.59 13.45
12/29/2021 4:30:00 PM 4.99 40.982 0.061 6.52 3.67 13.43
12/29/2021 4:45:00 PM 5 41 0.061 6.52 3.88 13.41
12/29/2021 5:00:00 PM 5.02 41.036 0.061 6.53 3.74 13.41
12/29/2021 5:15:00 PM 5.02 41.036 0.061 6.5 3.76 13.39
12/29/2021 5:30:00 PM 5.03 41.054 0.061 6.5 3.86 13.39
12/29/2021 5:45:00 PM 5.04 41.072 0.061 6.51 4 13.38
12/29/2021 6:00:00 PM 5.04 41.072 0.061 6.5 4 13.38
12/29/2021 6:15:00 PM 5.05 41.09 0.061 6.49 4.02 13.39
12/29/2021 6:30:00 PM 5.05 41.09 0.061 6.49 3.96 13.38
12/29/2021 6:45:00 PM 5.05 41.09 0.061 6.48 4.29 13.39
12/29/2021 7:00:00 PM 5.06 41.108 0.061 6.48 4.15 13.39
12/29/2021 7:15:00 PM 5.06 41.108 0.061 6.47 4.11 13.39
12/29/2021 7:30:00 PM 5.06 41.108 0.061 6.48 3.98 13.39
12/29/2021 7:45:00 PM 5.07 41.126 0.061 6.48 4.04 13.38
12/29/2021 8:00:00 PM 5.07 41.126 0.061 6.49 4.15 13.39
12/29/2021 8:15:00 PM 5.07 41.126 0.061 6.5 4.74 13.38
12/29/2021 8:30:00 PM 5.08 41.144 0.061 6.48 4.07 13.37
12/29/2021 8:45:00 PM 5.09 41.162 0.061 6.48 3.92 13.37
12/29/2021 9:00:00 PM 5.09 41.162 0.061 6.47 3.92 13.37
12/29/2021 9:15:00 PM 5.1 41.18 0.061 6.48 3.79 13.38
12/29/2021 9:30:00 PM 5.11 41.198 0.061 6.48 3.94 13.37
12/29/2021 9:45:00 PM 5.11 41.198 0.061 6.48 3.9 13.37
12/29/2021 10:00:00 PM 5.12 41.216 0.061 6.47 3.68 13.37
12/29/2021 10:15:00 PM 5.13 41.234 0.061 6.48 3.75 13.37
12/29/2021 10:30:00 PM 5.13 41.234 0.061 6.46 3.64 13.37
12/29/2021 10:45:00 PM 5.14 41.252 0.061 6.47 3.74 13.36
12/29/2021 11:00:00 PM 5.14 41.252 0.061 6.47 3.73 13.36
12/29/2021 11:15:00 PM 5.15 41.27 0.061 6.46 3.78 13.35
12/29/2021 11:30:00 PM 5.16 41.288 0.061 6.46 4.05 13.36
12/29/2021 11:45:00 PM 5.16 41.288 0.06 6.47 3.9 13.36
12/30/2021 12:00:00 AM 5.17 41.306 0.06 6.48 3.83 13.35
12/30/2021 12:15:00 AM 5.18 41.324 0.06 6.47 3.56 13.34
12/30/2021 12:30:00 AM 5.18 41.324 0.06 6.48 3.4 13.34
12/30/2021 12:45:00 AM 5.19 41.342 0.06 6.49 3.59 13.33
12/30/2021 1:00:00 AM 5.2 41.36 0.06 6.47 3.67 13.33
12/30/2021 1:15:00 AM 5.2 41.36 0.06 6.47 3.42 13.32
12/30/2021 1:30:00 AM 5.21 41.378 0.06 6.48 3.59 13.32
12/30/2021 1:45:00 AM 5.22 41.396 0.06 6.47 3.48 13.32
12/30/2021 2:00:00 AM 5.23 41.414 0.06 6.47 3.4 13.32
12/30/2021 2:15:00 AM 5.24 41.432 0.06 6.48 3.54 13.31
12/30/2021 2:30:00 AM 5.24 41.432 0.06 6.48 3.66 13.31
12/30/2021 2:45:00 AM 5.25 41.45 0.06 6.48 3.46 13.3
12/30/2021 3:00:00 AM 5.26 41.468 0.06 6.48 3.36 13.3
12/30/2021 3:15:00 AM 5.27 41.486 0.06 6.47 3.38 13.3
12/30/2021 3:30:00 AM 5.28 41.504 0.06 6.47 3.36 13.29
12/30/2021 3:45:00 AM 5.28 41.504 0.06 6.47 3.21 13.29
12/30/2021 4:00:00 AM 5.29 41.522 0.06 6.47 3.29 13.29
12/30/2021 4:15:00 AM 5.3 41.54 0.06 6.48 3.33 13.28
12/30/2021 4:30:00 AM 5.31 41.558 0.06 6.47 3.28 13.28
12/30/2021 4:45:00 AM 5.31 41.558 0.06 6.48 3.21 13.28
12/30/2021 5:00:00 AM 5.32 41.576 0.06 6.48 3.36 13.27
12/30/2021 5:15:00 AM 5.33 41.594 0.06 6.48 3.2 13.27
12/30/2021 5:30:00 AM 5.34 41.612 0.06 6.48 3.3 13.27
12/30/2021 5:45:00 AM 5.34 41.612 0.059 6.48 3.18 13.27
12/30/2021 6:00:00 AM 5.35 41.63 0.059 6.48 3.27 13.27
12/30/2021 6:15:00 AM 5.36 41.648 0.059 6.48 3.14 13.27
12/30/2021 6:30:00 AM 5.37 41.666 0.059 6.47 3.29 13.26
12/30/2021 6:45:00 AM 5.37 41.666 0.059 6.48 3.31 13.27
12/30/2021 7:00:00 AM 5.38 41.684 0.059 6.48 3.15 13.26
12/30/2021 7:15:00 AM 5.39 41.702 0.059 6.48 3.25 13.26
12/30/2021 7:30:00 AM 5.4 41.72 0.059 6.49 3.22 13.26
12/30/2021 7:45:00 AM 5.4 41.72 0.059 6.48 3.24 13.26
12/30/2021 8:00:00 AM 5.41 41.738 0.059 6.49 3.27 13.26
12/30/2021 8:15:00 AM 5.42 41.756 0.059 6.47 3.04 13.26
12/30/2021 8:30:00 AM 5.43 41.774 0.059 6.48 3.04 13.26
12/30/2021 8:45:00 AM 5.45 41.81 0.059 6.48 3.07 13.27
12/30/2021 9:00:00 AM 5.46 41.828 0.059 6.49 3.11 13.27
12/30/2021 9:15:00 AM 5.48 41.864 0.059 6.49 3.02 13.28
12/30/2021 9:30:00 AM 5.5 41.9 0.059 6.51 3.35 13.3
12/30/2021 9:45:00 AM 5.53 41.954 0.059 6.51 3.29 13.3
12/30/2021 10:00:00 AM 5.58 42.044 0.059 6.52 2.96 13.31
12/30/2021 10:15:00 AM 5.61 42.098 0.059 6.52 3.12 13.31
12/30/2021 10:30:00 AM 5.64 42.152 0.059 6.52 3.01 13.29
12/30/2021 10:45:00 AM 5.69 42.242 0.058 6.53 2.92 13.29
12/30/2021 11:00:00 AM 5.74 42.332 0.058 6.53 2.88 13.28
12/30/2021 11:15:00 AM 5.79 42.422 0.058 6.54 3.07 13.27
12/30/2021 11:30:00 AM 5.82 42.476 0.058 6.53 3.02 13.24
12/30/2021 11:45:00 AM 5.86 42.548 0.058 6.54 2.87 13.23
12/30/2021 12:00:00 PM 5.9 42.62 0.058 6.53 2.94 13.21
12/30/2021 12:15:00 PM 5.97 42.746 0.058 6.53 3.32 13.19
12/30/2021 12:30:00 PM 6.01 42.818 0.058 6.54 3.18 13.17
12/30/2021 12:45:00 PM 6.06 42.908 0.058 6.54 3.24 13.16
12/30/2021 1:00:00 PM 6.11 42.998 0.058 6.53 3.15 13.15
12/30/2021 1:15:00 PM 6.15 43.07 0.058 6.54 3.15 13.13
12/30/2021 1:30:00 PM 6.19 43.142 0.058 6.53 2.94 13.11
12/30/2021 1:45:00 PM 6.23 43.214 0.058 6.54 3.1 13.09
12/30/2021 2:00:00 PM 6.29 43.322 0.058 6.55 3.06 13.08
12/30/2021 2:15:00 PM 6.32 43.376 0.058 6.53 3.16 13.06
12/30/2021 2:30:00 PM 6.36 43.448 0.058 6.53 3.25 13.04
12/30/2021 2:45:00 PM 6.39 43.502 0.058 6.53 3.21 13.02
12/30/2021 3:00:00 PM 6.4 43.52 0.058 6.53 3.09 13.01
12/30/2021 3:15:00 PM 6.42 43.556 0.058 6.52 3.04 13
12/30/2021 3:30:00 PM 6.43 43.574 0.058 6.53 3.16 12.97
12/30/2021 3:45:00 PM 6.44 43.592 0.058 6.52 3.05 12.97
12/30/2021 4:00:00 PM 6.45 43.61 0.058 6.52 3.01 12.96
12/30/2021 4:15:00 PM 6.45 43.61 0.058 6.52 3.07 12.94
12/30/2021 4:30:00 PM 6.45 43.61 0.058 6.51 3.12 12.94
12/30/2021 4:45:00 PM 6.44 43.592 0.058 6.51 3.11 12.92
12/30/2021 5:00:00 PM 6.44 43.592 0.058 6.5 3.6 12.9
12/30/2021 5:15:00 PM 6.44 43.592 0.058 6.49 3.3 12.9
12/30/2021 5:30:00 PM 6.44 43.592 0.058 6.48 3.2 12.89
12/30/2021 5:45:00 PM 6.44 43.592 0.058 6.48 3.29 12.89
12/30/2021 6:00:00 PM 6.44 43.592 0.058 6.47 3.36 12.89
12/30/2021 6:15:00 PM 6.44 43.592 0.057 6.48 3.48 12.89
12/30/2021 6:30:00 PM 6.43 43.574 0.057 6.48 3.3 12.89
12/30/2021 6:45:00 PM 6.43 43.574 0.057 6.47 3.46 12.89
12/30/2021 7:00:00 PM 6.43 43.574 0.057 6.47 3.08 12.89
12/30/2021 7:15:00 PM 6.43 43.574 0.057 6.46 3.5 12.9
12/30/2021 7:30:00 PM 6.42 43.556 0.057 6.48 3.37 12.9
12/30/2021 7:45:00 PM 6.42 43.556 0.057 6.48 3.21 12.9
12/30/2021 8:00:00 PM 6.41 43.538 0.057 6.48 3.69 12.9
12/30/2021 8:15:00 PM 6.4 43.52 0.057 6.48 3.43 12.9
12/30/2021 8:30:00 PM 6.4 43.52 0.057 6.48 3.21 12.9
12/30/2021 8:45:00 PM 6.4 43.52 0.057 6.48 3.01 12.9
12/30/2021 9:00:00 PM 6.4 43.52 0.057 6.48 3.28 12.91
12/30/2021 9:15:00 PM 6.4 43.52 0.057 6.48 3.1 12.91
12/30/2021 9:30:00 PM 6.4 43.52 0.057 6.48 3.38 12.9
12/30/2021 9:45:00 PM 6.4 43.52 0.057 6.48 3.09 12.91
12/30/2021 10:00:00 PM 6.4 43.52 0.057 6.48 3.26 12.91
12/30/2021 10:15:00 PM 6.4 43.52 0.057 6.48 3.13 12.91
12/30/2021 10:30:00 PM 6.4 43.52 0.057 6.49 3.05 12.91
12/30/2021 10:45:00 PM 6.4 43.52 0.057 6.5 2.92 12.91
12/30/2021 11:00:00 PM 6.39 43.502 0.057 6.49 3.06 12.92
12/30/2021 11:15:00 PM 6.39 43.502 0.057 6.49 3.27 12.92
12/30/2021 11:30:00 PM 6.39 43.502 0.057 6.49 3.02 12.91
12/30/2021 11:45:00 PM 6.39 43.502 0.057 6.49 3.13 12.91
12/31/2021 12:00:00 AM 6.39 43.502 0.057 6.49 3.1 12.91
12/31/2021 12:15:00 AM 6.39 43.502 0.057 6.48 3.14 12.92
12/31/2021 12:30:00 AM 6.39 43.502 0.057 6.48 3.1 12.91
12/31/2021 12:45:00 AM 6.39 43.502 0.057 6.49 2.99 12.92
12/31/2021 1:00:00 AM 6.39 43.502 0.057 6.48 3.29 12.92
12/31/2021 1:15:00 AM 6.39 43.502 0.057 6.48 3.04 12.91
12/31/2021 1:30:00 AM 6.39 43.502 0.057 6.47 2.92 12.91
12/31/2021 1:45:00 AM 6.39 43.502 0.057 6.47 3.15 12.9
12/31/2021 2:00:00 AM 6.39 43.502 0.057 6.47 2.96 12.91
12/31/2021 2:15:00 AM 6.39 43.502 0.057 6.47 3.03 12.91
12/31/2021 2:30:00 AM 6.39 43.502 0.057 6.47 2.95 12.91
12/31/2021 2:45:00 AM 6.4 43.52 0.057 6.47 2.95 12.91
12/31/2021 3:00:00 AM 6.4 43.52 0.057 6.48 2.99 12.91
12/31/2021 3:15:00 AM 6.4 43.52 0.056 6.48 3.06 12.91
12/31/2021 3:30:00 AM 6.4 43.52 0.056 6.47 3.08 12.9
12/31/2021 3:45:00 AM 6.4 43.52 0.056 6.47 3.22 12.9
12/31/2021 4:00:00 AM 6.4 43.52 0.056 6.47 2.93 12.9
12/31/2021 4:15:00 AM 6.41 43.538 0.056 6.47 3.7 12.89
12/31/2021 4:30:00 AM 6.41 43.538 0.056 6.47 3.06 12.89
12/31/2021 4:45:00 AM 6.41 43.538 0.056 6.47 2.86 12.89
12/31/2021 5:00:00 AM 6.41 43.538 0.056 6.47 2.82 12.89
12/31/2021 5:15:00 AM 6.41 43.538 0.056 6.48 3.03 12.89
12/31/2021 5:30:00 AM 6.41 43.538 0.056 6.47 2.95 12.89
12/31/2021 5:45:00 AM 6.4 43.52 0.056 6.48 2.95 12.9
12/31/2021 6:00:00 AM 6.4 43.52 0.056 6.48 2.97 12.89
12/31/2021 6:15:00 AM 6.4 43.52 0.056 6.47 2.93 12.89
12/31/2021 6:30:00 AM 6.4 43.52 0.056 6.48 2.83 12.89
12/31/2021 6:45:00 AM 6.39 43.502 0.056 6.48 3.1 12.9
12/31/2021 7:00:00 AM 6.39 43.502 0.056 6.48 3.25 12.9
12/31/2021 7:15:00 AM 6.38 43.484 0.056 6.47 3.04 12.9
12/31/2021 7:30:00 AM 6.38 43.484 0.056 6.47 2.97 12.91
12/31/2021 7:45:00 AM 6.38 43.484 0.056 6.47 3.1 12.91
12/31/2021 8:00:00 AM 6.37 43.466 0.056 6.48 3.01 12.92
12/31/2021 8:15:00 AM 6.37 43.466 0.056 6.49 3.14 12.94
12/31/2021 8:30:00 AM 6.38 43.484 0.056 6.48 3.04 12.96
12/31/2021 8:45:00 AM 6.39 43.502 0.056 6.49 3.98 12.97
12/31/2021 9:00:00 AM 6.41 43.538 0.056 6.5 2.99 12.99
12/31/2021 9:15:00 AM 6.43 43.574 0.056 6.5 2.96 12.99
12/31/2021 9:30:00 AM 6.46 43.628 0.056 6.51 2.84 12.99
12/31/2021 9:45:00 AM 6.49 43.682 0.056 6.52 3.39 13
12/31/2021 10:00:00 AM 6.51 43.718 0.056 6.52 3.43 13
12/31/2021 10:15:00 AM 6.57 43.826 0.056 6.52 2.97 12.99
12/31/2021 10:30:00 AM 6.64 43.952 0.056 6.52 2.97 12.99
12/31/2021 10:45:00 AM 6.69 44.042 0.056 6.52 2.96 12.97
12/31/2021 11:00:00 AM 6.72 44.096 0.056 6.54 3.03 12.95
12/31/2021 11:15:00 AM 6.78 44.204 0.056 6.56 3.07 12.94
12/31/2021 11:30:00 AM 6.78 44.204 0.056 6.56 3.02 12.91
12/31/2021 11:45:00 AM 6.86 44.348 0.056 6.57 2.86 12.89
12/31/2021 12:00:00 PM 6.86 44.348 0.056 6.56 3.52 12.87
12/31/2021 12:15:00 PM 6.88 44.384 0.056 6.56 3.83 12.86
12/31/2021 12:30:00 PM 6.97 44.546 0.056 6.57 4.04 12.85
12/31/2021 12:45:00 PM 7.02 44.636 0.056 6.57 3.93 12.83
12/31/2021 1:00:00 PM 7.06 44.708 0.056 6.58 3.8 12.82
12/31/2021 1:15:00 PM 7.16 44.888 0.056 6.6 3.54 12.79
12/31/2021 1:30:00 PM 7.24 45.032 0.056 6.6 3.66 12.77
12/31/2021 1:45:00 PM 7.29 45.122 0.056 6.58 6.9 12.74
12/31/2021 2:00:00 PM 7.37 45.266 0.056 6.58 3.11 12.71
12/31/2021 2:15:00 PM 7.4 45.32 0.056 6.59 4 12.69
12/31/2021 2:30:00 PM 7.43 45.374 0.056 6.59 3.65 12.69
12/31/2021 2:45:00 PM 7.46 45.428 0.056 6.59 3.76 12.68
12/31/2021 3:00:00 PM 7.49 45.482 0.055 6.59 3.52 12.67
12/31/2021 3:15:00 PM 7.51 45.518 0.055 6.59 3.22 12.65
12/31/2021 3:30:00 PM 7.52 45.536 0.055 6.59 3.39 12.64
12/31/2021 3:45:00 PM 7.53 45.554 0.055 6.58 3.35 12.63
12/31/2021 4:00:00 PM 7.52 45.536 0.056 6.57 3.05 12.61
12/31/2021 4:15:00 PM 7.5 45.5 0.055 6.57 3.31 12.59
12/31/2021 4:30:00 PM 7.47 45.446 0.056 6.56 3.57 12.58
12/31/2021 4:45:00 PM 7.45 45.41 0.056 6.55 2.96 12.58
12/31/2021 5:00:00 PM 7.43 45.374 0.056 6.54 4.31 12.57
12/31/2021 5:15:00 PM 7.41 45.338 0.056 6.54 4.42 12.57
12/31/2021 5:30:00 PM 7.38 45.284 0.056 6.54 10.75 12.57
12/31/2021 5:45:00 PM 7.36 45.248 0.056 6.53 2.89 12.58
12/31/2021 6:00:00 PM 7.33 45.194 0.056 6.53 3.47 12.58
12/31/2021 6:15:00 PM 7.31 45.158 0.056 6.53 2.78 12.59
12/31/2021 6:30:00 PM 7.29 45.122 0.056 6.54 2.83 12.6
12/31/2021 6:45:00 PM 7.27 45.086 0.056 6.53 3.01 12.6
12/31/2021 7:00:00 PM 7.25 45.05 0.056 6.53 2.81 12.62
12/31/2021 7:15:00 PM 7.22 44.996 0.056 6.53 2.81 12.62
12/31/2021 7:30:00 PM 7.2 44.96 0.056 6.53 2.74 12.63
12/31/2021 7:45:00 PM 7.18 44.924 0.056 6.52 2.76 12.63
12/31/2021 8:00:00 PM 7.15 44.87 0.056 6.5 2.82 12.64
12/31/2021 8:15:00 PM 7.12 44.816 0.056 6.51 2.87 12.64
12/31/2021 8:30:00 PM 7.09 44.762 0.056 6.51 2.83 12.64
12/31/2021 8:45:00 PM 7.06 44.708 0.056 6.51 2.94 12.66
12/31/2021 9:00:00 PM 7.04 44.672 0.056 6.5 2.78 12.66
12/31/2021 9:15:00 PM 7.01 44.618 0.056 6.51 2.88 12.67
12/31/2021 9:30:00 PM 6.98 44.564 0.056 6.51 2.81 12.68
12/31/2021 9:45:00 PM 6.94 44.492 0.056 6.5 2.86 12.69
12/31/2021 10:00:00 PM 6.91 44.438 0.056 6.51 3.16 12.7
12/31/2021 10:15:00 PM 6.88 44.384 0.056 6.51 2.75 12.7
12/31/2021 10:30:00 PM 6.86 44.348 0.056 6.5 2.75 12.72
12/31/2021 10:45:00 PM 6.83 44.294 0.056 6.51 2.7 12.72
12/31/2021 11:00:00 PM 6.81 44.258 0.056 6.52 2.74 12.73
12/31/2021 11:15:00 PM 6.79 44.222 0.056 6.52 2.75 12.73
12/31/2021 11:30:00 PM 6.77 44.186 0.056 6.52 2.61 12.74
12/31/2021 11:45:00 PM 6.76 44.168 0.056 6.52 2.65 12.74
1/1/2022 12:00:00 AM 6.74 44.132 0.056 6.52 2.72 12.75
1/1/2022 12:15:00 AM 6.71 44.078 0.056 6.51 2.71 12.75
1/1/2022 12:30:00 AM 6.69 44.042 0.056 6.52 2.63 12.75
1/1/2022 12:45:00 AM 6.68 44.024 0.056 6.52 2.66 12.75
1/1/2022 1:00:00 AM 6.67 44.006 0.056 6.52 2.7 12.76
1/1/2022 1:15:00 AM 6.66 43.988 0.056 6.52 2.66 12.76
1/1/2022 1:30:00 AM 6.65 43.97 0.056 6.53 2.73 12.77
1/1/2022 1:45:00 AM 6.64 43.952 0.055 6.52 2.93 12.77
1/1/2022 2:00:00 AM 6.64 43.952 0.055 6.53 2.93 12.77
1/1/2022 2:15:00 AM 6.65 43.97 0.055 6.52 2.74 12.77
1/1/2022 2:30:00 AM 6.64 43.952 0.055 6.52 3 12.77
1/1/2022 2:45:00 AM 6.64 43.952 0.055 6.53 2.79 12.76
1/1/2022 3:00:00 AM 6.65 43.97 0.055 6.53 2.74 12.76
1/1/2022 3:15:00 AM 6.65 43.97 0.055 6.53 2.73 12.76
1/1/2022 3:30:00 AM 6.66 43.988 0.055 6.53 2.75 12.76
1/1/2022 3:45:00 AM 6.66 43.988 0.055 6.53 2.76 12.76
1/1/2022 4:00:00 AM 6.67 44.006 0.055 6.52 2.68 12.75
1/1/2022 4:15:00 AM 6.67 44.006 0.055 6.53 2.74 12.75
1/1/2022 4:30:00 AM 6.67 44.006 0.055 6.52 2.9 12.75
1/1/2022 4:45:00 AM 6.68 44.024 0.055 6.52 2.92 12.75
1/1/2022 5:00:00 AM 6.68 44.024 0.056 6.52 2.96 12.75
1/1/2022 5:15:00 AM 6.68 44.024 0.056 6.51 2.89 12.75
1/1/2022 5:30:00 AM 6.68 44.024 0.056 6.51 2.92 12.74
1/1/2022 5:45:00 AM 6.68 44.024 0.056 6.5 2.78 12.74
1/1/2022 6:00:00 AM 6.69 44.042 0.056 6.51 2.98 12.74
1/1/2022 6:15:00 AM 6.69 44.042 0.056 6.5 2.86 12.74
1/1/2022 6:30:00 AM 6.69 44.042 0.056 6.5 2.74 12.74
1/1/2022 6:45:00 AM 6.69 44.042 0.056 6.5 2.8 12.74
1/1/2022 7:00:00 AM 6.69 44.042 0.056 6.5 2.82 12.74
1/1/2022 7:15:00 AM 6.7 44.06 0.056 6.5 2.76 12.74
1/1/2022 7:30:00 AM 6.7 44.06 0.056 6.5 2.66 12.74
1/1/2022 7:45:00 AM 6.7 44.06 0.056 6.5 2.75 12.73
1/1/2022 8:00:00 AM 6.7 44.06 0.056 6.5 2.75 12.74
1/1/2022 8:15:00 AM 6.71 44.078 0.056 6.51 2.68 12.74
1/1/2022 8:30:00 AM 6.72 44.096 0.056 6.51 2.65 12.76
1/1/2022 8:45:00 AM 6.72 44.096 0.056 6.51 2.69 12.76
1/1/2022 9:00:00 AM 6.74 44.132 0.056 6.51 2.71 12.77
1/1/2022 9:15:00 AM 6.75 44.15 0.056 6.51 2.64 12.78
1/1/2022 9:30:00 AM 6.77 44.186 0.056 6.52 2.66 12.79
1/1/2022 9:45:00 AM 6.78 44.204 0.056 6.52 2.66 12.79
1/1/2022 10:00:00 AM 6.8 44.24 0.056 6.52 2.59 12.79
1/1/2022 10:15:00 AM 6.82 44.276 0.056 6.52 2.66 12.78
1/1/2022 10:30:00 AM 6.85 44.33 0.056 6.52 2.56 12.78
1/1/2022 10:45:00 AM 6.87 44.366 0.056 6.52 2.68 12.78
1/1/2022 11:00:00 AM 6.9 44.42 0.056 6.53 2.7 12.79
1/1/2022 11:15:00 AM 6.94 44.492 0.056 6.53 2.6 12.79
1/1/2022 11:30:00 AM 6.97 44.546 0.056 6.52 2.59 12.78
1/1/2022 11:45:00 AM 7 44.6 0.055 6.53 2.65 12.77
1/1/2022 12:00:00 PM 7.03 44.654 0.055 6.54 2.57 12.76
1/1/2022 12:15:00 PM 7.07 44.726 0.055 6.53 2.67 12.74
1/1/2022 12:30:00 PM 7.11 44.798 0.055 6.53 2.59 12.74
1/1/2022 12:45:00 PM 7.15 44.87 0.055 6.54 2.61 12.73
1/1/2022 1:00:00 PM 7.19 44.942 0.055 6.54 2.61 12.71
1/1/2022 1:15:00 PM 7.23 45.014 0.055 6.54 2.75 12.7
1/1/2022 1:30:00 PM 7.27 45.086 0.055 6.54 2.65 12.68
1/1/2022 1:45:00 PM 7.3 45.14 0.055 6.54 2.64 12.66
1/1/2022 2:00:00 PM 7.34 45.212 0.055 6.54 2.53 12.64
1/1/2022 2:15:00 PM 7.36 45.248 0.055 6.53 2.66 12.62
1/1/2022 2:30:00 PM 7.39 45.302 0.055 6.53 2.71 12.6
1/1/2022 2:45:00 PM 7.41 45.338 0.055 6.52 2.77 12.58
1/1/2022 3:00:00 PM 7.43 45.374 0.055 6.52 2.56 12.57
1/1/2022 3:15:00 PM 7.45 45.41 0.055 6.51 2.66 12.56
1/1/2022 3:30:00 PM 7.46 45.428 0.055 6.51 2.71 12.54
1/1/2022 3:45:00 PM 7.48 45.464 0.056 6.51 2.68 12.52
1/1/2022 4:00:00 PM 7.49 45.482 0.056 6.51 2.69 12.51
1/1/2022 4:15:00 PM 7.5 45.5 0.056 6.51 2.73 12.5
1/1/2022 4:30:00 PM 7.51 45.518 0.055 6.5 2.9 12.48
1/1/2022 4:45:00 PM 7.52 45.536 0.055 6.5 2.79 12.48
1/1/2022 5:00:00 PM 7.53 45.554 0.056 6.5 2.77 12.45
1/1/2022 5:15:00 PM 7.54 45.572 0.056 6.51 2.94 12.45
1/1/2022 5:30:00 PM 7.54 45.572 0.057 6.49 3.06 12.45
1/1/2022 5:45:00 PM 7.54 45.572 0.057 6.48 2.82 12.44
1/1/2022 6:00:00 PM 7.55 45.59 0.057 6.48 3.09 12.43
1/1/2022 6:15:00 PM 7.55 45.59 0.057 6.48 3.2 12.43
1/1/2022 6:30:00 PM 7.56 45.608 0.056 6.47 3.34 12.44
1/1/2022 6:45:00 PM 7.56 45.608 0.056 6.47 3.34 12.43
1/1/2022 7:00:00 PM 7.57 45.626 0.056 6.47 3.36 12.43
1/1/2022 7:15:00 PM 7.57 45.626 0.056 6.47 3.36 12.43
1/1/2022 7:30:00 PM 7.58 45.644 0.056 6.46 3.41 12.42
1/1/2022 7:45:00 PM 7.58 45.644 0.056 6.47 3.4 12.42
1/1/2022 8:00:00 PM 7.59 45.662 0.056 6.47 3.72 12.41
1/1/2022 8:15:00 PM 7.6 45.68 0.056 6.47 3.85 12.41
1/1/2022 8:30:00 PM 7.6 45.68 0.056 6.47 4.23 12.41
1/1/2022 8:45:00 PM 7.61 45.698 0.056 6.47 4.29 12.4
1/1/2022 9:00:00 PM 7.61 45.698 0.056 6.48 4.45 12.4
1/1/2022 9:15:00 PM 7.61 45.698 0.056 6.47 4.62 12.39
1/1/2022 9:30:00 PM 7.62 45.716 0.056 6.47 4.33 12.39
1/1/2022 9:45:00 PM 7.62 45.716 0.056 6.47 4.37 12.39
1/1/2022 10:00:00 PM 7.63 45.734 0.056 6.47 4.72 12.39
1/1/2022 10:15:00 PM 7.63 45.734 0.056 6.46 4.33 12.38
1/1/2022 10:30:00 PM 7.64 45.752 0.056 6.46 4.17 12.38
1/1/2022 10:45:00 PM 7.64 45.752 0.056 6.46 4.19 12.37
1/1/2022 11:00:00 PM 7.65 45.77 0.056 6.46 4.05 12.38
1/1/2022 11:15:00 PM 7.66 45.788 0.056 6.47 4.38 12.37
1/1/2022 11:30:00 PM 7.66 45.788 0.056 6.47 4.17 12.38
1/1/2022 11:45:00 PM 7.67 45.806 0.056 6.47 4.05 12.38
1/2/2022 12:00:00 AM 7.68 45.824 0.056 6.46 3.88 12.38
1/2/2022 12:15:00 AM 7.69 45.842 0.056 6.47 4.17 12.38
1/2/2022 12:30:00 AM 7.69 45.842 0.056 6.47 3.86 12.38
1/2/2022 12:45:00 AM 7.68 45.824 0.056 6.48 3.88 12.37
1/2/2022 1:00:00 AM 7.68 45.824 0.056 6.49 4.56 12.38
1/2/2022 1:15:00 AM 7.67 45.806 0.056 6.5 4.4 12.37
1/2/2022 1:30:00 AM 7.67 45.806 0.056 6.5 5.11 12.38
1/2/2022 1:45:00 AM 7.66 45.788 0.056 6.51 5.45 12.38
1/2/2022 2:00:00 AM 7.64 45.752 0.056 6.51 5.86 12.38
1/2/2022 2:15:00 AM 7.63 45.734 0.056 6.52 5.86 12.4
1/2/2022 2:30:00 AM 7.61 45.698 0.056 6.51 6.03 12.4
1/2/2022 2:45:00 AM 7.59 45.662 0.056 6.51 5.93 12.41
1/2/2022 3:00:00 AM 7.57 45.626 0.056 6.51 5.93 12.41
1/2/2022 3:15:00 AM 7.56 45.608 0.056 6.5 6.01 12.41
1/2/2022 3:30:00 AM 7.54 45.572 0.057 6.5 6.45 12.43
1/2/2022 3:45:00 AM 7.52 45.536 0.057 6.49 6.23 12.44
1/2/2022 4:00:00 AM 7.5 45.5 0.057 6.49 6.82 12.44
1/2/2022 4:15:00 AM 7.48 45.464 0.057 6.48 6.14 12.44
1/2/2022 4:30:00 AM 7.46 45.428 0.057 6.48 6.2 12.45
1/2/2022 4:45:00 AM 7.43 45.374 0.058 6.49 5.76 12.47
1/2/2022 5:00:00 AM 7.41 45.338 0.058 6.49 5.38 12.47
1/2/2022 5:15:00 AM 7.38 45.284 0.058 6.47 5.81 12.48
1/2/2022 5:30:00 AM 7.36 45.248 0.058 6.47 5.58 12.48
1/2/2022 5:45:00 AM 7.33 45.194 0.058 6.47 5.64 12.49
1/2/2022 6:00:00 AM 7.32 45.176 0.058 6.47 5.1 12.5
1/2/2022 6:15:00 AM 7.3 45.14 0.058 6.48 6 12.5
1/2/2022 6:30:00 AM 7.28 45.104 0.057 6.48 5.31 12.51
1/2/2022 6:45:00 AM 7.26 45.068 0.057 6.48 5.08 12.52
1/2/2022 7:00:00 AM 7.24 45.032 0.057 6.48 5.1 12.53
1/2/2022 7:15:00 AM 7.23 45.014 0.057 6.48 5.05 12.54
1/2/2022 7:30:00 AM 7.21 44.978 0.057 6.48 5.33 12.54
1/2/2022 7:45:00 AM 7.19 44.942 0.057 6.48 5 12.55
1/2/2022 8:00:00 AM 7.17 44.906 0.057 6.47 5.08 12.56
1/2/2022 8:15:00 AM 7.16 44.888 0.057 6.48 4.72 12.57
1/2/2022 8:30:00 AM 7.15 44.87 0.057 6.48 4.6 12.58
1/2/2022 8:45:00 AM 7.13 44.834 0.057 6.48 4.92 12.59
1/2/2022 9:00:00 AM 7.12 44.816 0.057 6.48 4.78 12.6
1/2/2022 9:15:00 AM 7.11 44.798 0.057 6.48 4.44 12.61
1/2/2022 9:30:00 AM 7.1 44.78 0.057 6.48 4.43 12.63
1/2/2022 9:45:00 AM 7.09 44.762 0.057 6.48 4.21 12.65
1/2/2022 10:00:00 AM 7.09 44.762 0.057 6.49 4.13 12.66
1/2/2022 10:15:00 AM 7.08 44.744 0.057 6.49 4.2 12.68
1/2/2022 10:30:00 AM 7.07 44.726 0.057 6.5 4.14 12.7
1/2/2022 10:45:00 AM 7.06 44.708 0.057 6.5 3.99 12.72
1/2/2022 11:00:00 AM 7.05 44.69 0.057 6.51 4.14 12.74
1/2/2022 11:15:00 AM 7.04 44.672 0.057 6.51 4.02 12.74
1/2/2022 11:30:00 AM 7.03 44.654 0.057 6.51 4.1 12.74
1/2/2022 11:45:00 AM 7.01 44.618 0.057 6.51 3.83 12.75
1/2/2022 12:00:00 PM 6.99 44.582 0.057 6.51 3.82 12.76
1/2/2022 12:15:00 PM 6.98 44.564 0.057 6.51 3.8 12.76
1/2/2022 12:30:00 PM 6.96 44.528 0.057 6.51 3.65 12.77
1/2/2022 12:45:00 PM 6.94 44.492 0.057 6.51 3.59 12.78
1/2/2022 1:00:00 PM 6.91 44.438 0.057 6.51 3.78 12.78
1/2/2022 1:15:00 PM 6.88 44.384 0.057 6.51 3.81 12.79
1/2/2022 1:30:00 PM 6.86 44.348 0.057 6.51 3.6 12.79
1/2/2022 1:45:00 PM 6.83 44.294 0.057 6.51 4.24 12.8
1/2/2022 2:00:00 PM 6.81 44.258 0.057 6.51 3.71 12.81
1/2/2022 2:15:00 PM 6.78 44.204 0.057 6.51 3.77 12.82
1/2/2022 2:30:00 PM 6.76 44.168 0.057 6.51 3.75 12.83
1/2/2022 2:45:00 PM 6.74 44.132 0.057 6.51 3.67 12.85
1/2/2022 3:00:00 PM 6.71 44.078 0.057 6.5 3.73 12.86
1/2/2022 3:15:00 PM 6.67 44.006 0.057 6.5 3.65 12.86
1/2/2022 3:30:00 PM 6.62 43.916 0.057 6.5 3.81 12.86
1/2/2022 3:45:00 PM 6.59 43.862 0.057 6.49 3.68 12.87
1/2/2022 4:00:00 PM 6.55 43.79 0.057 6.49 3.53 12.88
1/2/2022 4:15:00 PM 6.51 43.718 0.057 6.48 3.57 12.89
1/2/2022 4:30:00 PM 6.47 43.646 0.057 6.48 3.44 12.9
1/2/2022 4:45:00 PM 6.44 43.592 0.057 6.48 3.36 12.91
1/2/2022 5:00:00 PM 6.39 43.502 0.057 6.48 3.34 12.92
1/2/2022 5:15:00 PM 6.33 43.394 0.057 6.48 3.4 12.94
1/2/2022 5:30:00 PM 6.29 43.322 0.057 6.47 3.44 12.96
1/2/2022 5:45:00 PM 6.25 43.25 0.057 6.47 3.32 12.98
1/2/2022 6:00:00 PM 6.2 43.16 0.057 6.47 3.49 12.99
1/2/2022 6:15:00 PM 6.16 43.088 0.057 6.47 3.61 13.01
1/2/2022 6:30:00 PM 6.13 43.034 0.057 6.47 3.37 13.03
1/2/2022 6:45:00 PM 6.08 42.944 0.057 6.46 3.34 13.05
1/2/2022 7:00:00 PM 6.04 42.872 0.057 6.46 3.2 13.06
1/2/2022 7:15:00 PM 5.99 42.782 0.057 6.46 3.89 13.08
1/2/2022 7:30:00 PM 5.96 42.728 0.057 6.46 3.43 13.09
1/2/2022 7:45:00 PM 5.92 42.656 0.057 6.47 3.28 13.11
1/2/2022 8:00:00 PM 5.88 42.584 0.057 6.46 3.27 13.12
1/2/2022 8:15:00 PM 5.84 42.512 0.057 6.46 3.23 13.14
1/2/2022 8:30:00 PM 5.8 42.44 0.057 6.46 3.23 13.15
1/2/2022 8:45:00 PM 5.76 42.368 0.057 6.47 3.1 13.17
1/2/2022 9:00:00 PM 5.72 42.296 0.057 6.46 3.09 13.18
1/2/2022 9:15:00 PM 5.68 42.224 0.057 6.46 3.11 13.2
1/2/2022 9:30:00 PM 5.64 42.152 0.057 6.46 3.3 13.21
1/2/2022 9:45:00 PM 5.6 42.08 0.057 6.47 3.11 13.23
1/2/2022 10:00:00 PM 5.56 42.008 0.057 6.46 3.18 13.25
1/2/2022 10:15:00 PM 5.52 41.936 0.057 6.46 3.37 13.26
1/2/2022 10:30:00 PM 5.48 41.864 0.057 6.46 3.02 13.27
1/2/2022 10:45:00 PM 5.45 41.81 0.057 6.46 3.31 13.29
1/2/2022 11:00:00 PM 5.41 41.738 0.057 6.46 3.13 13.31
1/2/2022 11:15:00 PM 5.37 41.666 0.057 6.46 3.05 13.32
1/2/2022 11:30:00 PM 5.33 41.594 0.057 6.46 2.97 13.33
1/2/2022 11:45:00 PM 5.3 41.54 0.057 6.46 3.03 13.34
1/3/2022 12:00:00 AM 5.26 41.468 0.057 6.46 2.94 13.36
1/3/2022 12:15:00 AM 5.22 41.396 0.057 6.45 2.99 13.38
1/3/2022 12:30:00 AM 5.19 41.342 0.056 6.45 3.98 13.39
1/3/2022 12:45:00 AM 5.15 41.27 0.056 6.46 3.12 13.4
1/3/2022 1:00:00 AM 5.11 41.198 0.056 6.46 3.05 13.41
1/3/2022 1:15:00 AM 5.08 41.144 0.056 6.46 2.94 13.43
1/3/2022 1:30:00 AM 5.03 41.054 0.056 6.45 2.98 13.45
1/3/2022 1:45:00 AM 4.99 40.982 0.056 6.46 3 13.46
1/3/2022 2:00:00 AM 4.95 40.91 0.056 6.46 2.98 13.47
1/3/2022 2:15:00 AM 4.91 40.838 0.056 6.46 3.09 13.49
1/3/2022 2:30:00 AM 4.87 40.766 0.056 6.46 2.87 13.51
1/3/2022 2:45:00 AM 4.85 40.73 0.056 6.46 2.86 13.52
1/3/2022 3:00:00 AM 4.8 40.64 0.056 6.45 2.78 13.54
1/3/2022 3:15:00 AM 4.74 40.532 0.056 6.45 2.92 13.56
1/3/2022 3:30:00 AM 4.71 40.478 0.056 6.46 2.96 13.57
1/3/2022 3:45:00 AM 4.68 40.424 0.056 6.45 3.04 13.58
1/3/2022 4:00:00 AM 4.62 40.316 0.056 6.46 2.9 13.6
1/3/2022 4:15:00 AM 4.59 40.262 0.056 6.46 2.87 13.62
1/3/2022 4:30:00 AM 4.54 40.172 0.056 6.47 2.79 13.63
1/3/2022 4:45:00 AM 4.5 40.1 0.056 6.46 2.9 13.65
1/3/2022 5:00:00 AM 4.47 40.046 0.056 6.45 2.85 13.66
1/3/2022 5:15:00 AM 4.42 39.956 0.056 6.46 3.01 13.68
1/3/2022 5:30:00 AM 4.39 39.902 0.056 6.46 2.86 13.69
1/3/2022 5:45:00 AM 4.35 39.83 0.056 6.47 2.9 13.7
1/3/2022 6:00:00 AM 4.31 39.758 0.056 6.46 2.86 13.72
1/3/2022 6:15:00 AM 4.27 39.686 0.056 6.46 2.71 13.73
1/3/2022 6:30:00 AM 4.24 39.632 0.056 6.46 2.83 13.74
1/3/2022 6:45:00 AM 4.2 39.56 0.056 6.46 2.74 13.76
1/3/2022 7:00:00 AM 4.16 39.488 0.056 6.46 2.8 13.77
1/3/2022 7:15:00 AM 4.11 39.398 0.056 6.46 2.76 13.78
1/3/2022 7:30:00 AM 4.06 39.308 0.056 6.46 2.7 13.8
1/3/2022 7:45:00 AM 4.02 39.236 0.056 6.46 2.68 13.82
1/3/2022 8:00:00 AM 3.99 39.182 0.056 6.46 2.75 13.85
1/3/2022 8:15:00 AM 3.96 39.128 0.056 6.46 2.75 13.88
1/3/2022 8:30:00 AM 3.93 39.074 0.056 6.46 2.8 13.9
1/3/2022 8:45:00 AM 3.9 39.02 0.056 6.47 3 13.93
1/3/2022 9:00:00 AM 3.87 38.966 0.056 6.48 2.7 13.97
1/3/2022 9:15:00 AM 3.86 38.948 0.056 6.47 2.89 13.99
1/3/2022 9:30:00 AM 3.85 38.93 0.056 6.48 2.8 14.01
1/3/2022 9:45:00 AM 3.84 38.912 0.056 6.49 2.7 14.02
1/3/2022 10:00:00 AM 3.84 38.912 0.056 6.49 2.85 14.03
1/3/2022 10:15:00 AM 3.83 38.894 0.056 6.5 2.73 14.05
1/3/2022 10:30:00 AM 3.81 38.858 0.056 6.5 2.78 14.06
1/3/2022 10:45:00 AM 3.79 38.822 0.056 6.5 2.84 14.05
1/3/2022 11:00:00 AM 3.78 38.804 0.056 6.51 2.72 14.06
1/3/2022 11:15:00 AM 3.76 38.768 0.056 6.51 2.81 14.08
1/3/2022 11:30:00 AM 3.75 38.75 0.056 6.51 2.76 14.08
1/3/2022 11:45:00 AM 3.74 38.732 0.056 6.52 2.94 14.07
1/3/2022 12:00:00 PM 3.74 38.732 0.056 6.51 2.75 14.08
1/3/2022 12:15:00 PM 3.74 38.732 0.056 6.52 2.79 14.08
1/3/2022 12:30:00 PM 3.74 38.732 0.056 6.51 2.63 14.07
1/3/2022 12:45:00 PM 3.74 38.732 0.056 6.52 2.8 14.05
1/3/2022 1:00:00 PM 3.74 38.732 0.056 6.51 2.73 14.05
1/3/2022 1:15:00 PM 3.74 38.732 0.056 6.51 2.64 14.04
1/3/2022 1:30:00 PM 3.74 38.732 0.056 6.51 2.68 14.04
1/3/2022 1:45:00 PM 3.71 38.678 0.056 6.5 2.62 14.04
1/3/2022 2:00:00 PM 3.71 38.678 0.056 6.5 2.64 14.03
1/3/2022 2:15:00 PM 3.7 38.66 0.056 6.51 2.66 14.04
1/3/2022 2:30:00 PM 3.66 38.588 0.056 6.5 2.62 14.04
1/3/2022 2:45:00 PM 3.64 38.552 0.056 6.49 2.64 14.04
1/3/2022 3:00:00 PM 3.62 38.516 0.056 6.49 2.69 14.04
1/3/2022 3:15:00 PM 3.59 38.462 0.056 6.49 2.63 14.05
1/3/2022 3:30:00 PM 3.55 38.39 0.056 6.49 2.63 14.07
1/3/2022 3:45:00 PM 3.52 38.336 0.056 6.49 2.87 14.07
1/3/2022 4:00:00 PM 3.49 38.282 0.056 6.49 2.66 14.09
1/3/2022 4:15:00 PM 3.46 38.228 0.056 6.5 2.78 14.1
1/3/2022 4:30:00 PM 3.43 38.174 0.056 6.49 2.69 14.11
1/3/2022 4:45:00 PM 3.42 38.156 0.056 6.5 2.68 14.11
1/3/2022 5:00:00 PM 3.38 38.084 0.056 6.49 2.65 14.12
1/3/2022 5:15:00 PM 3.35 38.03 0.056 6.48 2.87 14.12
1/3/2022 5:30:00 PM 3.33 37.994 0.056 6.49 2.62 14.12
1/3/2022 5:45:00 PM 3.31 37.958 0.056 6.49 2.67 14.13
1/3/2022 6:00:00 PM 3.29 37.922 0.056 6.48 2.66 14.14
1/3/2022 6:15:00 PM 3.26 37.868 0.056 6.48 2.56 14.14
1/3/2022 6:30:00 PM 3.23 37.814 0.056 6.48 2.61 14.16
1/3/2022 6:45:00 PM 3.21 37.778 0.056 6.48 2.7 14.17
1/3/2022 7:00:00 PM 3.2 37.76 0.056 6.48 2.71 14.17
1/3/2022 7:15:00 PM 3.18 37.724 0.056 6.49 2.55 14.18
1/3/2022 7:30:00 PM 3.15 37.67 0.056 6.48 2.6 14.19
1/3/2022 7:45:00 PM 3.13 37.634 0.056 6.48 2.66 14.21
1/3/2022 8:00:00 PM 3.09 37.562 0.056 6.48 2.57 14.22
1/3/2022 8:15:00 PM 3.06 37.508 0.056 6.48 2.61 14.24
1/3/2022 8:30:00 PM 3.03 37.454 0.056 6.48 2.59 14.25
1/3/2022 8:45:00 PM 2.99 37.382 0.056 6.48 2.55 14.27
1/3/2022 9:00:00 PM 2.96 37.328 0.056 6.49 2.6 14.29
1/3/2022 9:15:00 PM 2.93 37.274 0.056 6.48 2.55 14.3
1/3/2022 9:30:00 PM 2.89 37.202 0.056 6.48 2.91 14.31
1/3/2022 9:45:00 PM 2.86 37.148 0.056 6.49 2.59 14.33
1/3/2022 10:00:00 PM 2.82 37.076 0.056 6.48 2.6 14.34
1/3/2022 10:15:00 PM 2.79 37.022 0.056 6.48 2.54 14.36
1/3/2022 10:30:00 PM 2.75 36.95 0.056 6.48 2.48 14.38
1/3/2022 10:45:00 PM 2.72 36.896 0.056 6.48 2.51 14.39
1/3/2022 11:00:00 PM 2.68 36.824 0.056 6.48 2.53 14.41
1/3/2022 11:15:00 PM 2.65 36.77 0.056 6.49 2.5 14.43
1/3/2022 11:30:00 PM 2.61 36.698 0.056 6.48 2.56 14.45
1/3/2022 11:45:00 PM 2.58 36.644 0.056 6.48 2.56 14.46
1/4/2022 12:00:00 AM 2.55 36.59 0.056 6.48 2.49 14.46
1/4/2022 12:15:00 AM 2.53 36.554 0.056 6.48 2.58 14.48
1/4/2022 12:30:00 AM 2.51 36.518 0.056 6.46 2.54 14.49
1/4/2022 12:45:00 AM 2.49 36.482 0.056 6.41 2.49 14.5
1/4/2022 1:00:00 AM 2.47 36.446 0.056 6.42 2.48 14.51
1/4/2022 1:15:00 AM 2.45 36.41 0.056 6.43 2.46 14.52
1/4/2022 1:30:00 AM 2.43 36.374 0.056 6.44 2.53 14.53
1/4/2022 1:45:00 AM 2.4 36.32 0.056 6.44 2.75 14.54
1/4/2022 2:00:00 AM 2.37 36.266 0.056 6.44 2.55 14.55
1/4/2022 2:15:00 AM 2.35 36.23 0.056 6.44 2.55 14.56
1/4/2022 2:30:00 AM 2.32 36.176 0.056 6.43 2.47 14.56
1/4/2022 2:45:00 AM 2.31 36.158 0.056 6.43 2.47 14.58
1/4/2022 3:00:00 AM 2.29 36.122 0.056 6.44 2.75 14.59
1/4/2022 3:15:00 AM 2.27 36.086 0.056 6.44 2.58 14.6
1/4/2022 3:30:00 AM 2.25 36.05 0.056 6.45 2.57 14.6
1/4/2022 3:45:00 AM 2.22 35.996 0.056 6.45 2.62 14.61
1/4/2022 4:00:00 AM 2.2 35.96 0.056 6.45 2.65 14.62
1/4/2022 4:15:00 AM 2.17 35.906 0.056 6.46 2.82 14.63
1/4/2022 4:30:00 AM 2.15 35.87 0.056 6.46 2.53 14.63
1/4/2022 4:45:00 AM 2.12 35.816 0.056 6.47 2.62 14.65
1/4/2022 5:00:00 AM 2.09 35.762 0.056 6.47 2.61 14.65
1/4/2022 5:15:00 AM 2.07 35.726 0.056 6.47 2.5 14.67
1/4/2022 5:30:00 AM 2.04 35.672 0.056 6.48 2.97 14.68
1/4/2022 5:45:00 AM 2.02 35.636 0.056 6.47 2.46 14.68
1/4/2022 6:00:00 AM 1.99 35.582 0.056 6.47 2.99 14.69
1/4/2022 6:15:00 AM 1.97 35.546 0.056 6.46 2.75 14.71
1/4/2022 6:30:00 AM 1.94 35.492 0.055 6.47 2.79 14.72
1/4/2022 6:45:00 AM 1.91 35.438 0.056 6.47 2.55 14.72
1/4/2022 7:00:00 AM 1.88 35.384 0.055 6.47 2.44 14.74
1/4/2022 7:15:00 AM 1.86 35.348 0.056 6.46 2.48 14.75
1/4/2022 7:30:00 AM 1.83 35.294 0.056 6.46 2.56 14.76
1/4/2022 7:45:00 AM 1.81 35.258 0.056 6.46 2.51 14.78
1/4/2022 8:00:00 AM 1.79 35.222 0.056 6.46 2.43 14.8
1/4/2022 8:15:00 AM 1.77 35.186 0.056 6.46 2.45 14.82
1/4/2022 8:30:00 AM 1.76 35.168 0.055 6.47 2.43 14.85
1/4/2022 8:45:00 AM 1.76 35.168 0.056 6.47 2.46 14.87
1/4/2022 9:00:00 AM 1.76 35.168 0.055 6.48 2.6 14.88
1/4/2022 9:15:00 AM 1.77 35.186 0.055 6.49 2.48 14.88